<?xml version="1.0" encoding="UTF-8" standalone="no" ?>
<gpx xmlns="http://www.topografix.com/GPX/1/1" xmlns:xsi="http://www.w3.org/2001/XMLSchema-instance" xsi:schemaLocation="http://www.topografix.com/GPX/1/1 http://www.topografix.com/GPX/1/1/gpx.xsd" version="1.1" creator="VisuGPX - https://www.visugpx.com">
  <metadata>
    <name>Sortie Dimanche 7 avril 2024 départ 8h45 parking Gamm-Vert St-Girons</name>
    <desc><![CDATA[Pour demain, deux possibilités :
— Trace rouge… Un niveau plus confirmé par le Pas de Rossan (très sympa, mais avec des passages techniques caillouteux).
— Trace bleue… Par Alas, joli parcours, mais avec moins de dénivelé.]]></desc>
  </metadata>
  <trk>
    <name><![CDATA[Pas de Rossan - Passages techniques]]></name>
    <extensions>
      <line xmlns="http://www.topografix.com/GPX/gpx_style/0/2">
        <color>ff0000</color>
        <width>4</width>
          <extensions>
            <sens>1</sens>
          </extensions>
      </line>
    </extensions>
    <trkseg>
      <trkpt lat="42.96966" lon="1.06828">
        <ele>841.4</ele>
        <time>2022-01-29T13:15:03.000Z</time>
      </trkpt>
      <trkpt lat="42.96973" lon="1.0682">
        <ele>841.5</ele>
        <time>2022-01-29T13:15:07.000Z</time>
      </trkpt>
      <trkpt lat="42.96981" lon="1.0681">
        <ele>842.1</ele>
        <time>2022-01-29T13:15:11.000Z</time>
      </trkpt>
      <trkpt lat="42.96989" lon="1.06801">
        <ele>842.3</ele>
        <time>2022-01-29T13:15:15.000Z</time>
      </trkpt>
      <trkpt lat="42.96997" lon="1.06794">
        <ele>842.8</ele>
        <time>2022-01-29T13:15:19.000Z</time>
      </trkpt>
      <trkpt lat="42.97007" lon="1.06795">
        <ele>843.6</ele>
        <time>2022-01-29T13:15:23.000Z</time>
      </trkpt>
      <trkpt lat="42.97018" lon="1.06796">
        <ele>845.2</ele>
        <time>2022-01-29T13:15:27.000Z</time>
      </trkpt>
      <trkpt lat="42.97027" lon="1.068">
        <ele>846.3</ele>
        <time>2022-01-29T13:15:31.000Z</time>
      </trkpt>
      <trkpt lat="42.97036" lon="1.06807">
        <ele>847</ele>
        <time>2022-01-29T13:15:35.000Z</time>
      </trkpt>
      <trkpt lat="42.97046" lon="1.06809">
        <ele>847.9</ele>
        <time>2022-01-29T13:15:39.000Z</time>
      </trkpt>
      <trkpt lat="42.97056" lon="1.06805">
        <ele>849.2</ele>
        <time>2022-01-29T13:15:43.000Z</time>
      </trkpt>
      <trkpt lat="42.97065" lon="1.06799">
        <ele>850.2</ele>
        <time>2022-01-29T13:15:47.000Z</time>
      </trkpt>
      <trkpt lat="42.97074" lon="1.06792">
        <ele>851.6</ele>
        <time>2022-01-29T13:15:51.000Z</time>
      </trkpt>
      <trkpt lat="42.97083" lon="1.06785">
        <ele>852.5</ele>
        <time>2022-01-29T13:15:55.000Z</time>
      </trkpt>
      <trkpt lat="42.97091" lon="1.06775">
        <ele>853.6</ele>
        <time>2022-01-29T13:15:59.000Z</time>
      </trkpt>
      <trkpt lat="42.971" lon="1.06766">
        <ele>855.6</ele>
        <time>2022-01-29T13:16:04.000Z</time>
      </trkpt>
      <trkpt lat="42.97108" lon="1.06757">
        <ele>856.5</ele>
        <time>2022-01-29T13:16:08.000Z</time>
      </trkpt>
      <trkpt lat="42.97118" lon="1.06751">
        <ele>858.5</ele>
        <time>2022-01-29T13:16:12.000Z</time>
      </trkpt>
      <trkpt lat="42.97126" lon="1.06743">
        <ele>860.3</ele>
        <time>2022-01-29T13:16:16.000Z</time>
      </trkpt>
      <trkpt lat="42.97136" lon="1.06736">
        <ele>861.6</ele>
        <time>2022-01-29T13:16:20.000Z</time>
      </trkpt>
      <trkpt lat="42.97145" lon="1.06732">
        <ele>863.3</ele>
        <time>2022-01-29T13:16:25.000Z</time>
      </trkpt>
      <trkpt lat="42.97155" lon="1.06727">
        <ele>865.3</ele>
        <time>2022-01-29T13:16:30.000Z</time>
      </trkpt>
      <trkpt lat="42.97165" lon="1.06725">
        <ele>866.8</ele>
        <time>2022-01-29T13:16:34.000Z</time>
      </trkpt>
      <trkpt lat="42.97174" lon="1.06726">
        <ele>867.8</ele>
        <time>2022-01-29T13:16:37.000Z</time>
      </trkpt>
      <trkpt lat="42.97184" lon="1.06726">
        <ele>869.3</ele>
        <time>2022-01-29T13:16:41.000Z</time>
      </trkpt>
      <trkpt lat="42.97195" lon="1.06728">
        <ele>870.5</ele>
        <time>2022-01-29T13:16:45.000Z</time>
      </trkpt>
      <trkpt lat="42.97204" lon="1.06731">
        <ele>871.8</ele>
        <time>2022-01-29T13:16:49.000Z</time>
      </trkpt>
      <trkpt lat="42.97213" lon="1.06735">
        <ele>873.5</ele>
        <time>2022-01-29T13:16:53.000Z</time>
      </trkpt>
      <trkpt lat="42.97223" lon="1.06737">
        <ele>874.9</ele>
        <time>2022-01-29T13:16:58.000Z</time>
      </trkpt>
      <trkpt lat="42.9723" lon="1.06727">
        <ele>876.5</ele>
        <time>2022-01-29T13:17:03.000Z</time>
      </trkpt>
      <trkpt lat="42.97236" lon="1.06715">
        <ele>878.3</ele>
        <time>2022-01-29T13:17:08.000Z</time>
      </trkpt>
      <trkpt lat="42.97244" lon="1.06704">
        <ele>879.3</ele>
        <time>2022-01-29T13:17:13.000Z</time>
      </trkpt>
      <trkpt lat="42.97249" lon="1.06692">
        <ele>881</ele>
        <time>2022-01-29T13:17:18.000Z</time>
      </trkpt>
      <trkpt lat="42.97256" lon="1.06681">
        <ele>883.1</ele>
        <time>2022-01-29T13:17:23.000Z</time>
      </trkpt>
      <trkpt lat="42.97262" lon="1.06671">
        <ele>884.5</ele>
        <time>2022-01-29T13:17:28.000Z</time>
      </trkpt>
      <trkpt lat="42.9727" lon="1.06662">
        <ele>887.6</ele>
        <time>2022-01-29T13:17:35.000Z</time>
      </trkpt>
      <trkpt lat="42.97279" lon="1.06657">
        <ele>889</ele>
        <time>2022-01-29T13:17:40.000Z</time>
      </trkpt>
      <trkpt lat="42.97288" lon="1.06655">
        <ele>890.6</ele>
        <time>2022-01-29T13:17:44.000Z</time>
      </trkpt>
      <trkpt lat="42.97298" lon="1.06653">
        <ele>892.6</ele>
        <time>2022-01-29T13:17:49.000Z</time>
      </trkpt>
      <trkpt lat="42.97303" lon="1.06652">
        <ele>893.9</ele>
        <time>2022-01-29T13:17:55.000Z</time>
      </trkpt>
      <trkpt lat="42.97304" lon="1.06652">
        <ele>894.2</ele>
        <time>2022-01-29T13:17:57.000Z</time>
      </trkpt>
      <trkpt lat="42.97303" lon="1.0665">
        <ele>895.1</ele>
        <time>2022-01-29T13:18:02.000Z</time>
      </trkpt>
      <trkpt lat="42.97302" lon="1.0665">
        <ele>889.3</ele>
        <time>2022-01-29T13:18:53.000Z</time>
      </trkpt>
      <trkpt lat="42.97302" lon="1.0665">
        <ele>885.8</ele>
        <time>2022-01-29T13:19:10.000Z</time>
      </trkpt>
      <trkpt lat="42.97302" lon="1.0665">
        <ele>877.4</ele>
        <time>2022-01-29T13:20:23.000Z</time>
      </trkpt>
      <trkpt lat="42.97302" lon="1.0665">
        <ele>876.5</ele>
        <time>2022-01-29T13:20:43.000Z</time>
      </trkpt>
      <trkpt lat="42.97301" lon="1.06649">
        <ele>876.8</ele>
        <time>2022-01-29T13:20:46.000Z</time>
      </trkpt>
      <trkpt lat="42.97301" lon="1.06648">
        <ele>876.8</ele>
        <time>2022-01-29T13:20:52.000Z</time>
      </trkpt>
      <trkpt lat="42.97302" lon="1.06634">
        <ele>877.7</ele>
        <time>2022-01-29T13:20:59.000Z</time>
      </trkpt>
      <trkpt lat="42.97308" lon="1.06621">
        <ele>879</ele>
        <time>2022-01-29T13:21:04.000Z</time>
      </trkpt>
      <trkpt lat="42.97314" lon="1.06608">
        <ele>880.5</ele>
        <time>2022-01-29T13:21:08.000Z</time>
      </trkpt>
      <trkpt lat="42.9732" lon="1.06596">
        <ele>881.6</ele>
        <time>2022-01-29T13:21:12.000Z</time>
      </trkpt>
      <trkpt lat="42.97326" lon="1.06584">
        <ele>883.5</ele>
        <time>2022-01-29T13:21:16.000Z</time>
      </trkpt>
      <trkpt lat="42.97331" lon="1.06573">
        <ele>884.2</ele>
        <time>2022-01-29T13:21:19.000Z</time>
      </trkpt>
      <trkpt lat="42.97337" lon="1.0656">
        <ele>886.2</ele>
        <time>2022-01-29T13:21:23.000Z</time>
      </trkpt>
      <trkpt lat="42.97343" lon="1.06548">
        <ele>888.6</ele>
        <time>2022-01-29T13:21:27.000Z</time>
      </trkpt>
      <trkpt lat="42.97351" lon="1.0654">
        <ele>890.3</ele>
        <time>2022-01-29T13:21:31.000Z</time>
      </trkpt>
      <trkpt lat="42.97358" lon="1.06533">
        <ele>891.6</ele>
        <time>2022-01-29T13:21:34.000Z</time>
      </trkpt>
      <trkpt lat="42.97365" lon="1.06523">
        <ele>893.7</ele>
        <time>2022-01-29T13:21:38.000Z</time>
      </trkpt>
      <trkpt lat="42.97374" lon="1.06515">
        <ele>895.3</ele>
        <time>2022-01-29T13:21:42.000Z</time>
      </trkpt>
      <trkpt lat="42.97384" lon="1.06509">
        <ele>897.3</ele>
        <time>2022-01-29T13:21:46.000Z</time>
      </trkpt>
      <trkpt lat="42.97393" lon="1.06507">
        <ele>898.3</ele>
        <time>2022-01-29T13:21:49.000Z</time>
      </trkpt>
      <trkpt lat="42.97402" lon="1.06505">
        <ele>899.9</ele>
        <time>2022-01-29T13:21:52.000Z</time>
      </trkpt>
      <trkpt lat="42.97413" lon="1.06503">
        <ele>900.8</ele>
        <time>2022-01-29T13:21:55.000Z</time>
      </trkpt>
      <trkpt lat="42.97423" lon="1.06498">
        <ele>902</ele>
        <time>2022-01-29T13:21:58.000Z</time>
      </trkpt>
      <trkpt lat="42.97434" lon="1.06488">
        <ele>903.3</ele>
        <time>2022-01-29T13:22:01.000Z</time>
      </trkpt>
      <trkpt lat="42.97442" lon="1.06479">
        <ele>903.6</ele>
        <time>2022-01-29T13:22:03.000Z</time>
      </trkpt>
      <trkpt lat="42.9745" lon="1.06469">
        <ele>904.5</ele>
        <time>2022-01-29T13:22:05.000Z</time>
      </trkpt>
      <trkpt lat="42.97456" lon="1.06458">
        <ele>904.8</ele>
        <time>2022-01-29T13:22:07.000Z</time>
      </trkpt>
      <trkpt lat="42.97462" lon="1.06446">
        <ele>905</ele>
        <time>2022-01-29T13:22:09.000Z</time>
      </trkpt>
      <trkpt lat="42.97467" lon="1.06433">
        <ele>905.8</ele>
        <time>2022-01-29T13:22:11.000Z</time>
      </trkpt>
      <trkpt lat="42.9747" lon="1.06419">
        <ele>906.1</ele>
        <time>2022-01-29T13:22:13.000Z</time>
      </trkpt>
      <trkpt lat="42.97469" lon="1.06404">
        <ele>906.3</ele>
        <time>2022-01-29T13:22:15.000Z</time>
      </trkpt>
      <trkpt lat="42.97469" lon="1.06387">
        <ele>907.3</ele>
        <time>2022-01-29T13:22:17.000Z</time>
      </trkpt>
      <trkpt lat="42.97467" lon="1.0637">
        <ele>907.1</ele>
        <time>2022-01-29T13:22:19.000Z</time>
      </trkpt>
      <trkpt lat="42.97464" lon="1.0635">
        <ele>907.6</ele>
        <time>2022-01-29T13:22:21.000Z</time>
      </trkpt>
      <trkpt lat="42.97461" lon="1.06328">
        <ele>907.9</ele>
        <time>2022-01-29T13:22:23.000Z</time>
      </trkpt>
      <trkpt lat="42.97456" lon="1.06305">
        <ele>908.3</ele>
        <time>2022-01-29T13:22:25.000Z</time>
      </trkpt>
      <trkpt lat="42.97453" lon="1.06293">
        <ele>908.5</ele>
        <time>2022-01-29T13:22:26.000Z</time>
      </trkpt>
      <trkpt lat="42.9745" lon="1.06281">
        <ele>908.3</ele>
        <time>2022-01-29T13:22:27.000Z</time>
      </trkpt>
      <trkpt lat="42.97447" lon="1.06268">
        <ele>908.1</ele>
        <time>2022-01-29T13:22:28.000Z</time>
      </trkpt>
      <trkpt lat="42.97446" lon="1.06255">
        <ele>908.2</ele>
        <time>2022-01-29T13:22:29.000Z</time>
      </trkpt>
      <trkpt lat="42.97444" lon="1.06241">
        <ele>908.4</ele>
        <time>2022-01-29T13:22:30.000Z</time>
      </trkpt>
      <trkpt lat="42.97442" lon="1.06229">
        <ele>908.2</ele>
        <time>2022-01-29T13:22:31.000Z</time>
      </trkpt>
      <trkpt lat="42.9744" lon="1.06207">
        <ele>907.9</ele>
        <time>2022-01-29T13:22:33.000Z</time>
      </trkpt>
      <trkpt lat="42.97445" lon="1.06193">
        <ele>908.4</ele>
        <time>2022-01-29T13:22:35.000Z</time>
      </trkpt>
      <trkpt lat="42.97454" lon="1.06186">
        <ele>909</ele>
        <time>2022-01-29T13:22:37.000Z</time>
      </trkpt>
      <trkpt lat="42.97463" lon="1.0618">
        <ele>909.7</ele>
        <time>2022-01-29T13:22:39.000Z</time>
      </trkpt>
      <trkpt lat="42.97473" lon="1.06174">
        <ele>909.8</ele>
        <time>2022-01-29T13:22:41.000Z</time>
      </trkpt>
      <trkpt lat="42.97484" lon="1.06168">
        <ele>909.8</ele>
        <time>2022-01-29T13:22:43.000Z</time>
      </trkpt>
      <trkpt lat="42.97496" lon="1.06163">
        <ele>909.9</ele>
        <time>2022-01-29T13:22:45.000Z</time>
      </trkpt>
      <trkpt lat="42.97508" lon="1.06157">
        <ele>910.3</ele>
        <time>2022-01-29T13:22:47.000Z</time>
      </trkpt>
      <trkpt lat="42.9752" lon="1.06149">
        <ele>910.4</ele>
        <time>2022-01-29T13:22:49.000Z</time>
      </trkpt>
      <trkpt lat="42.97531" lon="1.06139">
        <ele>910.3</ele>
        <time>2022-01-29T13:22:51.000Z</time>
      </trkpt>
      <trkpt lat="42.97542" lon="1.06129">
        <ele>910.3</ele>
        <time>2022-01-29T13:22:53.000Z</time>
      </trkpt>
      <trkpt lat="42.97553" lon="1.06118">
        <ele>910.3</ele>
        <time>2022-01-29T13:22:55.000Z</time>
      </trkpt>
      <trkpt lat="42.97563" lon="1.06105">
        <ele>909.9</ele>
        <time>2022-01-29T13:22:57.000Z</time>
      </trkpt>
      <trkpt lat="42.97572" lon="1.06091">
        <ele>910.6</ele>
        <time>2022-01-29T13:22:59.000Z</time>
      </trkpt>
      <trkpt lat="42.97579" lon="1.06077">
        <ele>910.4</ele>
        <time>2022-01-29T13:23:01.000Z</time>
      </trkpt>
      <trkpt lat="42.97587" lon="1.06062">
        <ele>910.1</ele>
        <time>2022-01-29T13:23:03.000Z</time>
      </trkpt>
      <trkpt lat="42.97592" lon="1.06046">
        <ele>910.2</ele>
        <time>2022-01-29T13:23:05.000Z</time>
      </trkpt>
      <trkpt lat="42.97593" lon="1.0603">
        <ele>910</ele>
        <time>2022-01-29T13:23:07.000Z</time>
      </trkpt>
      <trkpt lat="42.97591" lon="1.06014">
        <ele>909.8</ele>
        <time>2022-01-29T13:23:09.000Z</time>
      </trkpt>
      <trkpt lat="42.97589" lon="1.05999">
        <ele>909.9</ele>
        <time>2022-01-29T13:23:11.000Z</time>
      </trkpt>
      <trkpt lat="42.97586" lon="1.05984">
        <ele>909.9</ele>
        <time>2022-01-29T13:23:13.000Z</time>
      </trkpt>
      <trkpt lat="42.97582" lon="1.05969">
        <ele>910.1</ele>
        <time>2022-01-29T13:23:15.000Z</time>
      </trkpt>
      <trkpt lat="42.97575" lon="1.05955">
        <ele>909.6</ele>
        <time>2022-01-29T13:23:17.000Z</time>
      </trkpt>
      <trkpt lat="42.97569" lon="1.05941">
        <ele>909.7</ele>
        <time>2022-01-29T13:23:19.000Z</time>
      </trkpt>
      <trkpt lat="42.97563" lon="1.05928">
        <ele>910.1</ele>
        <time>2022-01-29T13:23:21.000Z</time>
      </trkpt>
      <trkpt lat="42.97556" lon="1.05916">
        <ele>909.5</ele>
        <time>2022-01-29T13:23:23.000Z</time>
      </trkpt>
      <trkpt lat="42.97548" lon="1.05903">
        <ele>908.9</ele>
        <time>2022-01-29T13:23:25.000Z</time>
      </trkpt>
      <trkpt lat="42.9754" lon="1.0589">
        <ele>909</ele>
        <time>2022-01-29T13:23:27.000Z</time>
      </trkpt>
      <trkpt lat="42.97532" lon="1.05876">
        <ele>908.4</ele>
        <time>2022-01-29T13:23:29.000Z</time>
      </trkpt>
      <trkpt lat="42.97525" lon="1.05861">
        <ele>908</ele>
        <time>2022-01-29T13:23:31.000Z</time>
      </trkpt>
      <trkpt lat="42.97517" lon="1.05847">
        <ele>907.8</ele>
        <time>2022-01-29T13:23:33.000Z</time>
      </trkpt>
      <trkpt lat="42.97509" lon="1.05834">
        <ele>907.5</ele>
        <time>2022-01-29T13:23:35.000Z</time>
      </trkpt>
      <trkpt lat="42.975" lon="1.05821">
        <ele>907.2</ele>
        <time>2022-01-29T13:23:37.000Z</time>
      </trkpt>
      <trkpt lat="42.97492" lon="1.05808">
        <ele>906.9</ele>
        <time>2022-01-29T13:23:39.000Z</time>
      </trkpt>
      <trkpt lat="42.97483" lon="1.05796">
        <ele>906.2</ele>
        <time>2022-01-29T13:23:41.000Z</time>
      </trkpt>
      <trkpt lat="42.97475" lon="1.05784">
        <ele>905.9</ele>
        <time>2022-01-29T13:23:43.000Z</time>
      </trkpt>
      <trkpt lat="42.97466" lon="1.05774">
        <ele>905.3</ele>
        <time>2022-01-29T13:23:45.000Z</time>
      </trkpt>
      <trkpt lat="42.97458" lon="1.05764">
        <ele>905.5</ele>
        <time>2022-01-29T13:23:47.000Z</time>
      </trkpt>
      <trkpt lat="42.97454" lon="1.05752">
        <ele>904.2</ele>
        <time>2022-01-29T13:23:50.000Z</time>
      </trkpt>
      <trkpt lat="42.97457" lon="1.05737">
        <ele>903.3</ele>
        <time>2022-01-29T13:23:54.000Z</time>
      </trkpt>
      <trkpt lat="42.97465" lon="1.05726">
        <ele>902.9</ele>
        <time>2022-01-29T13:23:57.000Z</time>
      </trkpt>
      <trkpt lat="42.97473" lon="1.05714">
        <ele>902.8</ele>
        <time>2022-01-29T13:24:00.000Z</time>
      </trkpt>
      <trkpt lat="42.97482" lon="1.05702">
        <ele>902.1</ele>
        <time>2022-01-29T13:24:03.000Z</time>
      </trkpt>
      <trkpt lat="42.97488" lon="1.0569">
        <ele>901.6</ele>
        <time>2022-01-29T13:24:06.000Z</time>
      </trkpt>
      <trkpt lat="42.97497" lon="1.0568">
        <ele>901.2</ele>
        <time>2022-01-29T13:24:09.000Z</time>
      </trkpt>
      <trkpt lat="42.97504" lon="1.05673">
        <ele>900.5</ele>
        <time>2022-01-29T13:24:12.000Z</time>
      </trkpt>
      <trkpt lat="42.97514" lon="1.05664">
        <ele>900.1</ele>
        <time>2022-01-29T13:24:16.000Z</time>
      </trkpt>
      <trkpt lat="42.97521" lon="1.05654">
        <ele>899.4</ele>
        <time>2022-01-29T13:24:19.000Z</time>
      </trkpt>
      <trkpt lat="42.97528" lon="1.0564">
        <ele>899</ele>
        <time>2022-01-29T13:24:22.000Z</time>
      </trkpt>
      <trkpt lat="42.97531" lon="1.05627">
        <ele>899</ele>
        <time>2022-01-29T13:24:25.000Z</time>
      </trkpt>
      <trkpt lat="42.97535" lon="1.05614">
        <ele>898.3</ele>
        <time>2022-01-29T13:24:28.000Z</time>
      </trkpt>
      <trkpt lat="42.97537" lon="1.05601">
        <ele>897.5</ele>
        <time>2022-01-29T13:24:31.000Z</time>
      </trkpt>
      <trkpt lat="42.97536" lon="1.05587">
        <ele>897.3</ele>
        <time>2022-01-29T13:24:35.000Z</time>
      </trkpt>
      <trkpt lat="42.97537" lon="1.05574">
        <ele>896.7</ele>
        <time>2022-01-29T13:24:39.000Z</time>
      </trkpt>
      <trkpt lat="42.97545" lon="1.05567">
        <ele>895.9</ele>
        <time>2022-01-29T13:24:43.000Z</time>
      </trkpt>
      <trkpt lat="42.97556" lon="1.05565">
        <ele>895</ele>
        <time>2022-01-29T13:24:48.000Z</time>
      </trkpt>
      <trkpt lat="42.97567" lon="1.05559">
        <ele>894.6</ele>
        <time>2022-01-29T13:24:52.000Z</time>
      </trkpt>
      <trkpt lat="42.97575" lon="1.05548">
        <ele>894.8</ele>
        <time>2022-01-29T13:24:56.000Z</time>
      </trkpt>
      <trkpt lat="42.97582" lon="1.05536">
        <ele>894.4</ele>
        <time>2022-01-29T13:25:01.000Z</time>
      </trkpt>
      <trkpt lat="42.9759" lon="1.05527">
        <ele>894</ele>
        <time>2022-01-29T13:25:06.000Z</time>
      </trkpt>
      <trkpt lat="42.976" lon="1.05521">
        <ele>894.3</ele>
        <time>2022-01-29T13:25:11.000Z</time>
      </trkpt>
      <trkpt lat="42.9761" lon="1.05515">
        <ele>893.9</ele>
        <time>2022-01-29T13:25:16.000Z</time>
      </trkpt>
      <trkpt lat="42.9762" lon="1.05506">
        <ele>893.7</ele>
        <time>2022-01-29T13:25:20.000Z</time>
      </trkpt>
      <trkpt lat="42.97627" lon="1.05497">
        <ele>893.9</ele>
        <time>2022-01-29T13:25:23.000Z</time>
      </trkpt>
      <trkpt lat="42.97632" lon="1.05483">
        <ele>893</ele>
        <time>2022-01-29T13:25:27.000Z</time>
      </trkpt>
      <trkpt lat="42.97634" lon="1.05471">
        <ele>892.7</ele>
        <time>2022-01-29T13:25:30.000Z</time>
      </trkpt>
      <trkpt lat="42.97637" lon="1.05457">
        <ele>892.7</ele>
        <time>2022-01-29T13:25:33.000Z</time>
      </trkpt>
      <trkpt lat="42.97641" lon="1.05441">
        <ele>892.4</ele>
        <time>2022-01-29T13:25:36.000Z</time>
      </trkpt>
      <trkpt lat="42.97645" lon="1.05428">
        <ele>892.3</ele>
        <time>2022-01-29T13:25:38.000Z</time>
      </trkpt>
      <trkpt lat="42.97649" lon="1.05414">
        <ele>892</ele>
        <time>2022-01-29T13:25:40.000Z</time>
      </trkpt>
      <trkpt lat="42.97653" lon="1.05398">
        <ele>891.7</ele>
        <time>2022-01-29T13:25:42.000Z</time>
      </trkpt>
      <trkpt lat="42.97658" lon="1.0538">
        <ele>891.2</ele>
        <time>2022-01-29T13:25:44.000Z</time>
      </trkpt>
      <trkpt lat="42.97665" lon="1.05359">
        <ele>890.7</ele>
        <time>2022-01-29T13:25:46.000Z</time>
      </trkpt>
      <trkpt lat="42.97675" lon="1.05338">
        <ele>890.3</ele>
        <time>2022-01-29T13:25:48.000Z</time>
      </trkpt>
      <trkpt lat="42.97681" lon="1.05327">
        <ele>890.4</ele>
        <time>2022-01-29T13:25:49.000Z</time>
      </trkpt>
      <trkpt lat="42.97687" lon="1.05316">
        <ele>890.1</ele>
        <time>2022-01-29T13:25:50.000Z</time>
      </trkpt>
      <trkpt lat="42.97693" lon="1.05306">
        <ele>889.7</ele>
        <time>2022-01-29T13:25:51.000Z</time>
      </trkpt>
      <trkpt lat="42.977" lon="1.05295">
        <ele>889.3</ele>
        <time>2022-01-29T13:25:52.000Z</time>
      </trkpt>
      <trkpt lat="42.97707" lon="1.05284">
        <ele>889.5</ele>
        <time>2022-01-29T13:25:53.000Z</time>
      </trkpt>
      <trkpt lat="42.97714" lon="1.05272">
        <ele>889.5</ele>
        <time>2022-01-29T13:25:54.000Z</time>
      </trkpt>
      <trkpt lat="42.97721" lon="1.0526">
        <ele>889.3</ele>
        <time>2022-01-29T13:25:55.000Z</time>
      </trkpt>
      <trkpt lat="42.97728" lon="1.05248">
        <ele>888.2</ele>
        <time>2022-01-29T13:25:56.000Z</time>
      </trkpt>
      <trkpt lat="42.97736" lon="1.05237">
        <ele>887.7</ele>
        <time>2022-01-29T13:25:57.000Z</time>
      </trkpt>
      <trkpt lat="42.97744" lon="1.05226">
        <ele>887.4</ele>
        <time>2022-01-29T13:25:58.000Z</time>
      </trkpt>
      <trkpt lat="42.97752" lon="1.05216">
        <ele>887.4</ele>
        <time>2022-01-29T13:25:59.000Z</time>
      </trkpt>
      <trkpt lat="42.97759" lon="1.05206">
        <ele>887.2</ele>
        <time>2022-01-29T13:26:00.000Z</time>
      </trkpt>
      <trkpt lat="42.97767" lon="1.05196">
        <ele>886.3</ele>
        <time>2022-01-29T13:26:01.000Z</time>
      </trkpt>
      <trkpt lat="42.97774" lon="1.05186">
        <ele>886</ele>
        <time>2022-01-29T13:26:02.000Z</time>
      </trkpt>
      <trkpt lat="42.97782" lon="1.05176">
        <ele>885.3</ele>
        <time>2022-01-29T13:26:03.000Z</time>
      </trkpt>
      <trkpt lat="42.97789" lon="1.05166">
        <ele>884.7</ele>
        <time>2022-01-29T13:26:04.000Z</time>
      </trkpt>
      <trkpt lat="42.97797" lon="1.05156">
        <ele>884.5</ele>
        <time>2022-01-29T13:26:05.000Z</time>
      </trkpt>
      <trkpt lat="42.97805" lon="1.05147">
        <ele>884.2</ele>
        <time>2022-01-29T13:26:06.000Z</time>
      </trkpt>
      <trkpt lat="42.97813" lon="1.05139">
        <ele>884.1</ele>
        <time>2022-01-29T13:26:07.000Z</time>
      </trkpt>
      <trkpt lat="42.97827" lon="1.05127">
        <ele>883</ele>
        <time>2022-01-29T13:26:09.000Z</time>
      </trkpt>
      <trkpt lat="42.97841" lon="1.05114">
        <ele>882.5</ele>
        <time>2022-01-29T13:26:11.000Z</time>
      </trkpt>
      <trkpt lat="42.97854" lon="1.05099">
        <ele>881.6</ele>
        <time>2022-01-29T13:26:13.000Z</time>
      </trkpt>
      <trkpt lat="42.97864" lon="1.05084">
        <ele>880.6</ele>
        <time>2022-01-29T13:26:15.000Z</time>
      </trkpt>
      <trkpt lat="42.97867" lon="1.05067">
        <ele>880</ele>
        <time>2022-01-29T13:26:17.000Z</time>
      </trkpt>
      <trkpt lat="42.97865" lon="1.05047">
        <ele>879.7</ele>
        <time>2022-01-29T13:26:19.000Z</time>
      </trkpt>
      <trkpt lat="42.97858" lon="1.05026">
        <ele>878.6</ele>
        <time>2022-01-29T13:26:21.000Z</time>
      </trkpt>
      <trkpt lat="42.9785" lon="1.05004">
        <ele>877.5</ele>
        <time>2022-01-29T13:26:23.000Z</time>
      </trkpt>
      <trkpt lat="42.97846" lon="1.04992">
        <ele>877</ele>
        <time>2022-01-29T13:26:24.000Z</time>
      </trkpt>
      <trkpt lat="42.97842" lon="1.0498">
        <ele>876.6</ele>
        <time>2022-01-29T13:26:25.000Z</time>
      </trkpt>
      <trkpt lat="42.97837" lon="1.04968">
        <ele>875.2</ele>
        <time>2022-01-29T13:26:26.000Z</time>
      </trkpt>
      <trkpt lat="42.97832" lon="1.04956">
        <ele>874.7</ele>
        <time>2022-01-29T13:26:27.000Z</time>
      </trkpt>
      <trkpt lat="42.97827" lon="1.04944">
        <ele>874.4</ele>
        <time>2022-01-29T13:26:28.000Z</time>
      </trkpt>
      <trkpt lat="42.97822" lon="1.04932">
        <ele>874</ele>
        <time>2022-01-29T13:26:29.000Z</time>
      </trkpt>
      <trkpt lat="42.97816" lon="1.0492">
        <ele>873</ele>
        <time>2022-01-29T13:26:30.000Z</time>
      </trkpt>
      <trkpt lat="42.97811" lon="1.04908">
        <ele>872.5</ele>
        <time>2022-01-29T13:26:31.000Z</time>
      </trkpt>
      <trkpt lat="42.97805" lon="1.04897">
        <ele>872.2</ele>
        <time>2022-01-29T13:26:32.000Z</time>
      </trkpt>
      <trkpt lat="42.978" lon="1.04886">
        <ele>871.9</ele>
        <time>2022-01-29T13:26:33.000Z</time>
      </trkpt>
      <trkpt lat="42.97794" lon="1.04875">
        <ele>871.2</ele>
        <time>2022-01-29T13:26:34.000Z</time>
      </trkpt>
      <trkpt lat="42.97789" lon="1.04864">
        <ele>870.2</ele>
        <time>2022-01-29T13:26:35.000Z</time>
      </trkpt>
      <trkpt lat="42.97782" lon="1.04843">
        <ele>868.7</ele>
        <time>2022-01-29T13:26:37.000Z</time>
      </trkpt>
      <trkpt lat="42.9778" lon="1.04822">
        <ele>867.6</ele>
        <time>2022-01-29T13:26:39.000Z</time>
      </trkpt>
      <trkpt lat="42.97788" lon="1.04802">
        <ele>867.9</ele>
        <time>2022-01-29T13:26:41.000Z</time>
      </trkpt>
      <trkpt lat="42.978" lon="1.04789">
        <ele>867.3</ele>
        <time>2022-01-29T13:26:43.000Z</time>
      </trkpt>
      <trkpt lat="42.97815" lon="1.04778">
        <ele>864.8</ele>
        <time>2022-01-29T13:26:45.000Z</time>
      </trkpt>
      <trkpt lat="42.9783" lon="1.04765">
        <ele>863.4</ele>
        <time>2022-01-29T13:26:47.000Z</time>
      </trkpt>
      <trkpt lat="42.97844" lon="1.0475">
        <ele>861.5</ele>
        <time>2022-01-29T13:26:49.000Z</time>
      </trkpt>
      <trkpt lat="42.97858" lon="1.04739">
        <ele>859</ele>
        <time>2022-01-29T13:26:51.000Z</time>
      </trkpt>
      <trkpt lat="42.97867" lon="1.04734">
        <ele>858.5</ele>
        <time>2022-01-29T13:26:52.000Z</time>
      </trkpt>
      <trkpt lat="42.97886" lon="1.04733">
        <ele>857.8</ele>
        <time>2022-01-29T13:26:54.000Z</time>
      </trkpt>
      <trkpt lat="42.97896" lon="1.04733">
        <ele>857.3</ele>
        <time>2022-01-29T13:26:55.000Z</time>
      </trkpt>
      <trkpt lat="42.97907" lon="1.04735">
        <ele>856.9</ele>
        <time>2022-01-29T13:26:56.000Z</time>
      </trkpt>
      <trkpt lat="42.97916" lon="1.04737">
        <ele>856.7</ele>
        <time>2022-01-29T13:26:57.000Z</time>
      </trkpt>
      <trkpt lat="42.97926" lon="1.04737">
        <ele>855.8</ele>
        <time>2022-01-29T13:26:58.000Z</time>
      </trkpt>
      <trkpt lat="42.97935" lon="1.04735">
        <ele>855</ele>
        <time>2022-01-29T13:26:59.000Z</time>
      </trkpt>
      <trkpt lat="42.97945" lon="1.04732">
        <ele>854.4</ele>
        <time>2022-01-29T13:27:00.000Z</time>
      </trkpt>
      <trkpt lat="42.97953" lon="1.04728">
        <ele>853.9</ele>
        <time>2022-01-29T13:27:01.000Z</time>
      </trkpt>
      <trkpt lat="42.97962" lon="1.04724">
        <ele>853.5</ele>
        <time>2022-01-29T13:27:02.000Z</time>
      </trkpt>
      <trkpt lat="42.9797" lon="1.04719">
        <ele>853.1</ele>
        <time>2022-01-29T13:27:03.000Z</time>
      </trkpt>
      <trkpt lat="42.97986" lon="1.04709">
        <ele>851.8</ele>
        <time>2022-01-29T13:27:05.000Z</time>
      </trkpt>
      <trkpt lat="42.98001" lon="1.04698">
        <ele>850.3</ele>
        <time>2022-01-29T13:27:07.000Z</time>
      </trkpt>
      <trkpt lat="42.98017" lon="1.04693">
        <ele>849.1</ele>
        <time>2022-01-29T13:27:09.000Z</time>
      </trkpt>
      <trkpt lat="42.98032" lon="1.04693">
        <ele>847.6</ele>
        <time>2022-01-29T13:27:11.000Z</time>
      </trkpt>
      <trkpt lat="42.98046" lon="1.0469">
        <ele>847.2</ele>
        <time>2022-01-29T13:27:13.000Z</time>
      </trkpt>
      <trkpt lat="42.98058" lon="1.0468">
        <ele>845.9</ele>
        <time>2022-01-29T13:27:15.000Z</time>
      </trkpt>
      <trkpt lat="42.98067" lon="1.04664">
        <ele>844.6</ele>
        <time>2022-01-29T13:27:17.000Z</time>
      </trkpt>
      <trkpt lat="42.98071" lon="1.04645">
        <ele>843.8</ele>
        <time>2022-01-29T13:27:19.000Z</time>
      </trkpt>
      <trkpt lat="42.98071" lon="1.04626">
        <ele>842.4</ele>
        <time>2022-01-29T13:27:21.000Z</time>
      </trkpt>
      <trkpt lat="42.98069" lon="1.04608">
        <ele>841.6</ele>
        <time>2022-01-29T13:27:23.000Z</time>
      </trkpt>
      <trkpt lat="42.98068" lon="1.04588">
        <ele>840.6</ele>
        <time>2022-01-29T13:27:25.000Z</time>
      </trkpt>
      <trkpt lat="42.98067" lon="1.04569">
        <ele>839</ele>
        <time>2022-01-29T13:27:27.000Z</time>
      </trkpt>
      <trkpt lat="42.98065" lon="1.0455">
        <ele>837.8</ele>
        <time>2022-01-29T13:27:29.000Z</time>
      </trkpt>
      <trkpt lat="42.98063" lon="1.0453">
        <ele>836.7</ele>
        <time>2022-01-29T13:27:31.000Z</time>
      </trkpt>
      <trkpt lat="42.98062" lon="1.0451">
        <ele>836.2</ele>
        <time>2022-01-29T13:27:33.000Z</time>
      </trkpt>
      <trkpt lat="42.9806" lon="1.0449">
        <ele>835.3</ele>
        <time>2022-01-29T13:27:35.000Z</time>
      </trkpt>
      <trkpt lat="42.98056" lon="1.0447">
        <ele>834.2</ele>
        <time>2022-01-29T13:27:37.000Z</time>
      </trkpt>
      <trkpt lat="42.98053" lon="1.0445">
        <ele>833.7</ele>
        <time>2022-01-29T13:27:39.000Z</time>
      </trkpt>
      <trkpt lat="42.98058" lon="1.04431">
        <ele>832.1</ele>
        <time>2022-01-29T13:27:41.000Z</time>
      </trkpt>
      <trkpt lat="42.98066" lon="1.04419">
        <ele>830.9</ele>
        <time>2022-01-29T13:27:43.000Z</time>
      </trkpt>
      <trkpt lat="42.98075" lon="1.04408">
        <ele>829.5</ele>
        <time>2022-01-29T13:27:46.000Z</time>
      </trkpt>
      <trkpt lat="42.98079" lon="1.04394">
        <ele>828.4</ele>
        <time>2022-01-29T13:27:49.000Z</time>
      </trkpt>
      <trkpt lat="42.9808" lon="1.0438">
        <ele>827.7</ele>
        <time>2022-01-29T13:27:52.000Z</time>
      </trkpt>
      <trkpt lat="42.98079" lon="1.04364">
        <ele>826.7</ele>
        <time>2022-01-29T13:27:56.000Z</time>
      </trkpt>
      <trkpt lat="42.98079" lon="1.04349">
        <ele>824.9</ele>
        <time>2022-01-29T13:28:00.000Z</time>
      </trkpt>
      <trkpt lat="42.98078" lon="1.04335">
        <ele>823.6</ele>
        <time>2022-01-29T13:28:04.000Z</time>
      </trkpt>
      <trkpt lat="42.98078" lon="1.0432">
        <ele>822.7</ele>
        <time>2022-01-29T13:28:08.000Z</time>
      </trkpt>
      <trkpt lat="42.98078" lon="1.04305">
        <ele>821.2</ele>
        <time>2022-01-29T13:28:12.000Z</time>
      </trkpt>
      <trkpt lat="42.98076" lon="1.04291">
        <ele>820.1</ele>
        <time>2022-01-29T13:28:16.000Z</time>
      </trkpt>
      <trkpt lat="42.98073" lon="1.04276">
        <ele>819.8</ele>
        <time>2022-01-29T13:28:20.000Z</time>
      </trkpt>
      <trkpt lat="42.98071" lon="1.04261">
        <ele>818.5</ele>
        <time>2022-01-29T13:28:24.000Z</time>
      </trkpt>
      <trkpt lat="42.98069" lon="1.04246">
        <ele>817.9</ele>
        <time>2022-01-29T13:28:28.000Z</time>
      </trkpt>
      <trkpt lat="42.98068" lon="1.04231">
        <ele>817.4</ele>
        <time>2022-01-29T13:28:32.000Z</time>
      </trkpt>
      <trkpt lat="42.98067" lon="1.04216">
        <ele>816.4</ele>
        <time>2022-01-29T13:28:36.000Z</time>
      </trkpt>
      <trkpt lat="42.98066" lon="1.042">
        <ele>816</ele>
        <time>2022-01-29T13:28:40.000Z</time>
      </trkpt>
      <trkpt lat="42.98064" lon="1.04184">
        <ele>815.4</ele>
        <time>2022-01-29T13:28:44.000Z</time>
      </trkpt>
      <trkpt lat="42.98062" lon="1.04168">
        <ele>814.8</ele>
        <time>2022-01-29T13:28:48.000Z</time>
      </trkpt>
      <trkpt lat="42.98061" lon="1.04156">
        <ele>814.6</ele>
        <time>2022-01-29T13:28:51.000Z</time>
      </trkpt>
      <trkpt lat="42.98059" lon="1.04143">
        <ele>814.7</ele>
        <time>2022-01-29T13:28:54.000Z</time>
      </trkpt>
      <trkpt lat="42.98056" lon="1.04131">
        <ele>814.5</ele>
        <time>2022-01-29T13:28:57.000Z</time>
      </trkpt>
      <trkpt lat="42.98053" lon="1.04119">
        <ele>814.6</ele>
        <time>2022-01-29T13:29:00.000Z</time>
      </trkpt>
      <trkpt lat="42.98052" lon="1.04106">
        <ele>814.1</ele>
        <time>2022-01-29T13:29:03.000Z</time>
      </trkpt>
      <trkpt lat="42.98051" lon="1.04093">
        <ele>814.1</ele>
        <time>2022-01-29T13:29:06.000Z</time>
      </trkpt>
      <trkpt lat="42.98049" lon="1.0408">
        <ele>814.1</ele>
        <time>2022-01-29T13:29:09.000Z</time>
      </trkpt>
      <trkpt lat="42.98048" lon="1.04067">
        <ele>814.5</ele>
        <time>2022-01-29T13:29:12.000Z</time>
      </trkpt>
      <trkpt lat="42.98046" lon="1.04055">
        <ele>814.2</ele>
        <time>2022-01-29T13:29:15.000Z</time>
      </trkpt>
      <trkpt lat="42.98046" lon="1.04041">
        <ele>814.3</ele>
        <time>2022-01-29T13:29:18.000Z</time>
      </trkpt>
      <trkpt lat="42.98044" lon="1.04029">
        <ele>814.5</ele>
        <time>2022-01-29T13:29:21.000Z</time>
      </trkpt>
      <trkpt lat="42.98044" lon="1.04016">
        <ele>814.3</ele>
        <time>2022-01-29T13:29:24.000Z</time>
      </trkpt>
      <trkpt lat="42.98044" lon="1.04003">
        <ele>814.4</ele>
        <time>2022-01-29T13:29:27.000Z</time>
      </trkpt>
      <trkpt lat="42.98046" lon="1.0399">
        <ele>814.5</ele>
        <time>2022-01-29T13:29:30.000Z</time>
      </trkpt>
      <trkpt lat="42.98047" lon="1.03977">
        <ele>814.7</ele>
        <time>2022-01-29T13:29:33.000Z</time>
      </trkpt>
      <trkpt lat="42.98047" lon="1.03964">
        <ele>814.8</ele>
        <time>2022-01-29T13:29:36.000Z</time>
      </trkpt>
      <trkpt lat="42.98044" lon="1.03949">
        <ele>815.2</ele>
        <time>2022-01-29T13:29:40.000Z</time>
      </trkpt>
      <trkpt lat="42.9804" lon="1.03936">
        <ele>814.7</ele>
        <time>2022-01-29T13:29:43.000Z</time>
      </trkpt>
      <trkpt lat="42.98036" lon="1.03924">
        <ele>815.7</ele>
        <time>2022-01-29T13:29:46.000Z</time>
      </trkpt>
      <trkpt lat="42.98033" lon="1.03912">
        <ele>816.3</ele>
        <time>2022-01-29T13:29:49.000Z</time>
      </trkpt>
      <trkpt lat="42.98029" lon="1.03897">
        <ele>816.7</ele>
        <time>2022-01-29T13:29:53.000Z</time>
      </trkpt>
      <trkpt lat="42.98026" lon="1.03885">
        <ele>816.9</ele>
        <time>2022-01-29T13:29:56.000Z</time>
      </trkpt>
      <trkpt lat="42.98023" lon="1.03872">
        <ele>817.2</ele>
        <time>2022-01-29T13:29:59.000Z</time>
      </trkpt>
      <trkpt lat="42.9802" lon="1.0386">
        <ele>817.9</ele>
        <time>2022-01-29T13:30:02.000Z</time>
      </trkpt>
      <trkpt lat="42.98022" lon="1.03844">
        <ele>818.7</ele>
        <time>2022-01-29T13:30:06.000Z</time>
      </trkpt>
      <trkpt lat="42.9803" lon="1.03838">
        <ele>819.2</ele>
        <time>2022-01-29T13:30:09.000Z</time>
      </trkpt>
      <trkpt lat="42.9804" lon="1.03837">
        <ele>819.3</ele>
        <time>2022-01-29T13:30:12.000Z</time>
      </trkpt>
      <trkpt lat="42.98051" lon="1.03837">
        <ele>819.6</ele>
        <time>2022-01-29T13:30:15.000Z</time>
      </trkpt>
      <trkpt lat="42.98062" lon="1.03837">
        <ele>820.2</ele>
        <time>2022-01-29T13:30:18.000Z</time>
      </trkpt>
      <trkpt lat="42.98073" lon="1.03838">
        <ele>820.6</ele>
        <time>2022-01-29T13:30:21.000Z</time>
      </trkpt>
      <trkpt lat="42.98085" lon="1.03839">
        <ele>821.1</ele>
        <time>2022-01-29T13:30:24.000Z</time>
      </trkpt>
      <trkpt lat="42.98096" lon="1.03841">
        <ele>821.5</ele>
        <time>2022-01-29T13:30:27.000Z</time>
      </trkpt>
      <trkpt lat="42.98105" lon="1.03844">
        <ele>821.7</ele>
        <time>2022-01-29T13:30:30.000Z</time>
      </trkpt>
      <trkpt lat="42.98115" lon="1.03848">
        <ele>821.9</ele>
        <time>2022-01-29T13:30:33.000Z</time>
      </trkpt>
      <trkpt lat="42.98126" lon="1.03851">
        <ele>822.2</ele>
        <time>2022-01-29T13:30:36.000Z</time>
      </trkpt>
      <trkpt lat="42.98137" lon="1.03853">
        <ele>822.3</ele>
        <time>2022-01-29T13:30:39.000Z</time>
      </trkpt>
      <trkpt lat="42.98147" lon="1.03856">
        <ele>822.5</ele>
        <time>2022-01-29T13:30:42.000Z</time>
      </trkpt>
      <trkpt lat="42.98157" lon="1.03858">
        <ele>822.8</ele>
        <time>2022-01-29T13:30:45.000Z</time>
      </trkpt>
      <trkpt lat="42.98167" lon="1.03861">
        <ele>823</ele>
        <time>2022-01-29T13:30:48.000Z</time>
      </trkpt>
      <trkpt lat="42.98176" lon="1.03863">
        <ele>823.3</ele>
        <time>2022-01-29T13:30:51.000Z</time>
      </trkpt>
      <trkpt lat="42.98186" lon="1.03865">
        <ele>823.3</ele>
        <time>2022-01-29T13:30:54.000Z</time>
      </trkpt>
      <trkpt lat="42.98196" lon="1.03867">
        <ele>823.3</ele>
        <time>2022-01-29T13:30:57.000Z</time>
      </trkpt>
      <trkpt lat="42.98206" lon="1.03867">
        <ele>823.3</ele>
        <time>2022-01-29T13:31:00.000Z</time>
      </trkpt>
      <trkpt lat="42.98215" lon="1.03868">
        <ele>823.2</ele>
        <time>2022-01-29T13:31:03.000Z</time>
      </trkpt>
      <trkpt lat="42.98225" lon="1.0387">
        <ele>823</ele>
        <time>2022-01-29T13:31:06.000Z</time>
      </trkpt>
      <trkpt lat="42.98234" lon="1.03873">
        <ele>822.9</ele>
        <time>2022-01-29T13:31:09.000Z</time>
      </trkpt>
      <trkpt lat="42.98244" lon="1.03876">
        <ele>823</ele>
        <time>2022-01-29T13:31:12.000Z</time>
      </trkpt>
      <trkpt lat="42.98253" lon="1.03881">
        <ele>822.9</ele>
        <time>2022-01-29T13:31:15.000Z</time>
      </trkpt>
      <trkpt lat="42.98262" lon="1.03886">
        <ele>822.7</ele>
        <time>2022-01-29T13:31:18.000Z</time>
      </trkpt>
      <trkpt lat="42.98271" lon="1.03892">
        <ele>823</ele>
        <time>2022-01-29T13:31:21.000Z</time>
      </trkpt>
      <trkpt lat="42.9828" lon="1.03898">
        <ele>822.4</ele>
        <time>2022-01-29T13:31:24.000Z</time>
      </trkpt>
      <trkpt lat="42.98288" lon="1.03905">
        <ele>822</ele>
        <time>2022-01-29T13:31:27.000Z</time>
      </trkpt>
      <trkpt lat="42.98297" lon="1.0391">
        <ele>821.7</ele>
        <time>2022-01-29T13:31:30.000Z</time>
      </trkpt>
      <trkpt lat="42.98306" lon="1.03913">
        <ele>821.4</ele>
        <time>2022-01-29T13:31:33.000Z</time>
      </trkpt>
      <trkpt lat="42.98315" lon="1.03917">
        <ele>821.5</ele>
        <time>2022-01-29T13:31:36.000Z</time>
      </trkpt>
      <trkpt lat="42.98325" lon="1.0392">
        <ele>821.4</ele>
        <time>2022-01-29T13:31:39.000Z</time>
      </trkpt>
      <trkpt lat="42.98334" lon="1.03926">
        <ele>820.8</ele>
        <time>2022-01-29T13:31:42.000Z</time>
      </trkpt>
      <trkpt lat="42.98343" lon="1.0393">
        <ele>820.4</ele>
        <time>2022-01-29T13:31:45.000Z</time>
      </trkpt>
      <trkpt lat="42.98352" lon="1.03934">
        <ele>820.5</ele>
        <time>2022-01-29T13:31:48.000Z</time>
      </trkpt>
      <trkpt lat="42.98362" lon="1.03935">
        <ele>820.2</ele>
        <time>2022-01-29T13:31:51.000Z</time>
      </trkpt>
      <trkpt lat="42.98372" lon="1.03935">
        <ele>820.4</ele>
        <time>2022-01-29T13:31:54.000Z</time>
      </trkpt>
      <trkpt lat="42.98381" lon="1.03934">
        <ele>820.2</ele>
        <time>2022-01-29T13:31:57.000Z</time>
      </trkpt>
      <trkpt lat="42.9839" lon="1.03932">
        <ele>820.4</ele>
        <time>2022-01-29T13:32:00.000Z</time>
      </trkpt>
      <trkpt lat="42.98399" lon="1.03929">
        <ele>820.4</ele>
        <time>2022-01-29T13:32:03.000Z</time>
      </trkpt>
      <trkpt lat="42.9841" lon="1.03922">
        <ele>820.1</ele>
        <time>2022-01-29T13:32:07.000Z</time>
      </trkpt>
      <trkpt lat="42.98419" lon="1.03913">
        <ele>820.2</ele>
        <time>2022-01-29T13:32:11.000Z</time>
      </trkpt>
      <trkpt lat="42.98427" lon="1.03903">
        <ele>820.2</ele>
        <time>2022-01-29T13:32:15.000Z</time>
      </trkpt>
      <trkpt lat="42.98434" lon="1.03892">
        <ele>820.9</ele>
        <time>2022-01-29T13:32:19.000Z</time>
      </trkpt>
      <trkpt lat="42.98442" lon="1.03884">
        <ele>821.4</ele>
        <time>2022-01-29T13:32:22.000Z</time>
      </trkpt>
      <trkpt lat="42.98451" lon="1.03874">
        <ele>821.9</ele>
        <time>2022-01-29T13:32:26.000Z</time>
      </trkpt>
      <trkpt lat="42.9846" lon="1.03864">
        <ele>822.2</ele>
        <time>2022-01-29T13:32:30.000Z</time>
      </trkpt>
      <trkpt lat="42.98468" lon="1.03856">
        <ele>822.9</ele>
        <time>2022-01-29T13:32:33.000Z</time>
      </trkpt>
      <trkpt lat="42.98477" lon="1.0385">
        <ele>823.3</ele>
        <time>2022-01-29T13:32:36.000Z</time>
      </trkpt>
      <trkpt lat="42.98487" lon="1.03844">
        <ele>824</ele>
        <time>2022-01-29T13:32:40.000Z</time>
      </trkpt>
      <trkpt lat="42.98495" lon="1.03837">
        <ele>824.7</ele>
        <time>2022-01-29T13:32:43.000Z</time>
      </trkpt>
      <trkpt lat="42.98501" lon="1.03827">
        <ele>824.7</ele>
        <time>2022-01-29T13:32:46.000Z</time>
      </trkpt>
      <trkpt lat="42.98508" lon="1.03814">
        <ele>824.9</ele>
        <time>2022-01-29T13:32:50.000Z</time>
      </trkpt>
      <trkpt lat="42.98514" lon="1.038">
        <ele>825.4</ele>
        <time>2022-01-29T13:32:54.000Z</time>
      </trkpt>
      <trkpt lat="42.98517" lon="1.03789">
        <ele>825.3</ele>
        <time>2022-01-29T13:32:57.000Z</time>
      </trkpt>
      <trkpt lat="42.98521" lon="1.03775">
        <ele>825.3</ele>
        <time>2022-01-29T13:33:01.000Z</time>
      </trkpt>
      <trkpt lat="42.98525" lon="1.0376">
        <ele>825</ele>
        <time>2022-01-29T13:33:05.000Z</time>
      </trkpt>
      <trkpt lat="42.98528" lon="1.03745">
        <ele>825.8</ele>
        <time>2022-01-29T13:33:09.000Z</time>
      </trkpt>
      <trkpt lat="42.98532" lon="1.03731">
        <ele>825.4</ele>
        <time>2022-01-29T13:33:13.000Z</time>
      </trkpt>
      <trkpt lat="42.98535" lon="1.03715">
        <ele>825.7</ele>
        <time>2022-01-29T13:33:17.000Z</time>
      </trkpt>
      <trkpt lat="42.98539" lon="1.037">
        <ele>826.1</ele>
        <time>2022-01-29T13:33:21.000Z</time>
      </trkpt>
      <trkpt lat="42.98542" lon="1.03688">
        <ele>826.1</ele>
        <time>2022-01-29T13:33:24.000Z</time>
      </trkpt>
      <trkpt lat="42.98546" lon="1.03672">
        <ele>826</ele>
        <time>2022-01-29T13:33:28.000Z</time>
      </trkpt>
      <trkpt lat="42.98549" lon="1.0366">
        <ele>826.1</ele>
        <time>2022-01-29T13:33:31.000Z</time>
      </trkpt>
      <trkpt lat="42.98552" lon="1.03647">
        <ele>826.3</ele>
        <time>2022-01-29T13:33:34.000Z</time>
      </trkpt>
      <trkpt lat="42.98554" lon="1.03633">
        <ele>826.8</ele>
        <time>2022-01-29T13:33:37.000Z</time>
      </trkpt>
      <trkpt lat="42.98556" lon="1.0362">
        <ele>827.3</ele>
        <time>2022-01-29T13:33:40.000Z</time>
      </trkpt>
      <trkpt lat="42.98558" lon="1.03606">
        <ele>827.9</ele>
        <time>2022-01-29T13:33:43.000Z</time>
      </trkpt>
      <trkpt lat="42.98559" lon="1.03593">
        <ele>828.7</ele>
        <time>2022-01-29T13:33:46.000Z</time>
      </trkpt>
      <trkpt lat="42.98559" lon="1.0358">
        <ele>829.4</ele>
        <time>2022-01-29T13:33:49.000Z</time>
      </trkpt>
      <trkpt lat="42.9856" lon="1.03568">
        <ele>830.6</ele>
        <time>2022-01-29T13:33:52.000Z</time>
      </trkpt>
      <trkpt lat="42.9856" lon="1.03556">
        <ele>830.7</ele>
        <time>2022-01-29T13:33:55.000Z</time>
      </trkpt>
      <trkpt lat="42.98561" lon="1.0354">
        <ele>831.5</ele>
        <time>2022-01-29T13:33:59.000Z</time>
      </trkpt>
      <trkpt lat="42.9856" lon="1.03526">
        <ele>832.6</ele>
        <time>2022-01-29T13:34:03.000Z</time>
      </trkpt>
      <trkpt lat="42.9856" lon="1.03514">
        <ele>833.6</ele>
        <time>2022-01-29T13:34:08.000Z</time>
      </trkpt>
      <trkpt lat="42.98561" lon="1.03501">
        <ele>835.2</ele>
        <time>2022-01-29T13:34:13.000Z</time>
      </trkpt>
      <trkpt lat="42.9856" lon="1.03487">
        <ele>836.1</ele>
        <time>2022-01-29T13:34:18.000Z</time>
      </trkpt>
      <trkpt lat="42.98561" lon="1.03473">
        <ele>837.4</ele>
        <time>2022-01-29T13:34:23.000Z</time>
      </trkpt>
      <trkpt lat="42.98561" lon="1.0346">
        <ele>838.2</ele>
        <time>2022-01-29T13:34:27.000Z</time>
      </trkpt>
      <trkpt lat="42.98561" lon="1.03446">
        <ele>839.8</ele>
        <time>2022-01-29T13:34:31.000Z</time>
      </trkpt>
      <trkpt lat="42.98562" lon="1.03432">
        <ele>840.4</ele>
        <time>2022-01-29T13:34:35.000Z</time>
      </trkpt>
      <trkpt lat="42.98563" lon="1.03418">
        <ele>841.2</ele>
        <time>2022-01-29T13:34:39.000Z</time>
      </trkpt>
      <trkpt lat="42.98564" lon="1.03404">
        <ele>842.4</ele>
        <time>2022-01-29T13:34:43.000Z</time>
      </trkpt>
      <trkpt lat="42.98565" lon="1.03389">
        <ele>843.8</ele>
        <time>2022-01-29T13:34:47.000Z</time>
      </trkpt>
      <trkpt lat="42.98566" lon="1.03374">
        <ele>844.5</ele>
        <time>2022-01-29T13:34:51.000Z</time>
      </trkpt>
      <trkpt lat="42.98567" lon="1.0336">
        <ele>845.3</ele>
        <time>2022-01-29T13:34:55.000Z</time>
      </trkpt>
      <trkpt lat="42.98568" lon="1.03344">
        <ele>846.6</ele>
        <time>2022-01-29T13:34:59.000Z</time>
      </trkpt>
      <trkpt lat="42.98568" lon="1.03329">
        <ele>847</ele>
        <time>2022-01-29T13:35:03.000Z</time>
      </trkpt>
      <trkpt lat="42.98569" lon="1.03314">
        <ele>847.6</ele>
        <time>2022-01-29T13:35:07.000Z</time>
      </trkpt>
      <trkpt lat="42.9857" lon="1.03299">
        <ele>848.9</ele>
        <time>2022-01-29T13:35:11.000Z</time>
      </trkpt>
      <trkpt lat="42.98572" lon="1.03284">
        <ele>849.5</ele>
        <time>2022-01-29T13:35:15.000Z</time>
      </trkpt>
      <trkpt lat="42.98573" lon="1.03269">
        <ele>850.8</ele>
        <time>2022-01-29T13:35:19.000Z</time>
      </trkpt>
      <trkpt lat="42.98574" lon="1.03255">
        <ele>851</ele>
        <time>2022-01-29T13:35:23.000Z</time>
      </trkpt>
      <trkpt lat="42.98573" lon="1.0324">
        <ele>852.6</ele>
        <time>2022-01-29T13:35:27.000Z</time>
      </trkpt>
      <trkpt lat="42.98572" lon="1.03226">
        <ele>853.1</ele>
        <time>2022-01-29T13:35:31.000Z</time>
      </trkpt>
      <trkpt lat="42.98571" lon="1.03211">
        <ele>853.7</ele>
        <time>2022-01-29T13:35:35.000Z</time>
      </trkpt>
      <trkpt lat="42.9857" lon="1.03197">
        <ele>854.8</ele>
        <time>2022-01-29T13:35:39.000Z</time>
      </trkpt>
      <trkpt lat="42.98569" lon="1.03183">
        <ele>855.3</ele>
        <time>2022-01-29T13:35:43.000Z</time>
      </trkpt>
      <trkpt lat="42.98568" lon="1.03169">
        <ele>856.6</ele>
        <time>2022-01-29T13:35:47.000Z</time>
      </trkpt>
      <trkpt lat="42.98567" lon="1.03155">
        <ele>857</ele>
        <time>2022-01-29T13:35:51.000Z</time>
      </trkpt>
      <trkpt lat="42.98564" lon="1.03142">
        <ele>857.9</ele>
        <time>2022-01-29T13:35:55.000Z</time>
      </trkpt>
      <trkpt lat="42.9856" lon="1.03131">
        <ele>858.5</ele>
        <time>2022-01-29T13:35:59.000Z</time>
      </trkpt>
      <trkpt lat="42.98557" lon="1.03116">
        <ele>859.4</ele>
        <time>2022-01-29T13:36:04.000Z</time>
      </trkpt>
      <trkpt lat="42.98553" lon="1.03102">
        <ele>860.5</ele>
        <time>2022-01-29T13:36:09.000Z</time>
      </trkpt>
      <trkpt lat="42.98549" lon="1.03091">
        <ele>861.3</ele>
        <time>2022-01-29T13:36:13.000Z</time>
      </trkpt>
      <trkpt lat="42.98545" lon="1.0308">
        <ele>862.4</ele>
        <time>2022-01-29T13:36:17.000Z</time>
      </trkpt>
      <trkpt lat="42.98542" lon="1.03066">
        <ele>863</ele>
        <time>2022-01-29T13:36:22.000Z</time>
      </trkpt>
      <trkpt lat="42.98539" lon="1.03054">
        <ele>863.5</ele>
        <time>2022-01-29T13:36:26.000Z</time>
      </trkpt>
      <trkpt lat="42.98535" lon="1.0304">
        <ele>864.8</ele>
        <time>2022-01-29T13:36:31.000Z</time>
      </trkpt>
      <trkpt lat="42.98531" lon="1.03025">
        <ele>866</ele>
        <time>2022-01-29T13:36:36.000Z</time>
      </trkpt>
      <trkpt lat="42.98528" lon="1.03011">
        <ele>866.3</ele>
        <time>2022-01-29T13:36:41.000Z</time>
      </trkpt>
      <trkpt lat="42.98524" lon="1.02998">
        <ele>867.6</ele>
        <time>2022-01-29T13:36:46.000Z</time>
      </trkpt>
      <trkpt lat="42.98519" lon="1.02984">
        <ele>868.4</ele>
        <time>2022-01-29T13:36:51.000Z</time>
      </trkpt>
      <trkpt lat="42.98513" lon="1.02971">
        <ele>869.6</ele>
        <time>2022-01-29T13:36:56.000Z</time>
      </trkpt>
      <trkpt lat="42.98509" lon="1.02958">
        <ele>870.1</ele>
        <time>2022-01-29T13:37:01.000Z</time>
      </trkpt>
      <trkpt lat="42.98504" lon="1.02946">
        <ele>870.6</ele>
        <time>2022-01-29T13:37:05.000Z</time>
      </trkpt>
      <trkpt lat="42.985" lon="1.02935">
        <ele>871.6</ele>
        <time>2022-01-29T13:37:09.000Z</time>
      </trkpt>
      <trkpt lat="42.98496" lon="1.02921">
        <ele>872.4</ele>
        <time>2022-01-29T13:37:14.000Z</time>
      </trkpt>
      <trkpt lat="42.98492" lon="1.02909">
        <ele>873.1</ele>
        <time>2022-01-29T13:37:18.000Z</time>
      </trkpt>
      <trkpt lat="42.98489" lon="1.02895">
        <ele>874.5</ele>
        <time>2022-01-29T13:37:23.000Z</time>
      </trkpt>
      <trkpt lat="42.98486" lon="1.02882">
        <ele>875</ele>
        <time>2022-01-29T13:37:27.000Z</time>
      </trkpt>
      <trkpt lat="42.98483" lon="1.0287">
        <ele>876.4</ele>
        <time>2022-01-29T13:37:31.000Z</time>
      </trkpt>
      <trkpt lat="42.9848" lon="1.02855">
        <ele>877.3</ele>
        <time>2022-01-29T13:37:36.000Z</time>
      </trkpt>
      <trkpt lat="42.98476" lon="1.02843">
        <ele>877.9</ele>
        <time>2022-01-29T13:37:40.000Z</time>
      </trkpt>
      <trkpt lat="42.98472" lon="1.0283">
        <ele>879.2</ele>
        <time>2022-01-29T13:37:44.000Z</time>
      </trkpt>
      <trkpt lat="42.98468" lon="1.02819">
        <ele>880.1</ele>
        <time>2022-01-29T13:37:48.000Z</time>
      </trkpt>
      <trkpt lat="42.98463" lon="1.02807">
        <ele>880.8</ele>
        <time>2022-01-29T13:37:52.000Z</time>
      </trkpt>
      <trkpt lat="42.98459" lon="1.02796">
        <ele>881.7</ele>
        <time>2022-01-29T13:37:56.000Z</time>
      </trkpt>
      <trkpt lat="42.98455" lon="1.02784">
        <ele>882.6</ele>
        <time>2022-01-29T13:38:00.000Z</time>
      </trkpt>
      <trkpt lat="42.98451" lon="1.0277">
        <ele>883.8</ele>
        <time>2022-01-29T13:38:05.000Z</time>
      </trkpt>
      <trkpt lat="42.98448" lon="1.02759">
        <ele>884.7</ele>
        <time>2022-01-29T13:38:09.000Z</time>
      </trkpt>
      <trkpt lat="42.98445" lon="1.02747">
        <ele>885.8</ele>
        <time>2022-01-29T13:38:13.000Z</time>
      </trkpt>
      <trkpt lat="42.98442" lon="1.02734">
        <ele>886.7</ele>
        <time>2022-01-29T13:38:17.000Z</time>
      </trkpt>
      <trkpt lat="42.9844" lon="1.02721">
        <ele>887.8</ele>
        <time>2022-01-29T13:38:21.000Z</time>
      </trkpt>
      <trkpt lat="42.98439" lon="1.02708">
        <ele>888.6</ele>
        <time>2022-01-29T13:38:25.000Z</time>
      </trkpt>
      <trkpt lat="42.98438" lon="1.02694">
        <ele>889.6</ele>
        <time>2022-01-29T13:38:29.000Z</time>
      </trkpt>
      <trkpt lat="42.98437" lon="1.02681">
        <ele>890.8</ele>
        <time>2022-01-29T13:38:33.000Z</time>
      </trkpt>
      <trkpt lat="42.98429" lon="1.02675">
        <ele>891.6</ele>
        <time>2022-01-29T13:38:38.000Z</time>
      </trkpt>
      <trkpt lat="42.98427" lon="1.02689">
        <ele>892.1</ele>
        <time>2022-01-29T13:38:42.000Z</time>
      </trkpt>
      <trkpt lat="42.9843" lon="1.02702">
        <ele>892.5</ele>
        <time>2022-01-29T13:38:46.000Z</time>
      </trkpt>
      <trkpt lat="42.98431" lon="1.02716">
        <ele>893.3</ele>
        <time>2022-01-29T13:38:50.000Z</time>
      </trkpt>
      <trkpt lat="42.98433" lon="1.0273">
        <ele>893.5</ele>
        <time>2022-01-29T13:38:54.000Z</time>
      </trkpt>
      <trkpt lat="42.98434" lon="1.02744">
        <ele>895.1</ele>
        <time>2022-01-29T13:38:58.000Z</time>
      </trkpt>
      <trkpt lat="42.98436" lon="1.02758">
        <ele>895.4</ele>
        <time>2022-01-29T13:39:02.000Z</time>
      </trkpt>
      <trkpt lat="42.98437" lon="1.02773">
        <ele>896.7</ele>
        <time>2022-01-29T13:39:06.000Z</time>
      </trkpt>
      <trkpt lat="42.98437" lon="1.02786">
        <ele>897.2</ele>
        <time>2022-01-29T13:39:10.000Z</time>
      </trkpt>
      <trkpt lat="42.98435" lon="1.028">
        <ele>897.8</ele>
        <time>2022-01-29T13:39:14.000Z</time>
      </trkpt>
      <trkpt lat="42.98434" lon="1.02814">
        <ele>898.9</ele>
        <time>2022-01-29T13:39:18.000Z</time>
      </trkpt>
      <trkpt lat="42.98433" lon="1.02827">
        <ele>899.8</ele>
        <time>2022-01-29T13:39:22.000Z</time>
      </trkpt>
      <trkpt lat="42.98433" lon="1.0284">
        <ele>900.7</ele>
        <time>2022-01-29T13:39:26.000Z</time>
      </trkpt>
      <trkpt lat="42.98434" lon="1.02853">
        <ele>901.2</ele>
        <time>2022-01-29T13:39:30.000Z</time>
      </trkpt>
      <trkpt lat="42.98438" lon="1.02866">
        <ele>901.8</ele>
        <time>2022-01-29T13:39:34.000Z</time>
      </trkpt>
      <trkpt lat="42.98439" lon="1.02878">
        <ele>902.7</ele>
        <time>2022-01-29T13:39:38.000Z</time>
      </trkpt>
      <trkpt lat="42.9843" lon="1.02871">
        <ele>903.6</ele>
        <time>2022-01-29T13:39:44.000Z</time>
      </trkpt>
      <trkpt lat="42.98429" lon="1.02858">
        <ele>904.4</ele>
        <time>2022-01-29T13:39:48.000Z</time>
      </trkpt>
      <trkpt lat="42.98426" lon="1.02844">
        <ele>905</ele>
        <time>2022-01-29T13:39:52.000Z</time>
      </trkpt>
      <trkpt lat="42.98423" lon="1.02832">
        <ele>905.5</ele>
        <time>2022-01-29T13:39:56.000Z</time>
      </trkpt>
      <trkpt lat="42.9842" lon="1.02819">
        <ele>906.5</ele>
        <time>2022-01-29T13:40:00.000Z</time>
      </trkpt>
      <trkpt lat="42.98417" lon="1.02806">
        <ele>907.2</ele>
        <time>2022-01-29T13:40:04.000Z</time>
      </trkpt>
      <trkpt lat="42.98414" lon="1.02792">
        <ele>908.2</ele>
        <time>2022-01-29T13:40:08.000Z</time>
      </trkpt>
      <trkpt lat="42.98411" lon="1.02779">
        <ele>909.1</ele>
        <time>2022-01-29T13:40:12.000Z</time>
      </trkpt>
      <trkpt lat="42.98408" lon="1.02767">
        <ele>909.4</ele>
        <time>2022-01-29T13:40:16.000Z</time>
      </trkpt>
      <trkpt lat="42.98406" lon="1.02754">
        <ele>910.3</ele>
        <time>2022-01-29T13:40:20.000Z</time>
      </trkpt>
      <trkpt lat="42.98404" lon="1.02741">
        <ele>911.4</ele>
        <time>2022-01-29T13:40:24.000Z</time>
      </trkpt>
      <trkpt lat="42.98403" lon="1.02729">
        <ele>911.8</ele>
        <time>2022-01-29T13:40:28.000Z</time>
      </trkpt>
      <trkpt lat="42.984" lon="1.02714">
        <ele>913</ele>
        <time>2022-01-29T13:40:33.000Z</time>
      </trkpt>
      <trkpt lat="42.98398" lon="1.027">
        <ele>914.2</ele>
        <time>2022-01-29T13:40:38.000Z</time>
      </trkpt>
      <trkpt lat="42.98394" lon="1.02689">
        <ele>915.9</ele>
        <time>2022-01-29T13:40:43.000Z</time>
      </trkpt>
      <trkpt lat="42.9839" lon="1.02675">
        <ele>916.5</ele>
        <time>2022-01-29T13:40:48.000Z</time>
      </trkpt>
      <trkpt lat="42.98383" lon="1.02665">
        <ele>917.3</ele>
        <time>2022-01-29T13:40:53.000Z</time>
      </trkpt>
      <trkpt lat="42.9838" lon="1.02653">
        <ele>919.6</ele>
        <time>2022-01-29T13:41:07.000Z</time>
      </trkpt>
      <trkpt lat="42.98375" lon="1.0264">
        <ele>920.5</ele>
        <time>2022-01-29T13:41:12.000Z</time>
      </trkpt>
      <trkpt lat="42.98369" lon="1.02627">
        <ele>920.9</ele>
        <time>2022-01-29T13:41:17.000Z</time>
      </trkpt>
      <trkpt lat="42.98364" lon="1.02613">
        <ele>921.8</ele>
        <time>2022-01-29T13:41:22.000Z</time>
      </trkpt>
      <trkpt lat="42.9836" lon="1.02601">
        <ele>922.5</ele>
        <time>2022-01-29T13:41:26.000Z</time>
      </trkpt>
      <trkpt lat="42.98357" lon="1.02587">
        <ele>923.1</ele>
        <time>2022-01-29T13:41:30.000Z</time>
      </trkpt>
      <trkpt lat="42.98354" lon="1.02574">
        <ele>923.9</ele>
        <time>2022-01-29T13:41:34.000Z</time>
      </trkpt>
      <trkpt lat="42.98351" lon="1.0256">
        <ele>924.7</ele>
        <time>2022-01-29T13:41:38.000Z</time>
      </trkpt>
      <trkpt lat="42.98348" lon="1.02547">
        <ele>924.9</ele>
        <time>2022-01-29T13:41:42.000Z</time>
      </trkpt>
      <trkpt lat="42.98347" lon="1.02533">
        <ele>925.7</ele>
        <time>2022-01-29T13:41:46.000Z</time>
      </trkpt>
      <trkpt lat="42.98352" lon="1.02521">
        <ele>926.4</ele>
        <time>2022-01-29T13:41:50.000Z</time>
      </trkpt>
      <trkpt lat="42.98362" lon="1.02512">
        <ele>927.7</ele>
        <time>2022-01-29T13:41:54.000Z</time>
      </trkpt>
      <trkpt lat="42.98371" lon="1.02506">
        <ele>928.4</ele>
        <time>2022-01-29T13:41:57.000Z</time>
      </trkpt>
      <trkpt lat="42.98379" lon="1.02498">
        <ele>928.7</ele>
        <time>2022-01-29T13:42:00.000Z</time>
      </trkpt>
      <trkpt lat="42.98385" lon="1.02487">
        <ele>929.4</ele>
        <time>2022-01-29T13:42:03.000Z</time>
      </trkpt>
      <trkpt lat="42.98388" lon="1.02473">
        <ele>929.7</ele>
        <time>2022-01-29T13:42:07.000Z</time>
      </trkpt>
      <trkpt lat="42.98391" lon="1.0246">
        <ele>930.5</ele>
        <time>2022-01-29T13:42:10.000Z</time>
      </trkpt>
      <trkpt lat="42.98393" lon="1.02446">
        <ele>931.2</ele>
        <time>2022-01-29T13:42:13.000Z</time>
      </trkpt>
      <trkpt lat="42.98396" lon="1.02433">
        <ele>931.2</ele>
        <time>2022-01-29T13:42:16.000Z</time>
      </trkpt>
      <trkpt lat="42.98399" lon="1.02421">
        <ele>931.4</ele>
        <time>2022-01-29T13:42:19.000Z</time>
      </trkpt>
      <trkpt lat="42.98402" lon="1.02409">
        <ele>932.1</ele>
        <time>2022-01-29T13:42:22.000Z</time>
      </trkpt>
      <trkpt lat="42.98405" lon="1.02397">
        <ele>932.2</ele>
        <time>2022-01-29T13:42:25.000Z</time>
      </trkpt>
      <trkpt lat="42.98407" lon="1.02385">
        <ele>932.3</ele>
        <time>2022-01-29T13:42:28.000Z</time>
      </trkpt>
      <trkpt lat="42.98408" lon="1.02372">
        <ele>932.9</ele>
        <time>2022-01-29T13:42:31.000Z</time>
      </trkpt>
      <trkpt lat="42.9841" lon="1.0236">
        <ele>932.9</ele>
        <time>2022-01-29T13:42:34.000Z</time>
      </trkpt>
      <trkpt lat="42.98414" lon="1.02347">
        <ele>933.6</ele>
        <time>2022-01-29T13:42:37.000Z</time>
      </trkpt>
      <trkpt lat="42.98418" lon="1.02335">
        <ele>933.9</ele>
        <time>2022-01-29T13:42:40.000Z</time>
      </trkpt>
      <trkpt lat="42.98419" lon="1.02322">
        <ele>934.4</ele>
        <time>2022-01-29T13:42:43.000Z</time>
      </trkpt>
      <trkpt lat="42.98422" lon="1.02309">
        <ele>934.7</ele>
        <time>2022-01-29T13:42:46.000Z</time>
      </trkpt>
      <trkpt lat="42.98425" lon="1.02296">
        <ele>934.7</ele>
        <time>2022-01-29T13:42:49.000Z</time>
      </trkpt>
      <trkpt lat="42.98429" lon="1.02283">
        <ele>935</ele>
        <time>2022-01-29T13:42:52.000Z</time>
      </trkpt>
      <trkpt lat="42.98432" lon="1.0227">
        <ele>935.3</ele>
        <time>2022-01-29T13:42:55.000Z</time>
      </trkpt>
      <trkpt lat="42.98434" lon="1.02258">
        <ele>935.7</ele>
        <time>2022-01-29T13:42:58.000Z</time>
      </trkpt>
      <trkpt lat="42.98438" lon="1.02242">
        <ele>935.5</ele>
        <time>2022-01-29T13:43:02.000Z</time>
      </trkpt>
      <trkpt lat="42.98441" lon="1.0223">
        <ele>936.1</ele>
        <time>2022-01-29T13:43:05.000Z</time>
      </trkpt>
      <trkpt lat="42.98445" lon="1.02217">
        <ele>936.1</ele>
        <time>2022-01-29T13:43:08.000Z</time>
      </trkpt>
      <trkpt lat="42.98448" lon="1.02204">
        <ele>936.2</ele>
        <time>2022-01-29T13:43:11.000Z</time>
      </trkpt>
      <trkpt lat="42.98451" lon="1.02192">
        <ele>936.4</ele>
        <time>2022-01-29T13:43:14.000Z</time>
      </trkpt>
      <trkpt lat="42.98454" lon="1.02179">
        <ele>936.6</ele>
        <time>2022-01-29T13:43:17.000Z</time>
      </trkpt>
      <trkpt lat="42.98458" lon="1.02164">
        <ele>936.9</ele>
        <time>2022-01-29T13:43:20.000Z</time>
      </trkpt>
      <trkpt lat="42.98462" lon="1.02148">
        <ele>936.8</ele>
        <time>2022-01-29T13:43:23.000Z</time>
      </trkpt>
      <trkpt lat="42.98465" lon="1.02133">
        <ele>936.7</ele>
        <time>2022-01-29T13:43:26.000Z</time>
      </trkpt>
      <trkpt lat="42.98467" lon="1.02118">
        <ele>936.8</ele>
        <time>2022-01-29T13:43:29.000Z</time>
      </trkpt>
      <trkpt lat="42.9847" lon="1.02102">
        <ele>936.8</ele>
        <time>2022-01-29T13:43:32.000Z</time>
      </trkpt>
      <trkpt lat="42.9847" lon="1.02089">
        <ele>936.7</ele>
        <time>2022-01-29T13:43:34.000Z</time>
      </trkpt>
      <trkpt lat="42.98469" lon="1.02075">
        <ele>937</ele>
        <time>2022-01-29T13:43:36.000Z</time>
      </trkpt>
      <trkpt lat="42.98464" lon="1.02062">
        <ele>936.6</ele>
        <time>2022-01-29T13:43:38.000Z</time>
      </trkpt>
      <trkpt lat="42.98459" lon="1.02047">
        <ele>936.2</ele>
        <time>2022-01-29T13:43:40.000Z</time>
      </trkpt>
      <trkpt lat="42.98456" lon="1.02032">
        <ele>936.2</ele>
        <time>2022-01-29T13:43:42.000Z</time>
      </trkpt>
      <trkpt lat="42.98453" lon="1.02015">
        <ele>935.8</ele>
        <time>2022-01-29T13:43:44.000Z</time>
      </trkpt>
      <trkpt lat="42.98447" lon="1.01999">
        <ele>935.9</ele>
        <time>2022-01-29T13:43:46.000Z</time>
      </trkpt>
      <trkpt lat="42.98438" lon="1.01985">
        <ele>935.7</ele>
        <time>2022-01-29T13:43:48.000Z</time>
      </trkpt>
      <trkpt lat="42.98428" lon="1.01968">
        <ele>935.1</ele>
        <time>2022-01-29T13:43:50.000Z</time>
      </trkpt>
      <trkpt lat="42.98422" lon="1.01947">
        <ele>935</ele>
        <time>2022-01-29T13:43:52.000Z</time>
      </trkpt>
      <trkpt lat="42.98424" lon="1.01935">
        <ele>934.7</ele>
        <time>2022-01-29T13:43:53.000Z</time>
      </trkpt>
      <trkpt lat="42.98429" lon="1.01912">
        <ele>934.2</ele>
        <time>2022-01-29T13:43:55.000Z</time>
      </trkpt>
      <trkpt lat="42.98431" lon="1.01889">
        <ele>934.5</ele>
        <time>2022-01-29T13:43:57.000Z</time>
      </trkpt>
      <trkpt lat="42.98432" lon="1.01868">
        <ele>933.8</ele>
        <time>2022-01-29T13:43:59.000Z</time>
      </trkpt>
      <trkpt lat="42.98438" lon="1.01849">
        <ele>933.5</ele>
        <time>2022-01-29T13:44:01.000Z</time>
      </trkpt>
      <trkpt lat="42.98445" lon="1.01832">
        <ele>933.5</ele>
        <time>2022-01-29T13:44:03.000Z</time>
      </trkpt>
      <trkpt lat="42.98453" lon="1.01816">
        <ele>933.1</ele>
        <time>2022-01-29T13:44:05.000Z</time>
      </trkpt>
      <trkpt lat="42.98457" lon="1.018">
        <ele>932.7</ele>
        <time>2022-01-29T13:44:07.000Z</time>
      </trkpt>
      <trkpt lat="42.98463" lon="1.01785">
        <ele>932</ele>
        <time>2022-01-29T13:44:09.000Z</time>
      </trkpt>
      <trkpt lat="42.98472" lon="1.01774">
        <ele>931.8</ele>
        <time>2022-01-29T13:44:11.000Z</time>
      </trkpt>
      <trkpt lat="42.9848" lon="1.01764">
        <ele>931.6</ele>
        <time>2022-01-29T13:44:13.000Z</time>
      </trkpt>
      <trkpt lat="42.98484" lon="1.01752">
        <ele>931</ele>
        <time>2022-01-29T13:44:15.000Z</time>
      </trkpt>
      <trkpt lat="42.98483" lon="1.01736">
        <ele>930.8</ele>
        <time>2022-01-29T13:44:18.000Z</time>
      </trkpt>
      <trkpt lat="42.9848" lon="1.01722">
        <ele>930.1</ele>
        <time>2022-01-29T13:44:21.000Z</time>
      </trkpt>
      <trkpt lat="42.98477" lon="1.0171">
        <ele>930.1</ele>
        <time>2022-01-29T13:44:24.000Z</time>
      </trkpt>
      <trkpt lat="42.98472" lon="1.01698">
        <ele>929.4</ele>
        <time>2022-01-29T13:44:27.000Z</time>
      </trkpt>
      <trkpt lat="42.98469" lon="1.01686">
        <ele>929.4</ele>
        <time>2022-01-29T13:44:30.000Z</time>
      </trkpt>
      <trkpt lat="42.98464" lon="1.01674">
        <ele>928.9</ele>
        <time>2022-01-29T13:44:34.000Z</time>
      </trkpt>
      <trkpt lat="42.9846" lon="1.01662">
        <ele>929</ele>
        <time>2022-01-29T13:44:38.000Z</time>
      </trkpt>
      <trkpt lat="42.98455" lon="1.01649">
        <ele>928.9</ele>
        <time>2022-01-29T13:44:42.000Z</time>
      </trkpt>
      <trkpt lat="42.98451" lon="1.01637">
        <ele>928.8</ele>
        <time>2022-01-29T13:44:46.000Z</time>
      </trkpt>
      <trkpt lat="42.98449" lon="1.01625">
        <ele>928.6</ele>
        <time>2022-01-29T13:44:50.000Z</time>
      </trkpt>
      <trkpt lat="42.98446" lon="1.01611">
        <ele>929.1</ele>
        <time>2022-01-29T13:44:55.000Z</time>
      </trkpt>
      <trkpt lat="42.9844" lon="1.01598">
        <ele>929</ele>
        <time>2022-01-29T13:45:01.000Z</time>
      </trkpt>
      <trkpt lat="42.98434" lon="1.01585">
        <ele>928.6</ele>
        <time>2022-01-29T13:45:05.000Z</time>
      </trkpt>
      <trkpt lat="42.98428" lon="1.01571">
        <ele>928.9</ele>
        <time>2022-01-29T13:45:09.000Z</time>
      </trkpt>
      <trkpt lat="42.98423" lon="1.01561">
        <ele>929.1</ele>
        <time>2022-01-29T13:45:12.000Z</time>
      </trkpt>
      <trkpt lat="42.98417" lon="1.01551">
        <ele>929.2</ele>
        <time>2022-01-29T13:45:15.000Z</time>
      </trkpt>
      <trkpt lat="42.98411" lon="1.01537">
        <ele>929.8</ele>
        <time>2022-01-29T13:45:19.000Z</time>
      </trkpt>
      <trkpt lat="42.98405" lon="1.01525">
        <ele>930.4</ele>
        <time>2022-01-29T13:45:23.000Z</time>
      </trkpt>
      <trkpt lat="42.98399" lon="1.01513">
        <ele>930.6</ele>
        <time>2022-01-29T13:45:27.000Z</time>
      </trkpt>
      <trkpt lat="42.98395" lon="1.01502">
        <ele>931</ele>
        <time>2022-01-29T13:45:31.000Z</time>
      </trkpt>
      <trkpt lat="42.9839" lon="1.0149">
        <ele>930.8</ele>
        <time>2022-01-29T13:45:35.000Z</time>
      </trkpt>
      <trkpt lat="42.98384" lon="1.01479">
        <ele>931.6</ele>
        <time>2022-01-29T13:45:39.000Z</time>
      </trkpt>
      <trkpt lat="42.98379" lon="1.01468">
        <ele>931.7</ele>
        <time>2022-01-29T13:45:43.000Z</time>
      </trkpt>
      <trkpt lat="42.98373" lon="1.01458">
        <ele>932.1</ele>
        <time>2022-01-29T13:45:47.000Z</time>
      </trkpt>
      <trkpt lat="42.98367" lon="1.01448">
        <ele>932.5</ele>
        <time>2022-01-29T13:45:51.000Z</time>
      </trkpt>
      <trkpt lat="42.9836" lon="1.01439">
        <ele>933.1</ele>
        <time>2022-01-29T13:45:55.000Z</time>
      </trkpt>
      <trkpt lat="42.98353" lon="1.0143">
        <ele>933.2</ele>
        <time>2022-01-29T13:45:59.000Z</time>
      </trkpt>
      <trkpt lat="42.98345" lon="1.01421">
        <ele>933.8</ele>
        <time>2022-01-29T13:46:03.000Z</time>
      </trkpt>
      <trkpt lat="42.98336" lon="1.01414">
        <ele>934.6</ele>
        <time>2022-01-29T13:46:07.000Z</time>
      </trkpt>
      <trkpt lat="42.98329" lon="1.01407">
        <ele>934.4</ele>
        <time>2022-01-29T13:46:11.000Z</time>
      </trkpt>
      <trkpt lat="42.98319" lon="1.01399">
        <ele>935.2</ele>
        <time>2022-01-29T13:46:16.000Z</time>
      </trkpt>
      <trkpt lat="42.98311" lon="1.01392">
        <ele>935.2</ele>
        <time>2022-01-29T13:46:20.000Z</time>
      </trkpt>
      <trkpt lat="42.98303" lon="1.01385">
        <ele>935.6</ele>
        <time>2022-01-29T13:46:24.000Z</time>
      </trkpt>
      <trkpt lat="42.98294" lon="1.01379">
        <ele>935.7</ele>
        <time>2022-01-29T13:46:28.000Z</time>
      </trkpt>
      <trkpt lat="42.98283" lon="1.01377">
        <ele>936.2</ele>
        <time>2022-01-29T13:46:33.000Z</time>
      </trkpt>
      <trkpt lat="42.98274" lon="1.01375">
        <ele>936.3</ele>
        <time>2022-01-29T13:46:37.000Z</time>
      </trkpt>
      <trkpt lat="42.98264" lon="1.01373">
        <ele>937.3</ele>
        <time>2022-01-29T13:46:41.000Z</time>
      </trkpt>
      <trkpt lat="42.98255" lon="1.01374">
        <ele>937.4</ele>
        <time>2022-01-29T13:46:45.000Z</time>
      </trkpt>
      <trkpt lat="42.98245" lon="1.01378">
        <ele>937.9</ele>
        <time>2022-01-29T13:46:49.000Z</time>
      </trkpt>
      <trkpt lat="42.98237" lon="1.01383">
        <ele>938.8</ele>
        <time>2022-01-29T13:46:53.000Z</time>
      </trkpt>
      <trkpt lat="42.98229" lon="1.0139">
        <ele>939</ele>
        <time>2022-01-29T13:46:57.000Z</time>
      </trkpt>
      <trkpt lat="42.98221" lon="1.01396">
        <ele>939.4</ele>
        <time>2022-01-29T13:47:01.000Z</time>
      </trkpt>
      <trkpt lat="42.98214" lon="1.01403">
        <ele>939.9</ele>
        <time>2022-01-29T13:47:05.000Z</time>
      </trkpt>
      <trkpt lat="42.98205" lon="1.01411">
        <ele>940</ele>
        <time>2022-01-29T13:47:10.000Z</time>
      </trkpt>
      <trkpt lat="42.98196" lon="1.0142">
        <ele>940.1</ele>
        <time>2022-01-29T13:47:14.000Z</time>
      </trkpt>
      <trkpt lat="42.98191" lon="1.0143">
        <ele>940.7</ele>
        <time>2022-01-29T13:47:18.000Z</time>
      </trkpt>
      <trkpt lat="42.98188" lon="1.01444">
        <ele>941.1</ele>
        <time>2022-01-29T13:47:23.000Z</time>
      </trkpt>
      <trkpt lat="42.9819" lon="1.01458">
        <ele>941.5</ele>
        <time>2022-01-29T13:47:28.000Z</time>
      </trkpt>
      <trkpt lat="42.98195" lon="1.01469">
        <ele>942.1</ele>
        <time>2022-01-29T13:47:32.000Z</time>
      </trkpt>
      <trkpt lat="42.98198" lon="1.01481">
        <ele>942.6</ele>
        <time>2022-01-29T13:47:36.000Z</time>
      </trkpt>
      <trkpt lat="42.98196" lon="1.01495">
        <ele>943.4</ele>
        <time>2022-01-29T13:47:40.000Z</time>
      </trkpt>
      <trkpt lat="42.98192" lon="1.01507">
        <ele>943.8</ele>
        <time>2022-01-29T13:47:44.000Z</time>
      </trkpt>
      <trkpt lat="42.98187" lon="1.01519">
        <ele>944.3</ele>
        <time>2022-01-29T13:47:48.000Z</time>
      </trkpt>
      <trkpt lat="42.98181" lon="1.01529">
        <ele>944.9</ele>
        <time>2022-01-29T13:47:52.000Z</time>
      </trkpt>
      <trkpt lat="42.98175" lon="1.01541">
        <ele>945.9</ele>
        <time>2022-01-29T13:47:57.000Z</time>
      </trkpt>
      <trkpt lat="42.98168" lon="1.01553">
        <ele>946.3</ele>
        <time>2022-01-29T13:48:02.000Z</time>
      </trkpt>
      <trkpt lat="42.98164" lon="1.01565">
        <ele>947.1</ele>
        <time>2022-01-29T13:48:06.000Z</time>
      </trkpt>
      <trkpt lat="42.98159" lon="1.01575">
        <ele>947.5</ele>
        <time>2022-01-29T13:48:10.000Z</time>
      </trkpt>
      <trkpt lat="42.98154" lon="1.01586">
        <ele>948.8</ele>
        <time>2022-01-29T13:48:14.000Z</time>
      </trkpt>
      <trkpt lat="42.98152" lon="1.01598">
        <ele>949.2</ele>
        <time>2022-01-29T13:48:18.000Z</time>
      </trkpt>
      <trkpt lat="42.98148" lon="1.01612">
        <ele>950.9</ele>
        <time>2022-01-29T13:48:23.000Z</time>
      </trkpt>
      <trkpt lat="42.98146" lon="1.01625">
        <ele>951</ele>
        <time>2022-01-29T13:48:27.000Z</time>
      </trkpt>
      <trkpt lat="42.98143" lon="1.01637">
        <ele>952.1</ele>
        <time>2022-01-29T13:48:31.000Z</time>
      </trkpt>
      <trkpt lat="42.9814" lon="1.01652">
        <ele>953.8</ele>
        <time>2022-01-29T13:48:36.000Z</time>
      </trkpt>
      <trkpt lat="42.98133" lon="1.01661">
        <ele>954.2</ele>
        <time>2022-01-29T13:48:40.000Z</time>
      </trkpt>
      <trkpt lat="42.98125" lon="1.01668">
        <ele>955.9</ele>
        <time>2022-01-29T13:48:44.000Z</time>
      </trkpt>
      <trkpt lat="42.98115" lon="1.01668">
        <ele>956.4</ele>
        <time>2022-01-29T13:48:48.000Z</time>
      </trkpt>
      <trkpt lat="42.98108" lon="1.01659">
        <ele>958</ele>
        <time>2022-01-29T13:48:52.000Z</time>
      </trkpt>
      <trkpt lat="42.98103" lon="1.01647">
        <ele>959.2</ele>
        <time>2022-01-29T13:48:56.000Z</time>
      </trkpt>
      <trkpt lat="42.98099" lon="1.01633">
        <ele>960.9</ele>
        <time>2022-01-29T13:49:01.000Z</time>
      </trkpt>
      <trkpt lat="42.98091" lon="1.01624">
        <ele>962.3</ele>
        <time>2022-01-29T13:49:06.000Z</time>
      </trkpt>
      <trkpt lat="42.98083" lon="1.01614">
        <ele>963.7</ele>
        <time>2022-01-29T13:49:11.000Z</time>
      </trkpt>
      <trkpt lat="42.98076" lon="1.01606">
        <ele>964.8</ele>
        <time>2022-01-29T13:49:15.000Z</time>
      </trkpt>
      <trkpt lat="42.98068" lon="1.01598">
        <ele>965.6</ele>
        <time>2022-01-29T13:49:19.000Z</time>
      </trkpt>
      <trkpt lat="42.98058" lon="1.01593">
        <ele>967.1</ele>
        <time>2022-01-29T13:49:23.000Z</time>
      </trkpt>
      <trkpt lat="42.98047" lon="1.01589">
        <ele>968</ele>
        <time>2022-01-29T13:49:27.000Z</time>
      </trkpt>
      <trkpt lat="42.98038" lon="1.01584">
        <ele>969.7</ele>
        <time>2022-01-29T13:49:31.000Z</time>
      </trkpt>
      <trkpt lat="42.98029" lon="1.01576">
        <ele>971</ele>
        <time>2022-01-29T13:49:36.000Z</time>
      </trkpt>
      <trkpt lat="42.98023" lon="1.01566">
        <ele>972.2</ele>
        <time>2022-01-29T13:49:40.000Z</time>
      </trkpt>
      <trkpt lat="42.98018" lon="1.01554">
        <ele>974.2</ele>
        <time>2022-01-29T13:49:44.000Z</time>
      </trkpt>
      <trkpt lat="42.98014" lon="1.01542">
        <ele>975.8</ele>
        <time>2022-01-29T13:49:48.000Z</time>
      </trkpt>
      <trkpt lat="42.9801" lon="1.01531">
        <ele>978.4</ele>
        <time>2022-01-29T13:49:52.000Z</time>
      </trkpt>
      <trkpt lat="42.98006" lon="1.01517">
        <ele>979.9</ele>
        <time>2022-01-29T13:49:56.000Z</time>
      </trkpt>
      <trkpt lat="42.98001" lon="1.01504">
        <ele>981.2</ele>
        <time>2022-01-29T13:50:00.000Z</time>
      </trkpt>
      <trkpt lat="42.97998" lon="1.01492">
        <ele>982.4</ele>
        <time>2022-01-29T13:50:04.000Z</time>
      </trkpt>
      <trkpt lat="42.97994" lon="1.01481">
        <ele>983.7</ele>
        <time>2022-01-29T13:50:08.000Z</time>
      </trkpt>
      <trkpt lat="42.97989" lon="1.01468">
        <ele>985.9</ele>
        <time>2022-01-29T13:50:13.000Z</time>
      </trkpt>
      <trkpt lat="42.97986" lon="1.01456">
        <ele>987.2</ele>
        <time>2022-01-29T13:50:17.000Z</time>
      </trkpt>
      <trkpt lat="42.97982" lon="1.01441">
        <ele>989.2</ele>
        <time>2022-01-29T13:50:22.000Z</time>
      </trkpt>
      <trkpt lat="42.97979" lon="1.0143">
        <ele>990.2</ele>
        <time>2022-01-29T13:50:26.000Z</time>
      </trkpt>
      <trkpt lat="42.97975" lon="1.01417">
        <ele>991.6</ele>
        <time>2022-01-29T13:50:30.000Z</time>
      </trkpt>
      <trkpt lat="42.97971" lon="1.01403">
        <ele>993.3</ele>
        <time>2022-01-29T13:50:35.000Z</time>
      </trkpt>
      <trkpt lat="42.97968" lon="1.01392">
        <ele>994.4</ele>
        <time>2022-01-29T13:50:39.000Z</time>
      </trkpt>
      <trkpt lat="42.97964" lon="1.01379">
        <ele>996.4</ele>
        <time>2022-01-29T13:50:44.000Z</time>
      </trkpt>
      <trkpt lat="42.97961" lon="1.01367">
        <ele>997.5</ele>
        <time>2022-01-29T13:50:48.000Z</time>
      </trkpt>
      <trkpt lat="42.97957" lon="1.01356">
        <ele>999.2</ele>
        <time>2022-01-29T13:50:52.000Z</time>
      </trkpt>
      <trkpt lat="42.97954" lon="1.01343">
        <ele>1000.6</ele>
        <time>2022-01-29T13:50:56.000Z</time>
      </trkpt>
      <trkpt lat="42.97952" lon="1.0133">
        <ele>1001.6</ele>
        <time>2022-01-29T13:51:00.000Z</time>
      </trkpt>
      <trkpt lat="42.9795" lon="1.01318">
        <ele>1002.5</ele>
        <time>2022-01-29T13:51:04.000Z</time>
      </trkpt>
      <trkpt lat="42.97949" lon="1.01304">
        <ele>1003.9</ele>
        <time>2022-01-29T13:51:08.000Z</time>
      </trkpt>
      <trkpt lat="42.97949" lon="1.01291">
        <ele>1005.4</ele>
        <time>2022-01-29T13:51:12.000Z</time>
      </trkpt>
      <trkpt lat="42.9795" lon="1.01278">
        <ele>1006.8</ele>
        <time>2022-01-29T13:51:16.000Z</time>
      </trkpt>
      <trkpt lat="42.97952" lon="1.01266">
        <ele>1008</ele>
        <time>2022-01-29T13:51:20.000Z</time>
      </trkpt>
      <trkpt lat="42.97956" lon="1.01254">
        <ele>1009.2</ele>
        <time>2022-01-29T13:51:24.000Z</time>
      </trkpt>
      <trkpt lat="42.97961" lon="1.01243">
        <ele>1011.2</ele>
        <time>2022-01-29T13:51:28.000Z</time>
      </trkpt>
      <trkpt lat="42.97967" lon="1.01232">
        <ele>1012</ele>
        <time>2022-01-29T13:51:32.000Z</time>
      </trkpt>
      <trkpt lat="42.9797" lon="1.0122">
        <ele>1013.8</ele>
        <time>2022-01-29T13:51:36.000Z</time>
      </trkpt>
      <trkpt lat="42.9797" lon="1.01206">
        <ele>1014.4</ele>
        <time>2022-01-29T13:51:40.000Z</time>
      </trkpt>
      <trkpt lat="42.97967" lon="1.01193">
        <ele>1015.6</ele>
        <time>2022-01-29T13:51:44.000Z</time>
      </trkpt>
      <trkpt lat="42.97964" lon="1.0118">
        <ele>1016.7</ele>
        <time>2022-01-29T13:51:48.000Z</time>
      </trkpt>
      <trkpt lat="42.97962" lon="1.01167">
        <ele>1017.6</ele>
        <time>2022-01-29T13:51:52.000Z</time>
      </trkpt>
      <trkpt lat="42.97953" lon="1.01165">
        <ele>1018.6</ele>
        <time>2022-01-29T13:51:57.000Z</time>
      </trkpt>
      <trkpt lat="42.97953" lon="1.01179">
        <ele>1019.9</ele>
        <time>2022-01-29T13:52:01.000Z</time>
      </trkpt>
      <trkpt lat="42.97956" lon="1.01194">
        <ele>1020.5</ele>
        <time>2022-01-29T13:52:05.000Z</time>
      </trkpt>
      <trkpt lat="42.97955" lon="1.0121">
        <ele>1020.9</ele>
        <time>2022-01-29T13:52:09.000Z</time>
      </trkpt>
      <trkpt lat="42.97953" lon="1.01224">
        <ele>1021.6</ele>
        <time>2022-01-29T13:52:13.000Z</time>
      </trkpt>
      <trkpt lat="42.97948" lon="1.01237">
        <ele>1022.4</ele>
        <time>2022-01-29T13:52:17.000Z</time>
      </trkpt>
      <trkpt lat="42.97941" lon="1.01248">
        <ele>1023.4</ele>
        <time>2022-01-29T13:52:21.000Z</time>
      </trkpt>
      <trkpt lat="42.97934" lon="1.01259">
        <ele>1023.9</ele>
        <time>2022-01-29T13:52:25.000Z</time>
      </trkpt>
      <trkpt lat="42.97926" lon="1.01271">
        <ele>1025.1</ele>
        <time>2022-01-29T13:52:29.000Z</time>
      </trkpt>
      <trkpt lat="42.97921" lon="1.01285">
        <ele>1026.1</ele>
        <time>2022-01-29T13:52:33.000Z</time>
      </trkpt>
      <trkpt lat="42.97919" lon="1.01297">
        <ele>1027.3</ele>
        <time>2022-01-29T13:52:36.000Z</time>
      </trkpt>
      <trkpt lat="42.97918" lon="1.0131">
        <ele>1028.2</ele>
        <time>2022-01-29T13:52:39.000Z</time>
      </trkpt>
      <trkpt lat="42.97918" lon="1.01323">
        <ele>1028.6</ele>
        <time>2022-01-29T13:52:42.000Z</time>
      </trkpt>
      <trkpt lat="42.97917" lon="1.01337">
        <ele>1029.2</ele>
        <time>2022-01-29T13:52:45.000Z</time>
      </trkpt>
      <trkpt lat="42.97915" lon="1.01349">
        <ele>1029.9</ele>
        <time>2022-01-29T13:52:48.000Z</time>
      </trkpt>
      <trkpt lat="42.97914" lon="1.01361">
        <ele>1030.7</ele>
        <time>2022-01-29T13:52:51.000Z</time>
      </trkpt>
      <trkpt lat="42.97912" lon="1.01374">
        <ele>1031.8</ele>
        <time>2022-01-29T13:52:54.000Z</time>
      </trkpt>
      <trkpt lat="42.97909" lon="1.01386">
        <ele>1032.4</ele>
        <time>2022-01-29T13:52:57.000Z</time>
      </trkpt>
      <trkpt lat="42.97908" lon="1.01399">
        <ele>1033.1</ele>
        <time>2022-01-29T13:53:00.000Z</time>
      </trkpt>
      <trkpt lat="42.97909" lon="1.01411">
        <ele>1033.8</ele>
        <time>2022-01-29T13:53:03.000Z</time>
      </trkpt>
      <trkpt lat="42.9791" lon="1.01427">
        <ele>1034.8</ele>
        <time>2022-01-29T13:53:07.000Z</time>
      </trkpt>
      <trkpt lat="42.9791" lon="1.01443">
        <ele>1035.6</ele>
        <time>2022-01-29T13:53:11.000Z</time>
      </trkpt>
      <trkpt lat="42.97909" lon="1.01459">
        <ele>1037.1</ele>
        <time>2022-01-29T13:53:15.000Z</time>
      </trkpt>
      <trkpt lat="42.9791" lon="1.01474">
        <ele>1038.1</ele>
        <time>2022-01-29T13:53:19.000Z</time>
      </trkpt>
      <trkpt lat="42.9791" lon="1.01488">
        <ele>1038.6</ele>
        <time>2022-01-29T13:53:23.000Z</time>
      </trkpt>
      <trkpt lat="42.97909" lon="1.01501">
        <ele>1039.7</ele>
        <time>2022-01-29T13:53:27.000Z</time>
      </trkpt>
      <trkpt lat="42.9791" lon="1.01515">
        <ele>1040.7</ele>
        <time>2022-01-29T13:53:31.000Z</time>
      </trkpt>
      <trkpt lat="42.9791" lon="1.01529">
        <ele>1041.4</ele>
        <time>2022-01-29T13:53:35.000Z</time>
      </trkpt>
      <trkpt lat="42.9791" lon="1.01543">
        <ele>1042.1</ele>
        <time>2022-01-29T13:53:39.000Z</time>
      </trkpt>
      <trkpt lat="42.97909" lon="1.01557">
        <ele>1042.7</ele>
        <time>2022-01-29T13:53:43.000Z</time>
      </trkpt>
      <trkpt lat="42.97909" lon="1.01572">
        <ele>1043.8</ele>
        <time>2022-01-29T13:53:47.000Z</time>
      </trkpt>
      <trkpt lat="42.97908" lon="1.01586">
        <ele>1044.3</ele>
        <time>2022-01-29T13:53:51.000Z</time>
      </trkpt>
      <trkpt lat="42.97907" lon="1.01601">
        <ele>1044.8</ele>
        <time>2022-01-29T13:53:55.000Z</time>
      </trkpt>
      <trkpt lat="42.97905" lon="1.01615">
        <ele>1045.5</ele>
        <time>2022-01-29T13:53:59.000Z</time>
      </trkpt>
      <trkpt lat="42.97903" lon="1.01628">
        <ele>1046.6</ele>
        <time>2022-01-29T13:54:03.000Z</time>
      </trkpt>
      <trkpt lat="42.97901" lon="1.01641">
        <ele>1047</ele>
        <time>2022-01-29T13:54:07.000Z</time>
      </trkpt>
      <trkpt lat="42.97898" lon="1.01654">
        <ele>1047.9</ele>
        <time>2022-01-29T13:54:11.000Z</time>
      </trkpt>
      <trkpt lat="42.97893" lon="1.01666">
        <ele>1048.6</ele>
        <time>2022-01-29T13:54:15.000Z</time>
      </trkpt>
      <trkpt lat="42.97888" lon="1.01676">
        <ele>1049.6</ele>
        <time>2022-01-29T13:54:19.000Z</time>
      </trkpt>
      <trkpt lat="42.97881" lon="1.01686">
        <ele>1050.7</ele>
        <time>2022-01-29T13:54:23.000Z</time>
      </trkpt>
      <trkpt lat="42.97876" lon="1.01697">
        <ele>1051.6</ele>
        <time>2022-01-29T13:54:27.000Z</time>
      </trkpt>
      <trkpt lat="42.97871" lon="1.01708">
        <ele>1052</ele>
        <time>2022-01-29T13:54:31.000Z</time>
      </trkpt>
      <trkpt lat="42.97866" lon="1.01719">
        <ele>1053.1</ele>
        <time>2022-01-29T13:54:35.000Z</time>
      </trkpt>
      <trkpt lat="42.97863" lon="1.01732">
        <ele>1054.1</ele>
        <time>2022-01-29T13:54:39.000Z</time>
      </trkpt>
      <trkpt lat="42.9786" lon="1.01745">
        <ele>1054.4</ele>
        <time>2022-01-29T13:54:43.000Z</time>
      </trkpt>
      <trkpt lat="42.97857" lon="1.01758">
        <ele>1055.4</ele>
        <time>2022-01-29T13:54:47.000Z</time>
      </trkpt>
      <trkpt lat="42.97854" lon="1.01772">
        <ele>1056.5</ele>
        <time>2022-01-29T13:54:51.000Z</time>
      </trkpt>
      <trkpt lat="42.97851" lon="1.01785">
        <ele>1056.9</ele>
        <time>2022-01-29T13:54:55.000Z</time>
      </trkpt>
      <trkpt lat="42.97849" lon="1.01798">
        <ele>1057.8</ele>
        <time>2022-01-29T13:54:59.000Z</time>
      </trkpt>
      <trkpt lat="42.97847" lon="1.0181">
        <ele>1058.3</ele>
        <time>2022-01-29T13:55:03.000Z</time>
      </trkpt>
      <trkpt lat="42.97845" lon="1.01822">
        <ele>1059.3</ele>
        <time>2022-01-29T13:55:07.000Z</time>
      </trkpt>
      <trkpt lat="42.97843" lon="1.01834">
        <ele>1059.9</ele>
        <time>2022-01-29T13:55:11.000Z</time>
      </trkpt>
      <trkpt lat="42.9784" lon="1.01846">
        <ele>1060.5</ele>
        <time>2022-01-29T13:55:15.000Z</time>
      </trkpt>
      <trkpt lat="42.97836" lon="1.0186">
        <ele>1061.1</ele>
        <time>2022-01-29T13:55:20.000Z</time>
      </trkpt>
      <trkpt lat="42.97835" lon="1.01875">
        <ele>1061.7</ele>
        <time>2022-01-29T13:55:25.000Z</time>
      </trkpt>
      <trkpt lat="42.97832" lon="1.0189">
        <ele>1062.4</ele>
        <time>2022-01-29T13:55:30.000Z</time>
      </trkpt>
      <trkpt lat="42.97829" lon="1.01905">
        <ele>1063.1</ele>
        <time>2022-01-29T13:55:35.000Z</time>
      </trkpt>
      <trkpt lat="42.97825" lon="1.01918">
        <ele>1063.7</ele>
        <time>2022-01-29T13:55:39.000Z</time>
      </trkpt>
      <trkpt lat="42.97821" lon="1.0193">
        <ele>1064.2</ele>
        <time>2022-01-29T13:55:43.000Z</time>
      </trkpt>
      <trkpt lat="42.97817" lon="1.01942">
        <ele>1065</ele>
        <time>2022-01-29T13:55:50.000Z</time>
      </trkpt>
      <trkpt lat="42.97816" lon="1.01943">
        <ele>1064.7</ele>
        <time>2022-01-29T13:55:52.000Z</time>
      </trkpt>
      <trkpt lat="42.97817" lon="1.01943">
        <ele>1064.8</ele>
        <time>2022-01-29T13:55:53.000Z</time>
      </trkpt>
      <trkpt lat="42.97816" lon="1.01943">
        <ele>1065</ele>
        <time>2022-01-29T13:55:55.000Z</time>
      </trkpt>
      <trkpt lat="42.97817" lon="1.01943">
        <ele>1065.3</ele>
        <time>2022-01-29T13:56:03.000Z</time>
      </trkpt>
      <trkpt lat="42.97816" lon="1.01943">
        <ele>1065</ele>
        <time>2022-01-29T13:56:05.000Z</time>
      </trkpt>
      <trkpt lat="42.9782" lon="1.01941">
        <ele>1065.3</ele>
        <time>2022-01-29T13:56:14.000Z</time>
      </trkpt>
      <trkpt lat="42.9782" lon="1.01941">
        <ele>1065.3</ele>
        <time>2022-01-29T13:56:18.000Z</time>
      </trkpt>
      <trkpt lat="42.97816" lon="1.01938">
        <ele>1064.7</ele>
        <time>2022-01-29T13:56:28.000Z</time>
      </trkpt>
      <trkpt lat="42.97816" lon="1.01938">
        <ele>1064.9</ele>
        <time>2022-01-29T13:56:48.000Z</time>
      </trkpt>
      <trkpt lat="42.97815" lon="1.01937">
        <ele>1065.3</ele>
        <time>2022-01-29T13:56:51.000Z</time>
      </trkpt>
      <trkpt lat="42.97815" lon="1.01937">
        <ele>1065.4</ele>
        <time>2022-01-29T13:57:02.000Z</time>
      </trkpt>
      <trkpt lat="42.97815" lon="1.01937">
        <ele>1066.1</ele>
        <time>2022-01-29T13:58:15.000Z</time>
      </trkpt>
      <trkpt lat="42.97815" lon="1.01937">
        <ele>1066.4</ele>
        <time>2022-01-29T13:58:51.000Z</time>
      </trkpt>
      <trkpt lat="42.97814" lon="1.01937">
        <ele>1066.3</ele>
        <time>2022-01-29T13:58:53.000Z</time>
      </trkpt>
      <trkpt lat="42.97812" lon="1.01935">
        <ele>1066.1</ele>
        <time>2022-01-29T13:58:59.000Z</time>
      </trkpt>
      <trkpt lat="42.97811" lon="1.01935">
        <ele>1066.4</ele>
        <time>2022-01-29T13:59:23.000Z</time>
      </trkpt>
      <trkpt lat="42.97811" lon="1.01935">
        <ele>1066.3</ele>
        <time>2022-01-29T14:00:04.000Z</time>
      </trkpt>
      <trkpt lat="42.97811" lon="1.01935">
        <ele>1067</ele>
        <time>2022-01-29T14:02:03.000Z</time>
      </trkpt>
      <trkpt lat="42.97813" lon="1.01935">
        <ele>1067</ele>
        <time>2022-01-29T14:02:07.000Z</time>
      </trkpt>
      <trkpt lat="42.97813" lon="1.01935">
        <ele>1067</ele>
        <time>2022-01-29T14:02:23.000Z</time>
      </trkpt>
      <trkpt lat="42.97814" lon="1.01935">
        <ele>1066.6</ele>
        <time>2022-01-29T14:02:26.000Z</time>
      </trkpt>
      <trkpt lat="42.97815" lon="1.01935">
        <ele>1066.4</ele>
        <time>2022-01-29T14:02:43.000Z</time>
      </trkpt>
      <trkpt lat="42.97822" lon="1.01945">
        <ele>1066.4</ele>
        <time>2022-01-29T14:02:52.000Z</time>
      </trkpt>
      <trkpt lat="42.97828" lon="1.01956">
        <ele>1066.6</ele>
        <time>2022-01-29T14:02:57.000Z</time>
      </trkpt>
      <trkpt lat="42.97838" lon="1.01964">
        <ele>1067.2</ele>
        <time>2022-01-29T14:03:02.000Z</time>
      </trkpt>
      <trkpt lat="42.97843" lon="1.01976">
        <ele>1067</ele>
        <time>2022-01-29T14:03:06.000Z</time>
      </trkpt>
      <trkpt lat="42.97839" lon="1.0199">
        <ele>1067</ele>
        <time>2022-01-29T14:03:10.000Z</time>
      </trkpt>
      <trkpt lat="42.97835" lon="1.02005">
        <ele>1067.1</ele>
        <time>2022-01-29T14:03:15.000Z</time>
      </trkpt>
      <trkpt lat="42.97834" lon="1.0202">
        <ele>1067.2</ele>
        <time>2022-01-29T14:03:20.000Z</time>
      </trkpt>
      <trkpt lat="42.97832" lon="1.02032">
        <ele>1068</ele>
        <time>2022-01-29T14:03:24.000Z</time>
      </trkpt>
      <trkpt lat="42.9783" lon="1.02045">
        <ele>1068</ele>
        <time>2022-01-29T14:03:28.000Z</time>
      </trkpt>
      <trkpt lat="42.97829" lon="1.02059">
        <ele>1068.7</ele>
        <time>2022-01-29T14:03:32.000Z</time>
      </trkpt>
      <trkpt lat="42.97829" lon="1.02071">
        <ele>1069</ele>
        <time>2022-01-29T14:03:35.000Z</time>
      </trkpt>
      <trkpt lat="42.9783" lon="1.02086">
        <ele>1069.5</ele>
        <time>2022-01-29T14:03:39.000Z</time>
      </trkpt>
      <trkpt lat="42.9783" lon="1.02098">
        <ele>1069.8</ele>
        <time>2022-01-29T14:03:44.000Z</time>
      </trkpt>
      <trkpt lat="42.97829" lon="1.02113">
        <ele>1070</ele>
        <time>2022-01-29T14:03:49.000Z</time>
      </trkpt>
      <trkpt lat="42.97828" lon="1.02128">
        <ele>1070.5</ele>
        <time>2022-01-29T14:03:54.000Z</time>
      </trkpt>
      <trkpt lat="42.97827" lon="1.02142">
        <ele>1070.8</ele>
        <time>2022-01-29T14:03:58.000Z</time>
      </trkpt>
      <trkpt lat="42.97826" lon="1.02157">
        <ele>1070.5</ele>
        <time>2022-01-29T14:04:02.000Z</time>
      </trkpt>
      <trkpt lat="42.97825" lon="1.02172">
        <ele>1070.4</ele>
        <time>2022-01-29T14:04:06.000Z</time>
      </trkpt>
      <trkpt lat="42.97824" lon="1.02186">
        <ele>1070.8</ele>
        <time>2022-01-29T14:04:09.000Z</time>
      </trkpt>
      <trkpt lat="42.97822" lon="1.02198">
        <ele>1070.5</ele>
        <time>2022-01-29T14:04:11.000Z</time>
      </trkpt>
      <trkpt lat="42.97819" lon="1.02212">
        <ele>1070.8</ele>
        <time>2022-01-29T14:04:13.000Z</time>
      </trkpt>
      <trkpt lat="42.97812" lon="1.02223">
        <ele>1069.9</ele>
        <time>2022-01-29T14:04:15.000Z</time>
      </trkpt>
      <trkpt lat="42.97804" lon="1.02233">
        <ele>1069.7</ele>
        <time>2022-01-29T14:04:17.000Z</time>
      </trkpt>
      <trkpt lat="42.97796" lon="1.02244">
        <ele>1069.7</ele>
        <time>2022-01-29T14:04:19.000Z</time>
      </trkpt>
      <trkpt lat="42.97788" lon="1.02256">
        <ele>1069.7</ele>
        <time>2022-01-29T14:04:21.000Z</time>
      </trkpt>
      <trkpt lat="42.97781" lon="1.02267">
        <ele>1069.6</ele>
        <time>2022-01-29T14:04:23.000Z</time>
      </trkpt>
      <trkpt lat="42.97774" lon="1.02276">
        <ele>1069.6</ele>
        <time>2022-01-29T14:04:25.000Z</time>
      </trkpt>
      <trkpt lat="42.97766" lon="1.02285">
        <ele>1069</ele>
        <time>2022-01-29T14:04:27.000Z</time>
      </trkpt>
      <trkpt lat="42.97756" lon="1.02294">
        <ele>1069.6</ele>
        <time>2022-01-29T14:04:29.000Z</time>
      </trkpt>
      <trkpt lat="42.97745" lon="1.02306">
        <ele>1069</ele>
        <time>2022-01-29T14:04:31.000Z</time>
      </trkpt>
      <trkpt lat="42.97731" lon="1.02318">
        <ele>1068.5</ele>
        <time>2022-01-29T14:04:33.000Z</time>
      </trkpt>
      <trkpt lat="42.97719" lon="1.02332">
        <ele>1068</ele>
        <time>2022-01-29T14:04:35.000Z</time>
      </trkpt>
      <trkpt lat="42.97709" lon="1.02345">
        <ele>1067.7</ele>
        <time>2022-01-29T14:04:37.000Z</time>
      </trkpt>
      <trkpt lat="42.97699" lon="1.02355">
        <ele>1067.5</ele>
        <time>2022-01-29T14:04:39.000Z</time>
      </trkpt>
      <trkpt lat="42.97689" lon="1.02363">
        <ele>1066.8</ele>
        <time>2022-01-29T14:04:41.000Z</time>
      </trkpt>
      <trkpt lat="42.97678" lon="1.02371">
        <ele>1066</ele>
        <time>2022-01-29T14:04:43.000Z</time>
      </trkpt>
      <trkpt lat="42.97669" lon="1.0238">
        <ele>1066</ele>
        <time>2022-01-29T14:04:45.000Z</time>
      </trkpt>
      <trkpt lat="42.97664" lon="1.02391">
        <ele>1065.2</ele>
        <time>2022-01-29T14:04:47.000Z</time>
      </trkpt>
      <trkpt lat="42.97661" lon="1.02404">
        <ele>1064.5</ele>
        <time>2022-01-29T14:04:49.000Z</time>
      </trkpt>
      <trkpt lat="42.97653" lon="1.02417">
        <ele>1063.7</ele>
        <time>2022-01-29T14:04:51.000Z</time>
      </trkpt>
      <trkpt lat="42.97641" lon="1.02422">
        <ele>1063.3</ele>
        <time>2022-01-29T14:04:53.000Z</time>
      </trkpt>
      <trkpt lat="42.97631" lon="1.02425">
        <ele>1062.7</ele>
        <time>2022-01-29T14:04:55.000Z</time>
      </trkpt>
      <trkpt lat="42.9762" lon="1.02429">
        <ele>1062.3</ele>
        <time>2022-01-29T14:04:58.000Z</time>
      </trkpt>
      <trkpt lat="42.97609" lon="1.02431">
        <ele>1061.7</ele>
        <time>2022-01-29T14:05:01.000Z</time>
      </trkpt>
      <trkpt lat="42.97599" lon="1.02435">
        <ele>1061.7</ele>
        <time>2022-01-29T14:05:04.000Z</time>
      </trkpt>
      <trkpt lat="42.97589" lon="1.02438">
        <ele>1061.3</ele>
        <time>2022-01-29T14:05:07.000Z</time>
      </trkpt>
      <trkpt lat="42.97579" lon="1.02442">
        <ele>1060.7</ele>
        <time>2022-01-29T14:05:11.000Z</time>
      </trkpt>
      <trkpt lat="42.9757" lon="1.02446">
        <ele>1060.4</ele>
        <time>2022-01-29T14:05:14.000Z</time>
      </trkpt>
      <trkpt lat="42.97561" lon="1.0245">
        <ele>1060.6</ele>
        <time>2022-01-29T14:05:18.000Z</time>
      </trkpt>
      <trkpt lat="42.97552" lon="1.02454">
        <ele>1060.5</ele>
        <time>2022-01-29T14:05:22.000Z</time>
      </trkpt>
      <trkpt lat="42.97542" lon="1.02457">
        <ele>1059.5</ele>
        <time>2022-01-29T14:05:26.000Z</time>
      </trkpt>
      <trkpt lat="42.97533" lon="1.0246">
        <ele>1059.4</ele>
        <time>2022-01-29T14:05:31.000Z</time>
      </trkpt>
      <trkpt lat="42.97523" lon="1.02461">
        <ele>1059.5</ele>
        <time>2022-01-29T14:05:35.000Z</time>
      </trkpt>
      <trkpt lat="42.97514" lon="1.02461">
        <ele>1059.9</ele>
        <time>2022-01-29T14:05:39.000Z</time>
      </trkpt>
      <trkpt lat="42.97504" lon="1.02465">
        <ele>1059.6</ele>
        <time>2022-01-29T14:05:43.000Z</time>
      </trkpt>
      <trkpt lat="42.97494" lon="1.02466">
        <ele>1060</ele>
        <time>2022-01-29T14:05:48.000Z</time>
      </trkpt>
      <trkpt lat="42.97484" lon="1.02465">
        <ele>1060.5</ele>
        <time>2022-01-29T14:05:53.000Z</time>
      </trkpt>
      <trkpt lat="42.97474" lon="1.02465">
        <ele>1060.7</ele>
        <time>2022-01-29T14:05:57.000Z</time>
      </trkpt>
      <trkpt lat="42.97464" lon="1.02467">
        <ele>1061.2</ele>
        <time>2022-01-29T14:06:01.000Z</time>
      </trkpt>
      <trkpt lat="42.97452" lon="1.02466">
        <ele>1061.2</ele>
        <time>2022-01-29T14:06:05.000Z</time>
      </trkpt>
      <trkpt lat="42.97441" lon="1.02465">
        <ele>1061.5</ele>
        <time>2022-01-29T14:06:09.000Z</time>
      </trkpt>
      <trkpt lat="42.97432" lon="1.02465">
        <ele>1061.9</ele>
        <time>2022-01-29T14:06:13.000Z</time>
      </trkpt>
      <trkpt lat="42.97421" lon="1.02467">
        <ele>1062.2</ele>
        <time>2022-01-29T14:06:17.000Z</time>
      </trkpt>
      <trkpt lat="42.97413" lon="1.02475">
        <ele>1062.5</ele>
        <time>2022-01-29T14:06:21.000Z</time>
      </trkpt>
      <trkpt lat="42.97404" lon="1.02481">
        <ele>1062.5</ele>
        <time>2022-01-29T14:06:25.000Z</time>
      </trkpt>
      <trkpt lat="42.97397" lon="1.0249">
        <ele>1063.1</ele>
        <time>2022-01-29T14:06:29.000Z</time>
      </trkpt>
      <trkpt lat="42.97392" lon="1.025">
        <ele>1062.7</ele>
        <time>2022-01-29T14:06:32.000Z</time>
      </trkpt>
      <trkpt lat="42.97385" lon="1.02509">
        <ele>1063</ele>
        <time>2022-01-29T14:06:35.000Z</time>
      </trkpt>
      <trkpt lat="42.97378" lon="1.02517">
        <ele>1063.2</ele>
        <time>2022-01-29T14:06:38.000Z</time>
      </trkpt>
      <trkpt lat="42.97372" lon="1.02528">
        <ele>1063.2</ele>
        <time>2022-01-29T14:06:41.000Z</time>
      </trkpt>
      <trkpt lat="42.97365" lon="1.0254">
        <ele>1063.1</ele>
        <time>2022-01-29T14:06:44.000Z</time>
      </trkpt>
      <trkpt lat="42.97359" lon="1.02549">
        <ele>1063.4</ele>
        <time>2022-01-29T14:06:46.000Z</time>
      </trkpt>
      <trkpt lat="42.97353" lon="1.02562">
        <ele>1063.5</ele>
        <time>2022-01-29T14:06:48.000Z</time>
      </trkpt>
      <trkpt lat="42.97347" lon="1.02576">
        <ele>1063.2</ele>
        <time>2022-01-29T14:06:50.000Z</time>
      </trkpt>
      <trkpt lat="42.97342" lon="1.02591">
        <ele>1063.9</ele>
        <time>2022-01-29T14:06:52.000Z</time>
      </trkpt>
      <trkpt lat="42.97335" lon="1.02606">
        <ele>1063.7</ele>
        <time>2022-01-29T14:06:54.000Z</time>
      </trkpt>
      <trkpt lat="42.9733" lon="1.02621">
        <ele>1062.9</ele>
        <time>2022-01-29T14:06:56.000Z</time>
      </trkpt>
      <trkpt lat="42.97325" lon="1.02637">
        <ele>1062.9</ele>
        <time>2022-01-29T14:06:58.000Z</time>
      </trkpt>
      <trkpt lat="42.97322" lon="1.02653">
        <ele>1062.6</ele>
        <time>2022-01-29T14:07:00.000Z</time>
      </trkpt>
      <trkpt lat="42.97318" lon="1.02668">
        <ele>1062.2</ele>
        <time>2022-01-29T14:07:02.000Z</time>
      </trkpt>
      <trkpt lat="42.97316" lon="1.02683">
        <ele>1061.9</ele>
        <time>2022-01-29T14:07:04.000Z</time>
      </trkpt>
      <trkpt lat="42.97315" lon="1.02697">
        <ele>1062.7</ele>
        <time>2022-01-29T14:07:06.000Z</time>
      </trkpt>
      <trkpt lat="42.97313" lon="1.02711">
        <ele>1062.8</ele>
        <time>2022-01-29T14:07:08.000Z</time>
      </trkpt>
      <trkpt lat="42.97311" lon="1.02723">
        <ele>1062.4</ele>
        <time>2022-01-29T14:07:10.000Z</time>
      </trkpt>
      <trkpt lat="42.97308" lon="1.02736">
        <ele>1061.1</ele>
        <time>2022-01-29T14:07:12.000Z</time>
      </trkpt>
      <trkpt lat="42.97307" lon="1.0275">
        <ele>1061.4</ele>
        <time>2022-01-29T14:07:14.000Z</time>
      </trkpt>
      <trkpt lat="42.97308" lon="1.02765">
        <ele>1060.8</ele>
        <time>2022-01-29T14:07:16.000Z</time>
      </trkpt>
      <trkpt lat="42.97313" lon="1.02778">
        <ele>1060.8</ele>
        <time>2022-01-29T14:07:18.000Z</time>
      </trkpt>
      <trkpt lat="42.97319" lon="1.0279">
        <ele>1059.9</ele>
        <time>2022-01-29T14:07:21.000Z</time>
      </trkpt>
      <trkpt lat="42.97321" lon="1.02805">
        <ele>1059.2</ele>
        <time>2022-01-29T14:07:24.000Z</time>
      </trkpt>
      <trkpt lat="42.9732" lon="1.02817">
        <ele>1059.7</ele>
        <time>2022-01-29T14:07:27.000Z</time>
      </trkpt>
      <trkpt lat="42.97323" lon="1.02832">
        <ele>1059.8</ele>
        <time>2022-01-29T14:07:31.000Z</time>
      </trkpt>
      <trkpt lat="42.97331" lon="1.02844">
        <ele>1059.7</ele>
        <time>2022-01-29T14:07:35.000Z</time>
      </trkpt>
      <trkpt lat="42.97335" lon="1.02859">
        <ele>1059.3</ele>
        <time>2022-01-29T14:07:39.000Z</time>
      </trkpt>
      <trkpt lat="42.97335" lon="1.02875">
        <ele>1060.2</ele>
        <time>2022-01-29T14:07:42.000Z</time>
      </trkpt>
      <trkpt lat="42.97336" lon="1.02888">
        <ele>1059.9</ele>
        <time>2022-01-29T14:07:44.000Z</time>
      </trkpt>
      <trkpt lat="42.97337" lon="1.02901">
        <ele>1059.4</ele>
        <time>2022-01-29T14:07:47.000Z</time>
      </trkpt>
      <trkpt lat="42.9734" lon="1.02913">
        <ele>1059</ele>
        <time>2022-01-29T14:07:50.000Z</time>
      </trkpt>
      <trkpt lat="42.97346" lon="1.02926">
        <ele>1059.6</ele>
        <time>2022-01-29T14:07:54.000Z</time>
      </trkpt>
      <trkpt lat="42.9735" lon="1.02939">
        <ele>1060.1</ele>
        <time>2022-01-29T14:07:58.000Z</time>
      </trkpt>
      <trkpt lat="42.97351" lon="1.02954">
        <ele>1060</ele>
        <time>2022-01-29T14:08:02.000Z</time>
      </trkpt>
      <trkpt lat="42.97348" lon="1.02967">
        <ele>1060.2</ele>
        <time>2022-01-29T14:08:06.000Z</time>
      </trkpt>
      <trkpt lat="42.97345" lon="1.02979">
        <ele>1060.6</ele>
        <time>2022-01-29T14:08:10.000Z</time>
      </trkpt>
      <trkpt lat="42.97342" lon="1.02991">
        <ele>1060.7</ele>
        <time>2022-01-29T14:08:14.000Z</time>
      </trkpt>
      <trkpt lat="42.97348" lon="1.03001">
        <ele>1061</ele>
        <time>2022-01-29T14:08:18.000Z</time>
      </trkpt>
      <trkpt lat="42.97352" lon="1.03014">
        <ele>1061.3</ele>
        <time>2022-01-29T14:08:22.000Z</time>
      </trkpt>
      <trkpt lat="42.97352" lon="1.03028">
        <ele>1062.2</ele>
        <time>2022-01-29T14:08:27.000Z</time>
      </trkpt>
      <trkpt lat="42.9736" lon="1.03039">
        <ele>1062.2</ele>
        <time>2022-01-29T14:08:32.000Z</time>
      </trkpt>
      <trkpt lat="42.97363" lon="1.0305">
        <ele>1062.4</ele>
        <time>2022-01-29T14:08:36.000Z</time>
      </trkpt>
      <trkpt lat="42.97364" lon="1.03064">
        <ele>1063.9</ele>
        <time>2022-01-29T14:08:40.000Z</time>
      </trkpt>
      <trkpt lat="42.97366" lon="1.03078">
        <ele>1064.7</ele>
        <time>2022-01-29T14:08:45.000Z</time>
      </trkpt>
      <trkpt lat="42.97364" lon="1.03091">
        <ele>1065.7</ele>
        <time>2022-01-29T14:08:52.000Z</time>
      </trkpt>
      <trkpt lat="42.97362" lon="1.03102">
        <ele>1068.1</ele>
        <time>2022-01-29T14:09:02.000Z</time>
      </trkpt>
      <trkpt lat="42.97362" lon="1.03103">
        <ele>1069.2</ele>
        <time>2022-01-29T14:09:09.000Z</time>
      </trkpt>
      <trkpt lat="42.97362" lon="1.03103">
        <ele>1070.8</ele>
        <time>2022-01-29T14:09:15.000Z</time>
      </trkpt>
      <trkpt lat="42.97362" lon="1.03103">
        <ele>1071.7</ele>
        <time>2022-01-29T14:09:22.000Z</time>
      </trkpt>
      <trkpt lat="42.97365" lon="1.03116">
        <ele>1072.9</ele>
        <time>2022-01-29T14:09:27.000Z</time>
      </trkpt>
      <trkpt lat="42.97368" lon="1.03129">
        <ele>1073.9</ele>
        <time>2022-01-29T14:09:32.000Z</time>
      </trkpt>
      <trkpt lat="42.97369" lon="1.03143">
        <ele>1074.9</ele>
        <time>2022-01-29T14:09:37.000Z</time>
      </trkpt>
      <trkpt lat="42.97373" lon="1.03157">
        <ele>1075.8</ele>
        <time>2022-01-29T14:09:43.000Z</time>
      </trkpt>
      <trkpt lat="42.97377" lon="1.03169">
        <ele>1076.9</ele>
        <time>2022-01-29T14:09:49.000Z</time>
      </trkpt>
      <trkpt lat="42.9738" lon="1.03181">
        <ele>1078</ele>
        <time>2022-01-29T14:09:54.000Z</time>
      </trkpt>
      <trkpt lat="42.97382" lon="1.0319">
        <ele>1079.1</ele>
        <time>2022-01-29T14:10:02.000Z</time>
      </trkpt>
      <trkpt lat="42.97382" lon="1.0319">
        <ele>1079.3</ele>
        <time>2022-01-29T14:10:03.000Z</time>
      </trkpt>
      <trkpt lat="42.97382" lon="1.03191">
        <ele>1079.6</ele>
        <time>2022-01-29T14:10:06.000Z</time>
      </trkpt>
      <trkpt lat="42.97382" lon="1.03191">
        <ele>1079.6</ele>
        <time>2022-01-29T14:10:07.000Z</time>
      </trkpt>
      <trkpt lat="42.97386" lon="1.03203">
        <ele>1080.8</ele>
        <time>2022-01-29T14:10:19.000Z</time>
      </trkpt>
      <trkpt lat="42.97386" lon="1.03215">
        <ele>1081.6</ele>
        <time>2022-01-29T14:10:25.000Z</time>
      </trkpt>
      <trkpt lat="42.97385" lon="1.03228">
        <ele>1082.1</ele>
        <time>2022-01-29T14:10:30.000Z</time>
      </trkpt>
      <trkpt lat="42.97382" lon="1.03241">
        <ele>1083.2</ele>
        <time>2022-01-29T14:10:35.000Z</time>
      </trkpt>
      <trkpt lat="42.97382" lon="1.03256">
        <ele>1084</ele>
        <time>2022-01-29T14:10:40.000Z</time>
      </trkpt>
      <trkpt lat="42.97382" lon="1.03271">
        <ele>1084.7</ele>
        <time>2022-01-29T14:10:45.000Z</time>
      </trkpt>
      <trkpt lat="42.97382" lon="1.03284">
        <ele>1085.7</ele>
        <time>2022-01-29T14:10:50.000Z</time>
      </trkpt>
      <trkpt lat="42.97391" lon="1.03292">
        <ele>1086.9</ele>
        <time>2022-01-29T14:10:58.000Z</time>
      </trkpt>
      <trkpt lat="42.97393" lon="1.03294">
        <ele>1087.2</ele>
        <time>2022-01-29T14:11:01.000Z</time>
      </trkpt>
      <trkpt lat="42.97394" lon="1.03293">
        <ele>1087.5</ele>
        <time>2022-01-29T14:11:04.000Z</time>
      </trkpt>
      <trkpt lat="42.97396" lon="1.0329">
        <ele>1087.6</ele>
        <time>2022-01-29T14:11:09.000Z</time>
      </trkpt>
      <trkpt lat="42.97396" lon="1.03289">
        <ele>1087.8</ele>
        <time>2022-01-29T14:11:11.000Z</time>
      </trkpt>
      <trkpt lat="42.97391" lon="1.03289">
        <ele>1088</ele>
        <time>2022-01-29T14:11:19.000Z</time>
      </trkpt>
      <trkpt lat="42.97391" lon="1.03289">
        <ele>1087.8</ele>
        <time>2022-01-29T14:11:21.000Z</time>
      </trkpt>
      <trkpt lat="42.97391" lon="1.03289">
        <ele>1087.8</ele>
        <time>2022-01-29T14:11:24.000Z</time>
      </trkpt>
      <trkpt lat="42.97391" lon="1.03289">
        <ele>1088.1</ele>
        <time>2022-01-29T14:11:33.000Z</time>
      </trkpt>
      <trkpt lat="42.9739" lon="1.03284">
        <ele>1088.7</ele>
        <time>2022-01-29T14:11:42.000Z</time>
      </trkpt>
      <trkpt lat="42.9739" lon="1.03284">
        <ele>1087.7</ele>
        <time>2022-01-29T14:11:48.000Z</time>
      </trkpt>
      <trkpt lat="42.974" lon="1.03289">
        <ele>1087.4</ele>
        <time>2022-01-29T14:11:54.000Z</time>
      </trkpt>
      <trkpt lat="42.97409" lon="1.03296">
        <ele>1087.7</ele>
        <time>2022-01-29T14:11:59.000Z</time>
      </trkpt>
      <trkpt lat="42.97414" lon="1.03309">
        <ele>1087.7</ele>
        <time>2022-01-29T14:12:04.000Z</time>
      </trkpt>
      <trkpt lat="42.97418" lon="1.03323">
        <ele>1088.2</ele>
        <time>2022-01-29T14:12:09.000Z</time>
      </trkpt>
      <trkpt lat="42.97421" lon="1.03335">
        <ele>1089.1</ele>
        <time>2022-01-29T14:12:24.000Z</time>
      </trkpt>
      <trkpt lat="42.97421" lon="1.03348">
        <ele>1090.1</ele>
        <time>2022-01-29T14:12:36.000Z</time>
      </trkpt>
      <trkpt lat="42.97422" lon="1.03352">
        <ele>1090.4</ele>
        <time>2022-01-29T14:12:41.000Z</time>
      </trkpt>
      <trkpt lat="42.97422" lon="1.03352">
        <ele>1090.2</ele>
        <time>2022-01-29T14:12:50.000Z</time>
      </trkpt>
      <trkpt lat="42.97419" lon="1.03364">
        <ele>1090.5</ele>
        <time>2022-01-29T14:12:55.000Z</time>
      </trkpt>
      <trkpt lat="42.97418" lon="1.03377">
        <ele>1090.8</ele>
        <time>2022-01-29T14:13:06.000Z</time>
      </trkpt>
      <trkpt lat="42.97415" lon="1.0339">
        <ele>1091.4</ele>
        <time>2022-01-29T14:13:13.000Z</time>
      </trkpt>
      <trkpt lat="42.97415" lon="1.03405">
        <ele>1091.8</ele>
        <time>2022-01-29T14:13:19.000Z</time>
      </trkpt>
      <trkpt lat="42.9742" lon="1.03417">
        <ele>1092.1</ele>
        <time>2022-01-29T14:13:25.000Z</time>
      </trkpt>
      <trkpt lat="42.97425" lon="1.03428">
        <ele>1091.8</ele>
        <time>2022-01-29T14:13:30.000Z</time>
      </trkpt>
      <trkpt lat="42.9743" lon="1.03439">
        <ele>1092</ele>
        <time>2022-01-29T14:13:37.000Z</time>
      </trkpt>
      <trkpt lat="42.97436" lon="1.03449">
        <ele>1092.1</ele>
        <time>2022-01-29T14:13:45.000Z</time>
      </trkpt>
      <trkpt lat="42.97442" lon="1.03458">
        <ele>1092.2</ele>
        <time>2022-01-29T14:13:52.000Z</time>
      </trkpt>
      <trkpt lat="42.97448" lon="1.03468">
        <ele>1092.1</ele>
        <time>2022-01-29T14:13:56.000Z</time>
      </trkpt>
      <trkpt lat="42.97452" lon="1.0348">
        <ele>1092.1</ele>
        <time>2022-01-29T14:14:00.000Z</time>
      </trkpt>
      <trkpt lat="42.97453" lon="1.03493">
        <ele>1092.3</ele>
        <time>2022-01-29T14:14:04.000Z</time>
      </trkpt>
      <trkpt lat="42.97456" lon="1.03506">
        <ele>1092.3</ele>
        <time>2022-01-29T14:14:08.000Z</time>
      </trkpt>
      <trkpt lat="42.97461" lon="1.03516">
        <ele>1092.7</ele>
        <time>2022-01-29T14:14:15.000Z</time>
      </trkpt>
      <trkpt lat="42.97461" lon="1.03516">
        <ele>1092.7</ele>
        <time>2022-01-29T14:14:17.000Z</time>
      </trkpt>
      <trkpt lat="42.97462" lon="1.03516">
        <ele>1092.8</ele>
        <time>2022-01-29T14:14:20.000Z</time>
      </trkpt>
      <trkpt lat="42.97462" lon="1.03516">
        <ele>1092.9</ele>
        <time>2022-01-29T14:14:21.000Z</time>
      </trkpt>
      <trkpt lat="42.97465" lon="1.03522">
        <ele>1092</ele>
        <time>2022-01-29T14:14:38.000Z</time>
      </trkpt>
      <trkpt lat="42.97465" lon="1.03523">
        <ele>1092.1</ele>
        <time>2022-01-29T14:14:42.000Z</time>
      </trkpt>
      <trkpt lat="42.97465" lon="1.03522">
        <ele>1091.9</ele>
        <time>2022-01-29T14:14:45.000Z</time>
      </trkpt>
      <trkpt lat="42.97465" lon="1.03522">
        <ele>1092</ele>
        <time>2022-01-29T14:14:46.000Z</time>
      </trkpt>
      <trkpt lat="42.97465" lon="1.03522">
        <ele>1092.1</ele>
        <time>2022-01-29T14:14:53.000Z</time>
      </trkpt>
      <trkpt lat="42.97455" lon="1.03521">
        <ele>1092</ele>
        <time>2022-01-29T14:15:00.000Z</time>
      </trkpt>
      <trkpt lat="42.97446" lon="1.03518">
        <ele>1092.2</ele>
        <time>2022-01-29T14:15:07.000Z</time>
      </trkpt>
      <trkpt lat="42.97435" lon="1.03516">
        <ele>1093.4</ele>
        <time>2022-01-29T14:15:13.000Z</time>
      </trkpt>
      <trkpt lat="42.97427" lon="1.03511">
        <ele>1094.3</ele>
        <time>2022-01-29T14:15:18.000Z</time>
      </trkpt>
      <trkpt lat="42.97416" lon="1.03509">
        <ele>1095.3</ele>
        <time>2022-01-29T14:15:23.000Z</time>
      </trkpt>
      <trkpt lat="42.97407" lon="1.03506">
        <ele>1096.6</ele>
        <time>2022-01-29T14:15:28.000Z</time>
      </trkpt>
      <trkpt lat="42.97398" lon="1.03505">
        <ele>1098.8</ele>
        <time>2022-01-29T14:15:35.000Z</time>
      </trkpt>
      <trkpt lat="42.97393" lon="1.03514">
        <ele>1101.4</ele>
        <time>2022-01-29T14:15:44.000Z</time>
      </trkpt>
      <trkpt lat="42.97393" lon="1.03515">
        <ele>1103</ele>
        <time>2022-01-29T14:15:50.000Z</time>
      </trkpt>
      <trkpt lat="42.97396" lon="1.03526">
        <ele>1104.7</ele>
        <time>2022-01-29T14:15:57.000Z</time>
      </trkpt>
      <trkpt lat="42.97402" lon="1.03538">
        <ele>1106.8</ele>
        <time>2022-01-29T14:16:04.000Z</time>
      </trkpt>
      <trkpt lat="42.97407" lon="1.03549">
        <ele>1108.8</ele>
        <time>2022-01-29T14:16:10.000Z</time>
      </trkpt>
      <trkpt lat="42.97408" lon="1.03563">
        <ele>1111</ele>
        <time>2022-01-29T14:16:16.000Z</time>
      </trkpt>
      <trkpt lat="42.97411" lon="1.03575">
        <ele>1113.1</ele>
        <time>2022-01-29T14:16:21.000Z</time>
      </trkpt>
      <trkpt lat="42.97414" lon="1.03588">
        <ele>1115</ele>
        <time>2022-01-29T14:16:27.000Z</time>
      </trkpt>
      <trkpt lat="42.97406" lon="1.03596">
        <ele>1117.1</ele>
        <time>2022-01-29T14:16:34.000Z</time>
      </trkpt>
      <trkpt lat="42.97397" lon="1.03598">
        <ele>1118.8</ele>
        <time>2022-01-29T14:16:39.000Z</time>
      </trkpt>
      <trkpt lat="42.97388" lon="1.03595">
        <ele>1120.1</ele>
        <time>2022-01-29T14:16:44.000Z</time>
      </trkpt>
      <trkpt lat="42.97381" lon="1.03584">
        <ele>1122.5</ele>
        <time>2022-01-29T14:16:50.000Z</time>
      </trkpt>
      <trkpt lat="42.97374" lon="1.03593">
        <ele>1126</ele>
        <time>2022-01-29T14:17:03.000Z</time>
      </trkpt>
      <trkpt lat="42.97374" lon="1.03594">
        <ele>1126.6</ele>
        <time>2022-01-29T14:17:05.000Z</time>
      </trkpt>
      <trkpt lat="42.97374" lon="1.03595">
        <ele>1127.1</ele>
        <time>2022-01-29T14:17:07.000Z</time>
      </trkpt>
      <trkpt lat="42.97374" lon="1.03595">
        <ele>1128</ele>
        <time>2022-01-29T14:17:10.000Z</time>
      </trkpt>
      <trkpt lat="42.97374" lon="1.03595">
        <ele>1128.5</ele>
        <time>2022-01-29T14:17:12.000Z</time>
      </trkpt>
      <trkpt lat="42.97372" lon="1.03609">
        <ele>1130</ele>
        <time>2022-01-29T14:17:20.000Z</time>
      </trkpt>
      <trkpt lat="42.97368" lon="1.03621">
        <ele>1131.6</ele>
        <time>2022-01-29T14:17:26.000Z</time>
      </trkpt>
      <trkpt lat="42.97364" lon="1.03633">
        <ele>1133</ele>
        <time>2022-01-29T14:17:32.000Z</time>
      </trkpt>
      <trkpt lat="42.97356" lon="1.0364">
        <ele>1134.7</ele>
        <time>2022-01-29T14:17:38.000Z</time>
      </trkpt>
      <trkpt lat="42.97351" lon="1.03652">
        <ele>1136.4</ele>
        <time>2022-01-29T14:17:44.000Z</time>
      </trkpt>
      <trkpt lat="42.97344" lon="1.03663">
        <ele>1138.8</ele>
        <time>2022-01-29T14:17:53.000Z</time>
      </trkpt>
      <trkpt lat="42.97344" lon="1.03676">
        <ele>1140.7</ele>
        <time>2022-01-29T14:17:59.000Z</time>
      </trkpt>
      <trkpt lat="42.97348" lon="1.03689">
        <ele>1141.8</ele>
        <time>2022-01-29T14:18:05.000Z</time>
      </trkpt>
      <trkpt lat="42.97348" lon="1.03703">
        <ele>1143.7</ele>
        <time>2022-01-29T14:18:11.000Z</time>
      </trkpt>
      <trkpt lat="42.97345" lon="1.03717">
        <ele>1145.4</ele>
        <time>2022-01-29T14:18:17.000Z</time>
      </trkpt>
      <trkpt lat="42.97342" lon="1.03731">
        <ele>1146.4</ele>
        <time>2022-01-29T14:18:23.000Z</time>
      </trkpt>
      <trkpt lat="42.97341" lon="1.03744">
        <ele>1148.3</ele>
        <time>2022-01-29T14:18:29.000Z</time>
      </trkpt>
      <trkpt lat="42.97338" lon="1.03756">
        <ele>1149.7</ele>
        <time>2022-01-29T14:18:35.000Z</time>
      </trkpt>
      <trkpt lat="42.97338" lon="1.0377">
        <ele>1151.4</ele>
        <time>2022-01-29T14:18:41.000Z</time>
      </trkpt>
      <trkpt lat="42.97334" lon="1.03782">
        <ele>1152.4</ele>
        <time>2022-01-29T14:18:46.000Z</time>
      </trkpt>
      <trkpt lat="42.97332" lon="1.03795">
        <ele>1153.9</ele>
        <time>2022-01-29T14:18:52.000Z</time>
      </trkpt>
      <trkpt lat="42.9734" lon="1.03804">
        <ele>1155.1</ele>
        <time>2022-01-29T14:18:58.000Z</time>
      </trkpt>
      <trkpt lat="42.97347" lon="1.03812">
        <ele>1156.3</ele>
        <time>2022-01-29T14:19:04.000Z</time>
      </trkpt>
      <trkpt lat="42.97345" lon="1.03826">
        <ele>1158.6</ele>
        <time>2022-01-29T14:19:11.000Z</time>
      </trkpt>
      <trkpt lat="42.97338" lon="1.03836">
        <ele>1159.6</ele>
        <time>2022-01-29T14:19:16.000Z</time>
      </trkpt>
      <trkpt lat="42.97333" lon="1.03847">
        <ele>1160.7</ele>
        <time>2022-01-29T14:19:22.000Z</time>
      </trkpt>
      <trkpt lat="42.97333" lon="1.03847">
        <ele>1161.6</ele>
        <time>2022-01-29T14:19:24.000Z</time>
      </trkpt>
      <trkpt lat="42.97333" lon="1.03847">
        <ele>1160.9</ele>
        <time>2022-01-29T14:19:27.000Z</time>
      </trkpt>
      <trkpt lat="42.97329" lon="1.03849">
        <ele>1163.5</ele>
        <time>2022-01-29T14:19:35.000Z</time>
      </trkpt>
      <trkpt lat="42.97329" lon="1.03849">
        <ele>1164.1</ele>
        <time>2022-01-29T14:19:39.000Z</time>
      </trkpt>
      <trkpt lat="42.97329" lon="1.0385">
        <ele>1164.1</ele>
        <time>2022-01-29T14:19:42.000Z</time>
      </trkpt>
      <trkpt lat="42.97329" lon="1.03849">
        <ele>1164.8</ele>
        <time>2022-01-29T14:19:48.000Z</time>
      </trkpt>
      <trkpt lat="42.9733" lon="1.03845">
        <ele>1164.9</ele>
        <time>2022-01-29T14:19:55.000Z</time>
      </trkpt>
      <trkpt lat="42.97331" lon="1.03845">
        <ele>1164.8</ele>
        <time>2022-01-29T14:19:56.000Z</time>
      </trkpt>
      <trkpt lat="42.97333" lon="1.03843">
        <ele>1165.4</ele>
        <time>2022-01-29T14:20:01.000Z</time>
      </trkpt>
      <trkpt lat="42.97333" lon="1.03843">
        <ele>1167.9</ele>
        <time>2022-01-29T14:21:05.000Z</time>
      </trkpt>
      <trkpt lat="42.97332" lon="1.03843">
        <ele>1168.7</ele>
        <time>2022-01-29T14:21:31.000Z</time>
      </trkpt>
      <trkpt lat="42.97333" lon="1.03843">
        <ele>1169.6</ele>
        <time>2022-01-29T14:22:39.000Z</time>
      </trkpt>
      <trkpt lat="42.97333" lon="1.03843">
        <ele>1169</ele>
        <time>2022-01-29T14:24:28.000Z</time>
      </trkpt>
      <trkpt lat="42.97333" lon="1.03843">
        <ele>1169.6</ele>
        <time>2022-01-29T14:25:30.000Z</time>
      </trkpt>
      <trkpt lat="42.97333" lon="1.03843">
        <ele>1169.6</ele>
        <time>2022-01-29T14:25:31.000Z</time>
      </trkpt>
      <trkpt lat="42.97333" lon="1.03843">
        <ele>1169.3</ele>
        <time>2022-01-29T14:26:38.000Z</time>
      </trkpt>
      <trkpt lat="42.97333" lon="1.03844">
        <ele>1169.3</ele>
        <time>2022-01-29T14:26:53.000Z</time>
      </trkpt>
      <trkpt lat="42.97333" lon="1.03845">
        <ele>1169.2</ele>
        <time>2022-01-29T14:26:56.000Z</time>
      </trkpt>
      <trkpt lat="42.97333" lon="1.03846">
        <ele>1168.8</ele>
        <time>2022-01-29T14:27:00.000Z</time>
      </trkpt>
      <trkpt lat="42.97339" lon="1.03855">
        <ele>1168</ele>
        <time>2022-01-29T14:27:12.000Z</time>
      </trkpt>
      <trkpt lat="42.97342" lon="1.03869">
        <ele>1167.1</ele>
        <time>2022-01-29T14:27:16.000Z</time>
      </trkpt>
      <trkpt lat="42.97345" lon="1.03884">
        <ele>1166.9</ele>
        <time>2022-01-29T14:27:19.000Z</time>
      </trkpt>
      <trkpt lat="42.97347" lon="1.03898">
        <ele>1166.8</ele>
        <time>2022-01-29T14:27:23.000Z</time>
      </trkpt>
      <trkpt lat="42.97347" lon="1.03913">
        <ele>1165.9</ele>
        <time>2022-01-29T14:27:26.000Z</time>
      </trkpt>
      <trkpt lat="42.97352" lon="1.03923">
        <ele>1165.1</ele>
        <time>2022-01-29T14:27:33.000Z</time>
      </trkpt>
      <trkpt lat="42.97356" lon="1.03937">
        <ele>1164.5</ele>
        <time>2022-01-29T14:27:37.000Z</time>
      </trkpt>
      <trkpt lat="42.97352" lon="1.03951">
        <ele>1163.5</ele>
        <time>2022-01-29T14:27:40.000Z</time>
      </trkpt>
      <trkpt lat="42.9735" lon="1.03967">
        <ele>1163</ele>
        <time>2022-01-29T14:27:43.000Z</time>
      </trkpt>
      <trkpt lat="42.97344" lon="1.03981">
        <ele>1163</ele>
        <time>2022-01-29T14:27:46.000Z</time>
      </trkpt>
      <trkpt lat="42.97341" lon="1.03997">
        <ele>1162.8</ele>
        <time>2022-01-29T14:27:49.000Z</time>
      </trkpt>
      <trkpt lat="42.97337" lon="1.0401">
        <ele>1162.1</ele>
        <time>2022-01-29T14:27:52.000Z</time>
      </trkpt>
      <trkpt lat="42.97335" lon="1.04025">
        <ele>1161.9</ele>
        <time>2022-01-29T14:27:55.000Z</time>
      </trkpt>
      <trkpt lat="42.97333" lon="1.04037">
        <ele>1161.6</ele>
        <time>2022-01-29T14:27:57.000Z</time>
      </trkpt>
      <trkpt lat="42.97329" lon="1.04052">
        <ele>1160.9</ele>
        <time>2022-01-29T14:28:00.000Z</time>
      </trkpt>
      <trkpt lat="42.97326" lon="1.04066">
        <ele>1160.4</ele>
        <time>2022-01-29T14:28:03.000Z</time>
      </trkpt>
      <trkpt lat="42.97323" lon="1.0408">
        <ele>1159.3</ele>
        <time>2022-01-29T14:28:07.000Z</time>
      </trkpt>
      <trkpt lat="42.97313" lon="1.04073">
        <ele>1158.3</ele>
        <time>2022-01-29T14:28:12.000Z</time>
      </trkpt>
      <trkpt lat="42.97307" lon="1.0406">
        <ele>1157</ele>
        <time>2022-01-29T14:28:15.000Z</time>
      </trkpt>
      <trkpt lat="42.97299" lon="1.0405">
        <ele>1156.4</ele>
        <time>2022-01-29T14:28:18.000Z</time>
      </trkpt>
      <trkpt lat="42.9729" lon="1.04051">
        <ele>1155</ele>
        <time>2022-01-29T14:28:21.000Z</time>
      </trkpt>
      <trkpt lat="42.97282" lon="1.0406">
        <ele>1154.3</ele>
        <time>2022-01-29T14:28:24.000Z</time>
      </trkpt>
      <trkpt lat="42.97282" lon="1.04072">
        <ele>1152.2</ele>
        <time>2022-01-29T14:28:28.000Z</time>
      </trkpt>
      <trkpt lat="42.97282" lon="1.04084">
        <ele>1147.6</ele>
        <time>2022-01-29T14:28:40.000Z</time>
      </trkpt>
      <trkpt lat="42.97283" lon="1.04084">
        <ele>1147.3</ele>
        <time>2022-01-29T14:28:41.000Z</time>
      </trkpt>
      <trkpt lat="42.97283" lon="1.04084">
        <ele>1146.2</ele>
        <time>2022-01-29T14:28:44.000Z</time>
      </trkpt>
      <trkpt lat="42.97283" lon="1.04084">
        <ele>1145.4</ele>
        <time>2022-01-29T14:28:46.000Z</time>
      </trkpt>
      <trkpt lat="42.97283" lon="1.04087">
        <ele>1144.2</ele>
        <time>2022-01-29T14:28:50.000Z</time>
      </trkpt>
      <trkpt lat="42.97282" lon="1.04088">
        <ele>1144.1</ele>
        <time>2022-01-29T14:28:52.000Z</time>
      </trkpt>
      <trkpt lat="42.97284" lon="1.04091">
        <ele>1140.2</ele>
        <time>2022-01-29T14:29:02.000Z</time>
      </trkpt>
      <trkpt lat="42.97284" lon="1.04091">
        <ele>1115.5</ele>
        <time>2022-01-29T14:29:15.000Z</time>
      </trkpt>
      <trkpt lat="42.97284" lon="1.04091">
        <ele>1114.3</ele>
        <time>2022-01-29T14:29:17.000Z</time>
      </trkpt>
      <trkpt lat="42.97284" lon="1.04091">
        <ele>1128.3</ele>
        <time>2022-01-29T14:29:19.000Z</time>
      </trkpt>
      <trkpt lat="42.97284" lon="1.04092">
        <ele>1133.5</ele>
        <time>2022-01-29T14:29:22.000Z</time>
      </trkpt>
      <trkpt lat="42.97284" lon="1.04092">
        <ele>1133.6</ele>
        <time>2022-01-29T14:29:24.000Z</time>
      </trkpt>
      <trkpt lat="42.97284" lon="1.04093">
        <ele>1129.4</ele>
        <time>2022-01-29T14:29:43.000Z</time>
      </trkpt>
      <trkpt lat="42.97287" lon="1.04105">
        <ele>1128.1</ele>
        <time>2022-01-29T14:29:48.000Z</time>
      </trkpt>
      <trkpt lat="42.9729" lon="1.04113">
        <ele>1126.7</ele>
        <time>2022-01-29T14:29:54.000Z</time>
      </trkpt>
      <trkpt lat="42.97291" lon="1.04113">
        <ele>1126.7</ele>
        <time>2022-01-29T14:29:55.000Z</time>
      </trkpt>
      <trkpt lat="42.97281" lon="1.04116">
        <ele>1124.2</ele>
        <time>2022-01-29T14:30:07.000Z</time>
      </trkpt>
      <trkpt lat="42.97272" lon="1.04107">
        <ele>1123.2</ele>
        <time>2022-01-29T14:30:11.000Z</time>
      </trkpt>
      <trkpt lat="42.97268" lon="1.04119">
        <ele>1122.5</ele>
        <time>2022-01-29T14:30:16.000Z</time>
      </trkpt>
      <trkpt lat="42.97265" lon="1.04131">
        <ele>1121.2</ele>
        <time>2022-01-29T14:30:20.000Z</time>
      </trkpt>
      <trkpt lat="42.97253" lon="1.04136">
        <ele>1120.6</ele>
        <time>2022-01-29T14:30:23.000Z</time>
      </trkpt>
      <trkpt lat="42.97243" lon="1.04146">
        <ele>1120.3</ele>
        <time>2022-01-29T14:30:25.000Z</time>
      </trkpt>
      <trkpt lat="42.97231" lon="1.04153">
        <ele>1119.2</ele>
        <time>2022-01-29T14:30:27.000Z</time>
      </trkpt>
      <trkpt lat="42.97222" lon="1.04159">
        <ele>1119.1</ele>
        <time>2022-01-29T14:30:31.000Z</time>
      </trkpt>
      <trkpt lat="42.97212" lon="1.04163">
        <ele>1119.1</ele>
        <time>2022-01-29T14:30:35.000Z</time>
      </trkpt>
      <trkpt lat="42.97203" lon="1.04168">
        <ele>1119</ele>
        <time>2022-01-29T14:30:40.000Z</time>
      </trkpt>
      <trkpt lat="42.97195" lon="1.0418">
        <ele>1118.4</ele>
        <time>2022-01-29T14:30:44.000Z</time>
      </trkpt>
      <trkpt lat="42.97184" lon="1.04185">
        <ele>1118.5</ele>
        <time>2022-01-29T14:30:47.000Z</time>
      </trkpt>
      <trkpt lat="42.97173" lon="1.04191">
        <ele>1117.8</ele>
        <time>2022-01-29T14:30:49.000Z</time>
      </trkpt>
      <trkpt lat="42.97161" lon="1.04197">
        <ele>1117.8</ele>
        <time>2022-01-29T14:30:51.000Z</time>
      </trkpt>
      <trkpt lat="42.97148" lon="1.04203">
        <ele>1117.8</ele>
        <time>2022-01-29T14:30:53.000Z</time>
      </trkpt>
      <trkpt lat="42.9714" lon="1.04212">
        <ele>1117.2</ele>
        <time>2022-01-29T14:30:55.000Z</time>
      </trkpt>
      <trkpt lat="42.97138" lon="1.04226">
        <ele>1117.7</ele>
        <time>2022-01-29T14:30:58.000Z</time>
      </trkpt>
      <trkpt lat="42.97138" lon="1.0424">
        <ele>1118.2</ele>
        <time>2022-01-29T14:31:02.000Z</time>
      </trkpt>
      <trkpt lat="42.97141" lon="1.04253">
        <ele>1117.9</ele>
        <time>2022-01-29T14:31:06.000Z</time>
      </trkpt>
      <trkpt lat="42.97146" lon="1.04265">
        <ele>1117.5</ele>
        <time>2022-01-29T14:31:11.000Z</time>
      </trkpt>
      <trkpt lat="42.97151" lon="1.04275">
        <ele>1117.1</ele>
        <time>2022-01-29T14:31:16.000Z</time>
      </trkpt>
      <trkpt lat="42.97159" lon="1.04283">
        <ele>1116.3</ele>
        <time>2022-01-29T14:31:20.000Z</time>
      </trkpt>
      <trkpt lat="42.97169" lon="1.04289">
        <ele>1115.9</ele>
        <time>2022-01-29T14:31:23.000Z</time>
      </trkpt>
      <trkpt lat="42.97178" lon="1.04297">
        <ele>1115.3</ele>
        <time>2022-01-29T14:31:27.000Z</time>
      </trkpt>
      <trkpt lat="42.97175" lon="1.04309">
        <ele>1114.9</ele>
        <time>2022-01-29T14:31:33.000Z</time>
      </trkpt>
      <trkpt lat="42.97182" lon="1.04316">
        <ele>1112.9</ele>
        <time>2022-01-29T14:31:43.000Z</time>
      </trkpt>
      <trkpt lat="42.97185" lon="1.04321">
        <ele>1110.5</ele>
        <time>2022-01-29T14:31:55.000Z</time>
      </trkpt>
      <trkpt lat="42.97185" lon="1.04322">
        <ele>1109.8</ele>
        <time>2022-01-29T14:31:57.000Z</time>
      </trkpt>
      <trkpt lat="42.97177" lon="1.04328">
        <ele>1108.4</ele>
        <time>2022-01-29T14:32:03.000Z</time>
      </trkpt>
      <trkpt lat="42.97171" lon="1.04342">
        <ele>1107.7</ele>
        <time>2022-01-29T14:32:07.000Z</time>
      </trkpt>
      <trkpt lat="42.97175" lon="1.04354">
        <ele>1106.2</ele>
        <time>2022-01-29T14:32:10.000Z</time>
      </trkpt>
      <trkpt lat="42.97179" lon="1.04368">
        <ele>1105.6</ele>
        <time>2022-01-29T14:32:13.000Z</time>
      </trkpt>
      <trkpt lat="42.97182" lon="1.04384">
        <ele>1104.9</ele>
        <time>2022-01-29T14:32:16.000Z</time>
      </trkpt>
      <trkpt lat="42.97182" lon="1.044">
        <ele>1104.3</ele>
        <time>2022-01-29T14:32:19.000Z</time>
      </trkpt>
      <trkpt lat="42.97183" lon="1.04412">
        <ele>1104.1</ele>
        <time>2022-01-29T14:32:22.000Z</time>
      </trkpt>
      <trkpt lat="42.97186" lon="1.04424">
        <ele>1103.8</ele>
        <time>2022-01-29T14:32:25.000Z</time>
      </trkpt>
      <trkpt lat="42.97189" lon="1.04439">
        <ele>1103</ele>
        <time>2022-01-29T14:32:29.000Z</time>
      </trkpt>
      <trkpt lat="42.97191" lon="1.04453">
        <ele>1102.3</ele>
        <time>2022-01-29T14:32:32.000Z</time>
      </trkpt>
      <trkpt lat="42.97191" lon="1.04466">
        <ele>1101.8</ele>
        <time>2022-01-29T14:32:35.000Z</time>
      </trkpt>
      <trkpt lat="42.97188" lon="1.0448">
        <ele>1101.7</ele>
        <time>2022-01-29T14:32:38.000Z</time>
      </trkpt>
      <trkpt lat="42.97185" lon="1.04492">
        <ele>1101.4</ele>
        <time>2022-01-29T14:32:41.000Z</time>
      </trkpt>
      <trkpt lat="42.97183" lon="1.04504">
        <ele>1101.4</ele>
        <time>2022-01-29T14:32:44.000Z</time>
      </trkpt>
      <trkpt lat="42.97183" lon="1.04518">
        <ele>1101.2</ele>
        <time>2022-01-29T14:32:48.000Z</time>
      </trkpt>
      <trkpt lat="42.97179" lon="1.04533">
        <ele>1101.1</ele>
        <time>2022-01-29T14:32:52.000Z</time>
      </trkpt>
      <trkpt lat="42.97178" lon="1.04545">
        <ele>1100.5</ele>
        <time>2022-01-29T14:32:56.000Z</time>
      </trkpt>
      <trkpt lat="42.97176" lon="1.04558">
        <ele>1100.1</ele>
        <time>2022-01-29T14:33:01.000Z</time>
      </trkpt>
      <trkpt lat="42.97173" lon="1.04571">
        <ele>1099.8</ele>
        <time>2022-01-29T14:33:07.000Z</time>
      </trkpt>
      <trkpt lat="42.9717" lon="1.04583">
        <ele>1100.4</ele>
        <time>2022-01-29T14:33:13.000Z</time>
      </trkpt>
      <trkpt lat="42.97168" lon="1.04596">
        <ele>1099.9</ele>
        <time>2022-01-29T14:33:19.000Z</time>
      </trkpt>
      <trkpt lat="42.97166" lon="1.04608">
        <ele>1099.9</ele>
        <time>2022-01-29T14:33:24.000Z</time>
      </trkpt>
      <trkpt lat="42.97164" lon="1.04621">
        <ele>1099.4</ele>
        <time>2022-01-29T14:33:29.000Z</time>
      </trkpt>
      <trkpt lat="42.97161" lon="1.04635">
        <ele>1099.2</ele>
        <time>2022-01-29T14:33:34.000Z</time>
      </trkpt>
      <trkpt lat="42.97161" lon="1.04651">
        <ele>1098.8</ele>
        <time>2022-01-29T14:33:39.000Z</time>
      </trkpt>
      <trkpt lat="42.97159" lon="1.04665">
        <ele>1098.6</ele>
        <time>2022-01-29T14:33:43.000Z</time>
      </trkpt>
      <trkpt lat="42.97157" lon="1.04678">
        <ele>1098.7</ele>
        <time>2022-01-29T14:33:47.000Z</time>
      </trkpt>
      <trkpt lat="42.97155" lon="1.04691">
        <ele>1098.6</ele>
        <time>2022-01-29T14:33:51.000Z</time>
      </trkpt>
      <trkpt lat="42.97153" lon="1.04706">
        <ele>1098.6</ele>
        <time>2022-01-29T14:33:55.000Z</time>
      </trkpt>
      <trkpt lat="42.97152" lon="1.0472">
        <ele>1098.5</ele>
        <time>2022-01-29T14:33:59.000Z</time>
      </trkpt>
      <trkpt lat="42.9715" lon="1.04733">
        <ele>1098.5</ele>
        <time>2022-01-29T14:34:03.000Z</time>
      </trkpt>
      <trkpt lat="42.97147" lon="1.04746">
        <ele>1098.2</ele>
        <time>2022-01-29T14:34:07.000Z</time>
      </trkpt>
      <trkpt lat="42.97142" lon="1.04759">
        <ele>1098.3</ele>
        <time>2022-01-29T14:34:11.000Z</time>
      </trkpt>
      <trkpt lat="42.97137" lon="1.04772">
        <ele>1098.2</ele>
        <time>2022-01-29T14:34:16.000Z</time>
      </trkpt>
      <trkpt lat="42.97133" lon="1.04785">
        <ele>1098.5</ele>
        <time>2022-01-29T14:34:20.000Z</time>
      </trkpt>
      <trkpt lat="42.97131" lon="1.04798">
        <ele>1097.8</ele>
        <time>2022-01-29T14:34:24.000Z</time>
      </trkpt>
      <trkpt lat="42.97126" lon="1.04812">
        <ele>1097.8</ele>
        <time>2022-01-29T14:34:28.000Z</time>
      </trkpt>
      <trkpt lat="42.97118" lon="1.04818">
        <ele>1097.8</ele>
        <time>2022-01-29T14:34:33.000Z</time>
      </trkpt>
      <trkpt lat="42.97107" lon="1.04822">
        <ele>1097.3</ele>
        <time>2022-01-29T14:34:37.000Z</time>
      </trkpt>
      <trkpt lat="42.97099" lon="1.04831">
        <ele>1097.1</ele>
        <time>2022-01-29T14:34:39.000Z</time>
      </trkpt>
      <trkpt lat="42.97092" lon="1.04845">
        <ele>1096.7</ele>
        <time>2022-01-29T14:34:42.000Z</time>
      </trkpt>
      <trkpt lat="42.9709" lon="1.04858">
        <ele>1096.5</ele>
        <time>2022-01-29T14:34:45.000Z</time>
      </trkpt>
      <trkpt lat="42.97088" lon="1.04871">
        <ele>1096.6</ele>
        <time>2022-01-29T14:34:48.000Z</time>
      </trkpt>
      <trkpt lat="42.97089" lon="1.04883">
        <ele>1095.6</ele>
        <time>2022-01-29T14:34:51.000Z</time>
      </trkpt>
      <trkpt lat="42.9709" lon="1.04896">
        <ele>1095.6</ele>
        <time>2022-01-29T14:34:54.000Z</time>
      </trkpt>
      <trkpt lat="42.97091" lon="1.04909">
        <ele>1095.1</ele>
        <time>2022-01-29T14:34:58.000Z</time>
      </trkpt>
      <trkpt lat="42.97094" lon="1.04914">
        <ele>1094.6</ele>
        <time>2022-01-29T14:35:02.000Z</time>
      </trkpt>
      <trkpt lat="42.97094" lon="1.04914">
        <ele>1093.8</ele>
        <time>2022-01-29T14:35:09.000Z</time>
      </trkpt>
      <trkpt lat="42.97095" lon="1.04914">
        <ele>1092.9</ele>
        <time>2022-01-29T14:35:17.000Z</time>
      </trkpt>
      <trkpt lat="42.97096" lon="1.04927">
        <ele>1091.2</ele>
        <time>2022-01-29T14:35:26.000Z</time>
      </trkpt>
      <trkpt lat="42.971" lon="1.0494">
        <ele>1090.1</ele>
        <time>2022-01-29T14:35:30.000Z</time>
      </trkpt>
      <trkpt lat="42.97103" lon="1.04953">
        <ele>1090.2</ele>
        <time>2022-01-29T14:35:34.000Z</time>
      </trkpt>
      <trkpt lat="42.97103" lon="1.04966">
        <ele>1088.8</ele>
        <time>2022-01-29T14:35:38.000Z</time>
      </trkpt>
      <trkpt lat="42.971" lon="1.0498">
        <ele>1088.1</ele>
        <time>2022-01-29T14:35:44.000Z</time>
      </trkpt>
      <trkpt lat="42.971" lon="1.04993">
        <ele>1087.5</ele>
        <time>2022-01-29T14:35:50.000Z</time>
      </trkpt>
      <trkpt lat="42.97103" lon="1.05006">
        <ele>1086.4</ele>
        <time>2022-01-29T14:35:56.000Z</time>
      </trkpt>
      <trkpt lat="42.97104" lon="1.05019">
        <ele>1085.3</ele>
        <time>2022-01-29T14:36:03.000Z</time>
      </trkpt>
      <trkpt lat="42.97103" lon="1.05033">
        <ele>1085</ele>
        <time>2022-01-29T14:36:10.000Z</time>
      </trkpt>
      <trkpt lat="42.97101" lon="1.05046">
        <ele>1083.5</ele>
        <time>2022-01-29T14:36:15.000Z</time>
      </trkpt>
      <trkpt lat="42.97101" lon="1.05048">
        <ele>1083.4</ele>
        <time>2022-01-29T14:36:18.000Z</time>
      </trkpt>
      <trkpt lat="42.97101" lon="1.05048">
        <ele>1079.7</ele>
        <time>2022-01-29T14:36:48.000Z</time>
      </trkpt>
      <trkpt lat="42.97102" lon="1.05063">
        <ele>1078.7</ele>
        <time>2022-01-29T14:36:56.000Z</time>
      </trkpt>
      <trkpt lat="42.97105" lon="1.05076">
        <ele>1078.1</ele>
        <time>2022-01-29T14:37:01.000Z</time>
      </trkpt>
      <trkpt lat="42.97104" lon="1.0509">
        <ele>1077.6</ele>
        <time>2022-01-29T14:37:06.000Z</time>
      </trkpt>
      <trkpt lat="42.97098" lon="1.05101">
        <ele>1077.2</ele>
        <time>2022-01-29T14:37:11.000Z</time>
      </trkpt>
      <trkpt lat="42.97097" lon="1.05102">
        <ele>1077</ele>
        <time>2022-01-29T14:37:15.000Z</time>
      </trkpt>
      <trkpt lat="42.97097" lon="1.05103">
        <ele>1076.9</ele>
        <time>2022-01-29T14:37:16.000Z</time>
      </trkpt>
      <trkpt lat="42.97096" lon="1.05103">
        <ele>1076.3</ele>
        <time>2022-01-29T14:37:21.000Z</time>
      </trkpt>
      <trkpt lat="42.97096" lon="1.05103">
        <ele>1076.1</ele>
        <time>2022-01-29T14:37:26.000Z</time>
      </trkpt>
      <trkpt lat="42.97096" lon="1.05103">
        <ele>1076</ele>
        <time>2022-01-29T14:37:28.000Z</time>
      </trkpt>
      <trkpt lat="42.97096" lon="1.05103">
        <ele>1075.9</ele>
        <time>2022-01-29T14:37:29.000Z</time>
      </trkpt>
      <trkpt lat="42.97097" lon="1.05101">
        <ele>1076.2</ele>
        <time>2022-01-29T14:37:33.000Z</time>
      </trkpt>
      <trkpt lat="42.97097" lon="1.05101">
        <ele>1072.2</ele>
        <time>2022-01-29T14:38:27.000Z</time>
      </trkpt>
      <trkpt lat="42.97097" lon="1.05101">
        <ele>1069.8</ele>
        <time>2022-01-29T14:39:22.000Z</time>
      </trkpt>
      <trkpt lat="42.97097" lon="1.05101">
        <ele>1069.6</ele>
        <time>2022-01-29T14:39:29.000Z</time>
      </trkpt>
      <trkpt lat="42.97097" lon="1.05101">
        <ele>1069.4</ele>
        <time>2022-01-29T14:39:50.000Z</time>
      </trkpt>
      <trkpt lat="42.97097" lon="1.05101">
        <ele>1069.3</ele>
        <time>2022-01-29T14:40:14.000Z</time>
      </trkpt>
      <trkpt lat="42.97096" lon="1.05101">
        <ele>1069.1</ele>
        <time>2022-01-29T14:40:39.000Z</time>
      </trkpt>
      <trkpt lat="42.97097" lon="1.05101">
        <ele>1067.6</ele>
        <time>2022-01-29T14:42:45.000Z</time>
      </trkpt>
      <trkpt lat="42.97097" lon="1.05101">
        <ele>1067.8</ele>
        <time>2022-01-29T14:42:46.000Z</time>
      </trkpt>
      <trkpt lat="42.97097" lon="1.05101">
        <ele>1068</ele>
        <time>2022-01-29T14:43:05.000Z</time>
      </trkpt>
      <trkpt lat="42.97098" lon="1.05101">
        <ele>1067.6</ele>
        <time>2022-01-29T14:43:16.000Z</time>
      </trkpt>
      <trkpt lat="42.97098" lon="1.05102">
        <ele>1067.3</ele>
        <time>2022-01-29T14:43:27.000Z</time>
      </trkpt>
      <trkpt lat="42.97098" lon="1.05102">
        <ele>1067.4</ele>
        <time>2022-01-29T14:43:29.000Z</time>
      </trkpt>
      <trkpt lat="42.97098" lon="1.05102">
        <ele>1067.3</ele>
        <time>2022-01-29T14:43:31.000Z</time>
      </trkpt>
      <trkpt lat="42.97098" lon="1.05102">
        <ele>1066.9</ele>
        <time>2022-01-29T14:43:42.000Z</time>
      </trkpt>
      <trkpt lat="42.97098" lon="1.05103">
        <ele>1066.7</ele>
        <time>2022-01-29T14:43:44.000Z</time>
      </trkpt>
      <trkpt lat="42.97097" lon="1.05103">
        <ele>1066.8</ele>
        <time>2022-01-29T14:43:47.000Z</time>
      </trkpt>
      <trkpt lat="42.97097" lon="1.05103">
        <ele>1067</ele>
        <time>2022-01-29T14:43:50.000Z</time>
      </trkpt>
      <trkpt lat="42.97096" lon="1.05103">
        <ele>1067.3</ele>
        <time>2022-01-29T14:43:54.000Z</time>
      </trkpt>
      <trkpt lat="42.97096" lon="1.05103">
        <ele>1067.2</ele>
        <time>2022-01-29T14:43:57.000Z</time>
      </trkpt>
      <trkpt lat="42.97096" lon="1.05103">
        <ele>1066.8</ele>
        <time>2022-01-29T14:44:09.000Z</time>
      </trkpt>
      <trkpt lat="42.97096" lon="1.05103">
        <ele>1067.3</ele>
        <time>2022-01-29T14:44:23.000Z</time>
      </trkpt>
      <trkpt lat="42.97095" lon="1.05102">
        <ele>1067.1</ele>
        <time>2022-01-29T14:44:26.000Z</time>
      </trkpt>
      <trkpt lat="42.97095" lon="1.05102">
        <ele>1067.2</ele>
        <time>2022-01-29T14:44:43.000Z</time>
      </trkpt>
      <trkpt lat="42.97094" lon="1.05103">
        <ele>1067.1</ele>
        <time>2022-01-29T14:44:46.000Z</time>
      </trkpt>
      <trkpt lat="42.97085" lon="1.05109">
        <ele>1066.2</ele>
        <time>2022-01-29T14:44:53.000Z</time>
      </trkpt>
      <trkpt lat="42.97076" lon="1.05111">
        <ele>1064.6</ele>
        <time>2022-01-29T14:45:00.000Z</time>
      </trkpt>
      <trkpt lat="42.97077" lon="1.05125">
        <ele>1064.2</ele>
        <time>2022-01-29T14:45:08.000Z</time>
      </trkpt>
      <trkpt lat="42.97082" lon="1.05136">
        <ele>1063.1</ele>
        <time>2022-01-29T14:45:14.000Z</time>
      </trkpt>
      <trkpt lat="42.97073" lon="1.0514">
        <ele>1060.9</ele>
        <time>2022-01-29T14:45:25.000Z</time>
      </trkpt>
      <trkpt lat="42.97069" lon="1.05152">
        <ele>1058.9</ele>
        <time>2022-01-29T14:45:33.000Z</time>
      </trkpt>
      <trkpt lat="42.97065" lon="1.05162">
        <ele>1056.1</ele>
        <time>2022-01-29T14:45:43.000Z</time>
      </trkpt>
      <trkpt lat="42.97065" lon="1.05162">
        <ele>1055.5</ele>
        <time>2022-01-29T14:45:45.000Z</time>
      </trkpt>
      <trkpt lat="42.97065" lon="1.05163">
        <ele>1055</ele>
        <time>2022-01-29T14:45:48.000Z</time>
      </trkpt>
      <trkpt lat="42.97064" lon="1.05163">
        <ele>1054.1</ele>
        <time>2022-01-29T14:45:52.000Z</time>
      </trkpt>
      <trkpt lat="42.97064" lon="1.05165">
        <ele>1053.7</ele>
        <time>2022-01-29T14:45:56.000Z</time>
      </trkpt>
      <trkpt lat="42.97064" lon="1.05164">
        <ele>1053.6</ele>
        <time>2022-01-29T14:45:57.000Z</time>
      </trkpt>
      <trkpt lat="42.97062" lon="1.05165">
        <ele>1051.5</ele>
        <time>2022-01-29T14:46:04.000Z</time>
      </trkpt>
      <trkpt lat="42.97061" lon="1.05166">
        <ele>1050.5</ele>
        <time>2022-01-29T14:46:09.000Z</time>
      </trkpt>
      <trkpt lat="42.97061" lon="1.05167">
        <ele>1049.9</ele>
        <time>2022-01-29T14:46:11.000Z</time>
      </trkpt>
      <trkpt lat="42.97061" lon="1.05167">
        <ele>1049.6</ele>
        <time>2022-01-29T14:46:14.000Z</time>
      </trkpt>
      <trkpt lat="42.97058" lon="1.05181">
        <ele>1047.9</ele>
        <time>2022-01-29T14:46:20.000Z</time>
      </trkpt>
      <trkpt lat="42.97054" lon="1.05195">
        <ele>1046.7</ele>
        <time>2022-01-29T14:46:24.000Z</time>
      </trkpt>
      <trkpt lat="42.97047" lon="1.05207">
        <ele>1045.3</ele>
        <time>2022-01-29T14:46:28.000Z</time>
      </trkpt>
      <trkpt lat="42.97038" lon="1.05215">
        <ele>1044.7</ele>
        <time>2022-01-29T14:46:31.000Z</time>
      </trkpt>
      <trkpt lat="42.9703" lon="1.05222">
        <ele>1043.9</ele>
        <time>2022-01-29T14:46:33.000Z</time>
      </trkpt>
      <trkpt lat="42.9702" lon="1.05228">
        <ele>1043.1</ele>
        <time>2022-01-29T14:46:36.000Z</time>
      </trkpt>
      <trkpt lat="42.97014" lon="1.05238">
        <ele>1041.8</ele>
        <time>2022-01-29T14:46:39.000Z</time>
      </trkpt>
      <trkpt lat="42.97006" lon="1.05244">
        <ele>1041.5</ele>
        <time>2022-01-29T14:46:42.000Z</time>
      </trkpt>
      <trkpt lat="42.96995" lon="1.05244">
        <ele>1040.1</ele>
        <time>2022-01-29T14:46:46.000Z</time>
      </trkpt>
      <trkpt lat="42.96987" lon="1.05251">
        <ele>1038.7</ele>
        <time>2022-01-29T14:46:51.000Z</time>
      </trkpt>
      <trkpt lat="42.9698" lon="1.05261">
        <ele>1036.6</ele>
        <time>2022-01-29T14:46:57.000Z</time>
      </trkpt>
      <trkpt lat="42.96972" lon="1.05269">
        <ele>1034.4</ele>
        <time>2022-01-29T14:47:02.000Z</time>
      </trkpt>
      <trkpt lat="42.96973" lon="1.05283">
        <ele>1032.8</ele>
        <time>2022-01-29T14:47:07.000Z</time>
      </trkpt>
      <trkpt lat="42.96974" lon="1.05295">
        <ele>1030.9</ele>
        <time>2022-01-29T14:47:13.000Z</time>
      </trkpt>
      <trkpt lat="42.96977" lon="1.05307">
        <ele>1028.7</ele>
        <time>2022-01-29T14:47:20.000Z</time>
      </trkpt>
      <trkpt lat="42.96976" lon="1.05323">
        <ele>1027</ele>
        <time>2022-01-29T14:47:25.000Z</time>
      </trkpt>
      <trkpt lat="42.96973" lon="1.05335">
        <ele>1026.1</ele>
        <time>2022-01-29T14:47:28.000Z</time>
      </trkpt>
      <trkpt lat="42.96967" lon="1.05347">
        <ele>1024.9</ele>
        <time>2022-01-29T14:47:32.000Z</time>
      </trkpt>
      <trkpt lat="42.96962" lon="1.05359">
        <ele>1023.3</ele>
        <time>2022-01-29T14:47:38.000Z</time>
      </trkpt>
      <trkpt lat="42.96957" lon="1.05371">
        <ele>1022.6</ele>
        <time>2022-01-29T14:47:43.000Z</time>
      </trkpt>
      <trkpt lat="42.96952" lon="1.05383">
        <ele>1021.7</ele>
        <time>2022-01-29T14:47:47.000Z</time>
      </trkpt>
      <trkpt lat="42.96954" lon="1.05398">
        <ele>1021.6</ele>
        <time>2022-01-29T14:47:51.000Z</time>
      </trkpt>
      <trkpt lat="42.96961" lon="1.05409">
        <ele>1021</ele>
        <time>2022-01-29T14:47:55.000Z</time>
      </trkpt>
      <trkpt lat="42.96963" lon="1.05421">
        <ele>1021.6</ele>
        <time>2022-01-29T14:47:58.000Z</time>
      </trkpt>
      <trkpt lat="42.96965" lon="1.05435">
        <ele>1021.7</ele>
        <time>2022-01-29T14:48:01.000Z</time>
      </trkpt>
      <trkpt lat="42.96971" lon="1.05443">
        <ele>1021.6</ele>
        <time>2022-01-29T14:48:05.000Z</time>
      </trkpt>
      <trkpt lat="42.96975" lon="1.05447">
        <ele>1022</ele>
        <time>2022-01-29T14:48:10.000Z</time>
      </trkpt>
      <trkpt lat="42.96975" lon="1.05448">
        <ele>1022.5</ele>
        <time>2022-01-29T14:48:12.000Z</time>
      </trkpt>
      <trkpt lat="42.96977" lon="1.05449">
        <ele>1021.8</ele>
        <time>2022-01-29T14:48:22.000Z</time>
      </trkpt>
      <trkpt lat="42.96977" lon="1.05449">
        <ele>1021.5</ele>
        <time>2022-01-29T14:48:24.000Z</time>
      </trkpt>
      <trkpt lat="42.96977" lon="1.05449">
        <ele>1021.4</ele>
        <time>2022-01-29T14:48:26.000Z</time>
      </trkpt>
      <trkpt lat="42.96977" lon="1.05449">
        <ele>1021.4</ele>
        <time>2022-01-29T14:48:29.000Z</time>
      </trkpt>
      <trkpt lat="42.96984" lon="1.05459">
        <ele>1021</ele>
        <time>2022-01-29T14:48:38.000Z</time>
      </trkpt>
      <trkpt lat="42.96988" lon="1.05472">
        <ele>1020.8</ele>
        <time>2022-01-29T14:48:42.000Z</time>
      </trkpt>
      <trkpt lat="42.96992" lon="1.05485">
        <ele>1020.8</ele>
        <time>2022-01-29T14:48:47.000Z</time>
      </trkpt>
      <trkpt lat="42.96999" lon="1.05494">
        <ele>1021.2</ele>
        <time>2022-01-29T14:48:52.000Z</time>
      </trkpt>
      <trkpt lat="42.97004" lon="1.05508">
        <ele>1021.5</ele>
        <time>2022-01-29T14:48:57.000Z</time>
      </trkpt>
      <trkpt lat="42.97003" lon="1.05521">
        <ele>1021</ele>
        <time>2022-01-29T14:49:03.000Z</time>
      </trkpt>
      <trkpt lat="42.96995" lon="1.05527">
        <ele>1019.3</ele>
        <time>2022-01-29T14:49:22.000Z</time>
      </trkpt>
      <trkpt lat="42.96994" lon="1.05527">
        <ele>1019.6</ele>
        <time>2022-01-29T14:49:24.000Z</time>
      </trkpt>
      <trkpt lat="42.96994" lon="1.05528">
        <ele>1019.7</ele>
        <time>2022-01-29T14:49:25.000Z</time>
      </trkpt>
      <trkpt lat="42.96994" lon="1.05528">
        <ele>1019.7</ele>
        <time>2022-01-29T14:49:27.000Z</time>
      </trkpt>
      <trkpt lat="42.96994" lon="1.05528">
        <ele>1019.7</ele>
        <time>2022-01-29T14:49:28.000Z</time>
      </trkpt>
      <trkpt lat="42.96994" lon="1.05529">
        <ele>1019.2</ele>
        <time>2022-01-29T14:49:33.000Z</time>
      </trkpt>
      <trkpt lat="42.96995" lon="1.05542">
        <ele>1018.1</ele>
        <time>2022-01-29T14:49:39.000Z</time>
      </trkpt>
      <trkpt lat="42.96999" lon="1.05558">
        <ele>1017.8</ele>
        <time>2022-01-29T14:49:43.000Z</time>
      </trkpt>
      <trkpt lat="42.97007" lon="1.05571">
        <ele>1017.4</ele>
        <time>2022-01-29T14:49:46.000Z</time>
      </trkpt>
      <trkpt lat="42.97016" lon="1.05579">
        <ele>1016.8</ele>
        <time>2022-01-29T14:49:48.000Z</time>
      </trkpt>
      <trkpt lat="42.97023" lon="1.05588">
        <ele>1016</ele>
        <time>2022-01-29T14:49:50.000Z</time>
      </trkpt>
      <trkpt lat="42.97031" lon="1.05597">
        <ele>1016.1</ele>
        <time>2022-01-29T14:49:52.000Z</time>
      </trkpt>
      <trkpt lat="42.97037" lon="1.05608">
        <ele>1015.4</ele>
        <time>2022-01-29T14:49:54.000Z</time>
      </trkpt>
      <trkpt lat="42.97043" lon="1.0562">
        <ele>1014.8</ele>
        <time>2022-01-29T14:49:56.000Z</time>
      </trkpt>
      <trkpt lat="42.97048" lon="1.05632">
        <ele>1014.4</ele>
        <time>2022-01-29T14:49:58.000Z</time>
      </trkpt>
      <trkpt lat="42.97051" lon="1.05644">
        <ele>1013.5</ele>
        <time>2022-01-29T14:50:00.000Z</time>
      </trkpt>
      <trkpt lat="42.97055" lon="1.05658">
        <ele>1013.1</ele>
        <time>2022-01-29T14:50:02.000Z</time>
      </trkpt>
      <trkpt lat="42.97058" lon="1.05672">
        <ele>1013.4</ele>
        <time>2022-01-29T14:50:04.000Z</time>
      </trkpt>
      <trkpt lat="42.97063" lon="1.05685">
        <ele>1011.3</ele>
        <time>2022-01-29T14:50:06.000Z</time>
      </trkpt>
      <trkpt lat="42.97069" lon="1.05699">
        <ele>1011.5</ele>
        <time>2022-01-29T14:50:08.000Z</time>
      </trkpt>
      <trkpt lat="42.97074" lon="1.05712">
        <ele>1011.4</ele>
        <time>2022-01-29T14:50:10.000Z</time>
      </trkpt>
      <trkpt lat="42.97078" lon="1.05726">
        <ele>1010</ele>
        <time>2022-01-29T14:50:12.000Z</time>
      </trkpt>
      <trkpt lat="42.97086" lon="1.05739">
        <ele>1008.3</ele>
        <time>2022-01-29T14:50:14.000Z</time>
      </trkpt>
      <trkpt lat="42.97095" lon="1.05752">
        <ele>1007.8</ele>
        <time>2022-01-29T14:50:16.000Z</time>
      </trkpt>
      <trkpt lat="42.97103" lon="1.05765">
        <ele>1006.5</ele>
        <time>2022-01-29T14:50:18.000Z</time>
      </trkpt>
      <trkpt lat="42.9711" lon="1.05779">
        <ele>1005.9</ele>
        <time>2022-01-29T14:50:20.000Z</time>
      </trkpt>
      <trkpt lat="42.97118" lon="1.05794">
        <ele>1005.1</ele>
        <time>2022-01-29T14:50:22.000Z</time>
      </trkpt>
      <trkpt lat="42.97123" lon="1.05809">
        <ele>1004.4</ele>
        <time>2022-01-29T14:50:24.000Z</time>
      </trkpt>
      <trkpt lat="42.97127" lon="1.05824">
        <ele>1003</ele>
        <time>2022-01-29T14:50:26.000Z</time>
      </trkpt>
      <trkpt lat="42.97132" lon="1.05839">
        <ele>1002.6</ele>
        <time>2022-01-29T14:50:28.000Z</time>
      </trkpt>
      <trkpt lat="42.97138" lon="1.05855">
        <ele>1000.8</ele>
        <time>2022-01-29T14:50:30.000Z</time>
      </trkpt>
      <trkpt lat="42.97145" lon="1.05871">
        <ele>1000</ele>
        <time>2022-01-29T14:50:32.000Z</time>
      </trkpt>
      <trkpt lat="42.97153" lon="1.05887">
        <ele>998.8</ele>
        <time>2022-01-29T14:50:34.000Z</time>
      </trkpt>
      <trkpt lat="42.97161" lon="1.05902">
        <ele>996.4</ele>
        <time>2022-01-29T14:50:36.000Z</time>
      </trkpt>
      <trkpt lat="42.9717" lon="1.05914">
        <ele>996.4</ele>
        <time>2022-01-29T14:50:38.000Z</time>
      </trkpt>
      <trkpt lat="42.97176" lon="1.05927">
        <ele>995.5</ele>
        <time>2022-01-29T14:50:40.000Z</time>
      </trkpt>
      <trkpt lat="42.97182" lon="1.05941">
        <ele>994.1</ele>
        <time>2022-01-29T14:50:42.000Z</time>
      </trkpt>
      <trkpt lat="42.97188" lon="1.05956">
        <ele>992.5</ele>
        <time>2022-01-29T14:50:44.000Z</time>
      </trkpt>
      <trkpt lat="42.97193" lon="1.05974">
        <ele>991.4</ele>
        <time>2022-01-29T14:50:46.000Z</time>
      </trkpt>
      <trkpt lat="42.97199" lon="1.05992">
        <ele>990.7</ele>
        <time>2022-01-29T14:50:48.000Z</time>
      </trkpt>
      <trkpt lat="42.97207" lon="1.0601">
        <ele>989.3</ele>
        <time>2022-01-29T14:50:50.000Z</time>
      </trkpt>
      <trkpt lat="42.97214" lon="1.06027">
        <ele>988.1</ele>
        <time>2022-01-29T14:50:52.000Z</time>
      </trkpt>
      <trkpt lat="42.97218" lon="1.06043">
        <ele>987.1</ele>
        <time>2022-01-29T14:50:54.000Z</time>
      </trkpt>
      <trkpt lat="42.9722" lon="1.06058">
        <ele>985.9</ele>
        <time>2022-01-29T14:50:56.000Z</time>
      </trkpt>
      <trkpt lat="42.9722" lon="1.06072">
        <ele>985.2</ele>
        <time>2022-01-29T14:50:58.000Z</time>
      </trkpt>
      <trkpt lat="42.97218" lon="1.06086">
        <ele>984</ele>
        <time>2022-01-29T14:51:00.000Z</time>
      </trkpt>
      <trkpt lat="42.97217" lon="1.06101">
        <ele>982.9</ele>
        <time>2022-01-29T14:51:02.000Z</time>
      </trkpt>
      <trkpt lat="42.97219" lon="1.06115">
        <ele>981.6</ele>
        <time>2022-01-29T14:51:04.000Z</time>
      </trkpt>
      <trkpt lat="42.97223" lon="1.06128">
        <ele>980</ele>
        <time>2022-01-29T14:51:06.000Z</time>
      </trkpt>
      <trkpt lat="42.97231" lon="1.06141">
        <ele>979.4</ele>
        <time>2022-01-29T14:51:08.000Z</time>
      </trkpt>
      <trkpt lat="42.97238" lon="1.06151">
        <ele>977.7</ele>
        <time>2022-01-29T14:51:10.000Z</time>
      </trkpt>
      <trkpt lat="42.9724" lon="1.06164">
        <ele>976.7</ele>
        <time>2022-01-29T14:51:13.000Z</time>
      </trkpt>
      <trkpt lat="42.97235" lon="1.06178">
        <ele>975.6</ele>
        <time>2022-01-29T14:51:16.000Z</time>
      </trkpt>
      <trkpt lat="42.9723" lon="1.06193">
        <ele>975</ele>
        <time>2022-01-29T14:51:18.000Z</time>
      </trkpt>
      <trkpt lat="42.97227" lon="1.06207">
        <ele>973.2</ele>
        <time>2022-01-29T14:51:20.000Z</time>
      </trkpt>
      <trkpt lat="42.97226" lon="1.06222">
        <ele>972.2</ele>
        <time>2022-01-29T14:51:22.000Z</time>
      </trkpt>
      <trkpt lat="42.97225" lon="1.06238">
        <ele>971.2</ele>
        <time>2022-01-29T14:51:24.000Z</time>
      </trkpt>
      <trkpt lat="42.97227" lon="1.06256">
        <ele>969.5</ele>
        <time>2022-01-29T14:51:26.000Z</time>
      </trkpt>
      <trkpt lat="42.97231" lon="1.06273">
        <ele>968.6</ele>
        <time>2022-01-29T14:51:28.000Z</time>
      </trkpt>
      <trkpt lat="42.97238" lon="1.06289">
        <ele>967.3</ele>
        <time>2022-01-29T14:51:30.000Z</time>
      </trkpt>
      <trkpt lat="42.97247" lon="1.06305">
        <ele>966.3</ele>
        <time>2022-01-29T14:51:32.000Z</time>
      </trkpt>
      <trkpt lat="42.97256" lon="1.06322">
        <ele>965.6</ele>
        <time>2022-01-29T14:51:34.000Z</time>
      </trkpt>
      <trkpt lat="42.97266" lon="1.06338">
        <ele>964.5</ele>
        <time>2022-01-29T14:51:36.000Z</time>
      </trkpt>
      <trkpt lat="42.97278" lon="1.06353">
        <ele>963.4</ele>
        <time>2022-01-29T14:51:38.000Z</time>
      </trkpt>
      <trkpt lat="42.97293" lon="1.06368">
        <ele>962.3</ele>
        <time>2022-01-29T14:51:40.000Z</time>
      </trkpt>
      <trkpt lat="42.973" lon="1.06374">
        <ele>961</ele>
        <time>2022-01-29T14:51:41.000Z</time>
      </trkpt>
      <trkpt lat="42.97308" lon="1.0638">
        <ele>960.5</ele>
        <time>2022-01-29T14:51:42.000Z</time>
      </trkpt>
      <trkpt lat="42.97323" lon="1.06392">
        <ele>959.3</ele>
        <time>2022-01-29T14:51:44.000Z</time>
      </trkpt>
      <trkpt lat="42.97338" lon="1.06403">
        <ele>958.5</ele>
        <time>2022-01-29T14:51:46.000Z</time>
      </trkpt>
      <trkpt lat="42.97346" lon="1.06409">
        <ele>957.9</ele>
        <time>2022-01-29T14:51:47.000Z</time>
      </trkpt>
      <trkpt lat="42.97354" lon="1.06415">
        <ele>957</ele>
        <time>2022-01-29T14:51:48.000Z</time>
      </trkpt>
      <trkpt lat="42.97365" lon="1.06424">
        <ele>955.2</ele>
        <time>2022-01-29T14:51:50.000Z</time>
      </trkpt>
      <trkpt lat="42.97369" lon="1.06435">
        <ele>954.3</ele>
        <time>2022-01-29T14:51:52.000Z</time>
      </trkpt>
      <trkpt lat="42.97368" lon="1.06451">
        <ele>952.7</ele>
        <time>2022-01-29T14:51:54.000Z</time>
      </trkpt>
      <trkpt lat="42.97363" lon="1.06469">
        <ele>950.9</ele>
        <time>2022-01-29T14:51:56.000Z</time>
      </trkpt>
      <trkpt lat="42.97355" lon="1.06487">
        <ele>949.5</ele>
        <time>2022-01-29T14:51:58.000Z</time>
      </trkpt>
      <trkpt lat="42.97345" lon="1.06505">
        <ele>949</ele>
        <time>2022-01-29T14:52:00.000Z</time>
      </trkpt>
      <trkpt lat="42.97333" lon="1.06522">
        <ele>947.2</ele>
        <time>2022-01-29T14:52:02.000Z</time>
      </trkpt>
      <trkpt lat="42.97321" lon="1.06539">
        <ele>945.5</ele>
        <time>2022-01-29T14:52:04.000Z</time>
      </trkpt>
      <trkpt lat="42.97309" lon="1.06557">
        <ele>943.5</ele>
        <time>2022-01-29T14:52:06.000Z</time>
      </trkpt>
      <trkpt lat="42.97301" lon="1.06576">
        <ele>942.4</ele>
        <time>2022-01-29T14:52:08.000Z</time>
      </trkpt>
      <trkpt lat="42.97297" lon="1.06593">
        <ele>940.9</ele>
        <time>2022-01-29T14:52:10.000Z</time>
      </trkpt>
      <trkpt lat="42.97295" lon="1.06611">
        <ele>939.7</ele>
        <time>2022-01-29T14:52:12.000Z</time>
      </trkpt>
      <trkpt lat="42.97295" lon="1.06628">
        <ele>938.5</ele>
        <time>2022-01-29T14:52:14.000Z</time>
      </trkpt>
      <trkpt lat="42.97295" lon="1.06643">
        <ele>937.2</ele>
        <time>2022-01-29T14:52:16.000Z</time>
      </trkpt>
      <trkpt lat="42.97295" lon="1.0666">
        <ele>935.4</ele>
        <time>2022-01-29T14:52:19.000Z</time>
      </trkpt>
      <trkpt lat="42.97285" lon="1.06663">
        <ele>934</ele>
        <time>2022-01-29T14:52:22.000Z</time>
      </trkpt>
      <trkpt lat="42.97276" lon="1.06662">
        <ele>932.6</ele>
        <time>2022-01-29T14:52:25.000Z</time>
      </trkpt>
      <trkpt lat="42.97267" lon="1.06668">
        <ele>930.5</ele>
        <time>2022-01-29T14:52:29.000Z</time>
      </trkpt>
      <trkpt lat="42.97258" lon="1.06675">
        <ele>928.9</ele>
        <time>2022-01-29T14:52:32.000Z</time>
      </trkpt>
      <trkpt lat="42.9725" lon="1.06687">
        <ele>927.1</ele>
        <time>2022-01-29T14:52:35.000Z</time>
      </trkpt>
      <trkpt lat="42.97241" lon="1.06703">
        <ele>925.3</ele>
        <time>2022-01-29T14:52:38.000Z</time>
      </trkpt>
      <trkpt lat="42.97235" lon="1.06712">
        <ele>924.3</ele>
        <time>2022-01-29T14:52:40.000Z</time>
      </trkpt>
      <trkpt lat="42.97228" lon="1.06722">
        <ele>922.4</ele>
        <time>2022-01-29T14:52:43.000Z</time>
      </trkpt>
      <trkpt lat="42.97225" lon="1.06734">
        <ele>920.4</ele>
        <time>2022-01-29T14:52:46.000Z</time>
      </trkpt>
      <trkpt lat="42.97214" lon="1.06739">
        <ele>919</ele>
        <time>2022-01-29T14:52:50.000Z</time>
      </trkpt>
      <trkpt lat="42.97203" lon="1.06734">
        <ele>916.8</ele>
        <time>2022-01-29T14:52:53.000Z</time>
      </trkpt>
      <trkpt lat="42.97194" lon="1.06731">
        <ele>914.7</ele>
        <time>2022-01-29T14:52:56.000Z</time>
      </trkpt>
      <trkpt lat="42.97183" lon="1.0673">
        <ele>914.2</ele>
        <time>2022-01-29T14:52:59.000Z</time>
      </trkpt>
      <trkpt lat="42.97172" lon="1.06729">
        <ele>912.4</ele>
        <time>2022-01-29T14:53:02.000Z</time>
      </trkpt>
      <trkpt lat="42.97161" lon="1.0673">
        <ele>910.7</ele>
        <time>2022-01-29T14:53:05.000Z</time>
      </trkpt>
      <trkpt lat="42.97153" lon="1.06736">
        <ele>908.7</ele>
        <time>2022-01-29T14:53:08.000Z</time>
      </trkpt>
      <trkpt lat="42.97144" lon="1.06741">
        <ele>906.6</ele>
        <time>2022-01-29T14:53:12.000Z</time>
      </trkpt>
      <trkpt lat="42.97135" lon="1.06746">
        <ele>903.5</ele>
        <time>2022-01-29T14:53:19.000Z</time>
      </trkpt>
      <trkpt lat="42.97127" lon="1.06753">
        <ele>901.9</ele>
        <time>2022-01-29T14:53:21.000Z</time>
      </trkpt>
      <trkpt lat="42.97119" lon="1.06759">
        <ele>901.2</ele>
        <time>2022-01-29T14:53:23.000Z</time>
      </trkpt>
      <trkpt lat="42.97109" lon="1.06766">
        <ele>899.6</ele>
        <time>2022-01-29T14:53:26.000Z</time>
      </trkpt>
      <trkpt lat="42.97099" lon="1.06775">
        <ele>898.2</ele>
        <time>2022-01-29T14:53:29.000Z</time>
      </trkpt>
      <trkpt lat="42.97092" lon="1.06783">
        <ele>897.1</ele>
        <time>2022-01-29T14:53:31.000Z</time>
      </trkpt>
      <trkpt lat="42.97081" lon="1.06792">
        <ele>895.9</ele>
        <time>2022-01-29T14:53:34.000Z</time>
      </trkpt>
      <trkpt lat="42.97073" lon="1.06799">
        <ele>894.7</ele>
        <time>2022-01-29T14:53:36.000Z</time>
      </trkpt>
      <trkpt lat="42.97064" lon="1.06804">
        <ele>893.9</ele>
        <time>2022-01-29T14:53:38.000Z</time>
      </trkpt>
      <trkpt lat="42.97054" lon="1.06809">
        <ele>892.9</ele>
        <time>2022-01-29T14:53:40.000Z</time>
      </trkpt>
      <trkpt lat="42.97045" lon="1.06812">
        <ele>891.9</ele>
        <time>2022-01-29T14:53:42.000Z</time>
      </trkpt>
      <trkpt lat="42.97036" lon="1.0681">
        <ele>890.8</ele>
        <time>2022-01-29T14:53:44.000Z</time>
      </trkpt>
      <trkpt lat="42.97026" lon="1.06803">
        <ele>889.3</ele>
        <time>2022-01-29T14:53:47.000Z</time>
      </trkpt>
      <trkpt lat="42.97012" lon="1.068">
        <ele>887.9</ele>
        <time>2022-01-29T14:53:50.000Z</time>
      </trkpt>
      <trkpt lat="42.96999" lon="1.06799">
        <ele>887.2</ele>
        <time>2022-01-29T14:53:52.000Z</time>
      </trkpt>
      <trkpt lat="42.96988" lon="1.06802">
        <ele>886.3</ele>
        <time>2022-01-29T14:53:54.000Z</time>
      </trkpt>
      <trkpt lat="42.96977" lon="1.06811">
        <ele>884.4</ele>
        <time>2022-01-29T14:53:56.000Z</time>
      </trkpt>
      <trkpt lat="42.96967" lon="1.06823">
        <ele>883.1</ele>
        <time>2022-01-29T14:53:58.000Z</time>
        <extensions>
          <visugpx:TrkExtension xmlns:visugpx="https://www.visugpx.com/editgpx/">
            <visugpx:node>1</visugpx:node>
            </visugpx:TrkExtension>
        </extensions>
      </trkpt>
    </trkseg>
  </trk>
</gpx>